<?xml version="1.0" encoding="UTF-8" standalone="no" ?>
<gpx xmlns="http://www.topografix.com/GPX/1/1" xmlns:xsi="http://www.w3.org/2001/XMLSchema-instance" xsi:schemaLocation="http://www.topografix.com/GPX/1/1 http://www.topografix.com/GPX/1/1/gpx.xsd" version="1.1" creator="VisuGPX - https://www.visugpx.com">
  <metadata>
    <name>Pointe de la Fenetre</name>
    <desc><![CDATA[Départ du Chatelard, vallée des Bellevilles]]></desc>
  </metadata>
  <trk>
    <name><![CDATA[Tracé actuel: 08 MARS 2016 08:31]]></name>
    <trkseg>
      <trkpt lat="45.37925" lon="6.49438">
        <ele>1352.23</ele>
        <time>2016-03-08T07:31:16Z</time>
      </trkpt>
      <trkpt lat="45.37923" lon="6.49439">
        <ele>1350.79</ele>
        <time>2016-03-08T07:31:33Z</time>
      </trkpt>
      <trkpt lat="45.37928" lon="6.49436">
        <ele>1350.79</ele>
        <time>2016-03-08T07:31:54Z</time>
      </trkpt>
      <trkpt lat="45.37928" lon="6.49438">
        <ele>1350.79</ele>
        <time>2016-03-08T07:32:21Z</time>
      </trkpt>
      <trkpt lat="45.37931" lon="6.49436">
        <ele>1350.79</ele>
        <time>2016-03-08T07:32:45Z</time>
      </trkpt>
      <trkpt lat="45.37931" lon="6.49437">
        <ele>1350.79</ele>
        <time>2016-03-08T07:33:07Z</time>
      </trkpt>
      <trkpt lat="45.37932" lon="6.4944">
        <ele>1350.79</ele>
        <time>2016-03-08T07:33:18Z</time>
      </trkpt>
      <trkpt lat="45.37935" lon="6.49442">
        <ele>1352.23</ele>
        <time>2016-03-08T07:33:21Z</time>
      </trkpt>
      <trkpt lat="45.3793" lon="6.49442">
        <ele>1352.23</ele>
        <time>2016-03-08T07:33:35Z</time>
      </trkpt>
      <trkpt lat="45.37929" lon="6.49441">
        <ele>1352.23</ele>
        <time>2016-03-08T07:33:50Z</time>
      </trkpt>
      <trkpt lat="45.37928" lon="6.49439">
        <ele>1352.23</ele>
        <time>2016-03-08T07:34:03Z</time>
      </trkpt>
      <trkpt lat="45.37935" lon="6.49437">
        <ele>1352.23</ele>
        <time>2016-03-08T07:34:27Z</time>
      </trkpt>
      <trkpt lat="45.37944" lon="6.49421">
        <ele>1353.67</ele>
        <time>2016-03-08T07:34:42Z</time>
      </trkpt>
      <trkpt lat="45.37952" lon="6.49408">
        <ele>1354.63</ele>
        <time>2016-03-08T07:34:53Z</time>
      </trkpt>
      <trkpt lat="45.37958" lon="6.49392">
        <ele>1357.04</ele>
        <time>2016-03-08T07:35:09Z</time>
      </trkpt>
      <trkpt lat="45.37961" lon="6.49391">
        <ele>1357.04</ele>
        <time>2016-03-08T07:35:28Z</time>
      </trkpt>
      <trkpt lat="45.3796" lon="6.49389">
        <ele>1357.52</ele>
        <time>2016-03-08T07:35:43Z</time>
      </trkpt>
      <trkpt lat="45.37959" lon="6.49391">
        <ele>1357.52</ele>
        <time>2016-03-08T07:35:57Z</time>
      </trkpt>
      <trkpt lat="45.37959" lon="6.49392">
        <ele>1357.52</ele>
        <time>2016-03-08T07:36:14Z</time>
      </trkpt>
      <trkpt lat="45.37956" lon="6.49396">
        <ele>1357.52</ele>
        <time>2016-03-08T07:36:22Z</time>
      </trkpt>
      <trkpt lat="45.37943" lon="6.49405">
        <ele>1358.48</ele>
        <time>2016-03-08T07:36:37Z</time>
      </trkpt>
      <trkpt lat="45.37938" lon="6.49407">
        <ele>1358.48</ele>
        <time>2016-03-08T07:36:43Z</time>
      </trkpt>
      <trkpt lat="45.37925" lon="6.49407">
        <ele>1360.4</ele>
        <time>2016-03-08T07:36:56Z</time>
      </trkpt>
      <trkpt lat="45.37918" lon="6.49403">
        <ele>1362.81</ele>
        <time>2016-03-08T07:37:09Z</time>
      </trkpt>
      <trkpt lat="45.37916" lon="6.494">
        <ele>1365.21</ele>
        <time>2016-03-08T07:37:19Z</time>
      </trkpt>
      <trkpt lat="45.37911" lon="6.49389">
        <ele>1368.09</ele>
        <time>2016-03-08T07:37:35Z</time>
      </trkpt>
      <trkpt lat="45.3791" lon="6.49387">
        <ele>1368.09</ele>
        <time>2016-03-08T07:37:37Z</time>
      </trkpt>
      <trkpt lat="45.37903" lon="6.49379">
        <ele>1371.46</ele>
        <time>2016-03-08T07:37:50Z</time>
      </trkpt>
      <trkpt lat="45.37901" lon="6.49372">
        <ele>1373.86</ele>
        <time>2016-03-08T07:38:04Z</time>
      </trkpt>
      <trkpt lat="45.37897" lon="6.49367">
        <ele>1376.75</ele>
        <time>2016-03-08T07:38:18Z</time>
      </trkpt>
      <trkpt lat="45.3789" lon="6.49364">
        <ele>1379.15</ele>
        <time>2016-03-08T07:38:32Z</time>
      </trkpt>
      <trkpt lat="45.37885" lon="6.49362">
        <ele>1380.11</ele>
        <time>2016-03-08T07:38:46Z</time>
      </trkpt>
      <trkpt lat="45.37881" lon="6.49362">
        <ele>1381.55</ele>
        <time>2016-03-08T07:38:57Z</time>
      </trkpt>
      <trkpt lat="45.3788" lon="6.49361">
        <ele>1381.07</ele>
        <time>2016-03-08T07:39:11Z</time>
      </trkpt>
      <trkpt lat="45.3788" lon="6.49354">
        <ele>1382.51</ele>
        <time>2016-03-08T07:39:22Z</time>
      </trkpt>
      <trkpt lat="45.37877" lon="6.49346">
        <ele>1383.96</ele>
        <time>2016-03-08T07:39:36Z</time>
      </trkpt>
      <trkpt lat="45.37872" lon="6.49345">
        <ele>1385.4</ele>
        <time>2016-03-08T07:39:58Z</time>
      </trkpt>
      <trkpt lat="45.37865" lon="6.49346">
        <ele>1387.32</ele>
        <time>2016-03-08T07:40:10Z</time>
      </trkpt>
      <trkpt lat="45.37857" lon="6.49345">
        <ele>1390.68</ele>
        <time>2016-03-08T07:40:24Z</time>
      </trkpt>
      <trkpt lat="45.37853" lon="6.49343">
        <ele>1391.17</ele>
        <time>2016-03-08T07:40:30Z</time>
      </trkpt>
      <trkpt lat="45.37845" lon="6.49337">
        <ele>1395.49</ele>
        <time>2016-03-08T07:40:45Z</time>
      </trkpt>
      <trkpt lat="45.3784" lon="6.49333">
        <ele>1397.41</ele>
        <time>2016-03-08T07:40:56Z</time>
      </trkpt>
      <trkpt lat="45.37833" lon="6.4933">
        <ele>1399.34</ele>
        <time>2016-03-08T07:41:08Z</time>
      </trkpt>
      <trkpt lat="45.37829" lon="6.49326">
        <ele>1402.7</ele>
        <time>2016-03-08T07:41:20Z</time>
      </trkpt>
      <trkpt lat="45.37829" lon="6.49331">
        <ele>1403.18</ele>
        <time>2016-03-08T07:41:29Z</time>
      </trkpt>
      <trkpt lat="45.37824" lon="6.4934">
        <ele>1406.55</ele>
        <time>2016-03-08T07:41:41Z</time>
      </trkpt>
      <trkpt lat="45.37824" lon="6.4934">
        <ele>1406.07</ele>
        <time>2016-03-08T07:41:42Z</time>
      </trkpt>
      <trkpt lat="45.37815" lon="6.49322">
        <ele>1407.03</ele>
        <time>2016-03-08T07:41:57Z</time>
      </trkpt>
      <trkpt lat="45.37802" lon="6.49309">
        <ele>1409.43</ele>
        <time>2016-03-08T07:42:15Z</time>
      </trkpt>
      <trkpt lat="45.37793" lon="6.49301">
        <ele>1411.83</ele>
        <time>2016-03-08T07:42:28Z</time>
      </trkpt>
      <trkpt lat="45.3778" lon="6.49298">
        <ele>1414.24</ele>
        <time>2016-03-08T07:42:44Z</time>
      </trkpt>
      <trkpt lat="45.37777" lon="6.49298">
        <ele>1415.68</ele>
        <time>2016-03-08T07:42:58Z</time>
      </trkpt>
      <trkpt lat="45.37767" lon="6.49295">
        <ele>1418.08</ele>
        <time>2016-03-08T07:43:12Z</time>
      </trkpt>
      <trkpt lat="45.37753" lon="6.4929">
        <ele>1420</ele>
        <time>2016-03-08T07:43:29Z</time>
      </trkpt>
      <trkpt lat="45.37745" lon="6.49288">
        <ele>1422.89</ele>
        <time>2016-03-08T07:43:42Z</time>
      </trkpt>
      <trkpt lat="45.37734" lon="6.49285">
        <ele>1426.25</ele>
        <time>2016-03-08T07:43:57Z</time>
      </trkpt>
      <trkpt lat="45.37731" lon="6.49283">
        <ele>1426.73</ele>
        <time>2016-03-08T07:44:00Z</time>
      </trkpt>
      <trkpt lat="45.37728" lon="6.49269">
        <ele>1429.62</ele>
        <time>2016-03-08T07:44:14Z</time>
      </trkpt>
      <trkpt lat="45.3772" lon="6.49257">
        <ele>1431.54</ele>
        <time>2016-03-08T07:44:28Z</time>
      </trkpt>
      <trkpt lat="45.37715" lon="6.49248">
        <ele>1434.42</ele>
        <time>2016-03-08T07:44:40Z</time>
      </trkpt>
      <trkpt lat="45.37709" lon="6.49236">
        <ele>1436.35</ele>
        <time>2016-03-08T07:44:54Z</time>
      </trkpt>
      <trkpt lat="45.37703" lon="6.49221">
        <ele>1438.75</ele>
        <time>2016-03-08T07:45:08Z</time>
      </trkpt>
      <trkpt lat="45.37695" lon="6.49196">
        <ele>1440.67</ele>
        <time>2016-03-08T07:45:25Z</time>
      </trkpt>
      <trkpt lat="45.3769" lon="6.49182">
        <ele>1442.6</ele>
        <time>2016-03-08T07:45:38Z</time>
      </trkpt>
      <trkpt lat="45.37684" lon="6.49172">
        <ele>1445.48</ele>
        <time>2016-03-08T07:45:50Z</time>
      </trkpt>
      <trkpt lat="45.3768" lon="6.49165">
        <ele>1446.92</ele>
        <time>2016-03-08T07:45:58Z</time>
      </trkpt>
      <trkpt lat="45.37677" lon="6.49155">
        <ele>1450.29</ele>
        <time>2016-03-08T07:46:11Z</time>
      </trkpt>
      <trkpt lat="45.37676" lon="6.49157">
        <ele>1450.29</ele>
        <time>2016-03-08T07:46:13Z</time>
      </trkpt>
      <trkpt lat="45.37667" lon="6.49171">
        <ele>1451.73</ele>
        <time>2016-03-08T07:46:25Z</time>
      </trkpt>
      <trkpt lat="45.37664" lon="6.49192">
        <ele>1453.65</ele>
        <time>2016-03-08T07:46:39Z</time>
      </trkpt>
      <trkpt lat="45.37662" lon="6.49204">
        <ele>1454.61</ele>
        <time>2016-03-08T07:46:47Z</time>
      </trkpt>
      <trkpt lat="45.37655" lon="6.49204">
        <ele>1455.57</ele>
        <time>2016-03-08T07:46:53Z</time>
      </trkpt>
      <trkpt lat="45.37651" lon="6.49178">
        <ele>1457.98</ele>
        <time>2016-03-08T07:47:08Z</time>
      </trkpt>
      <trkpt lat="45.37647" lon="6.49148">
        <ele>1458.94</ele>
        <time>2016-03-08T07:47:22Z</time>
      </trkpt>
      <trkpt lat="45.37645" lon="6.49119">
        <ele>1460.38</ele>
        <time>2016-03-08T07:47:37Z</time>
      </trkpt>
      <trkpt lat="45.37649" lon="6.49097">
        <ele>1462.3</ele>
        <time>2016-03-08T07:47:49Z</time>
      </trkpt>
      <trkpt lat="45.37652" lon="6.49089">
        <ele>1463.26</ele>
        <time>2016-03-08T07:47:54Z</time>
      </trkpt>
      <trkpt lat="45.37655" lon="6.49082">
        <ele>1463.74</ele>
        <time>2016-03-08T07:47:58Z</time>
      </trkpt>
      <trkpt lat="45.3766" lon="6.49072">
        <ele>1464.71</ele>
        <time>2016-03-08T07:48:04Z</time>
      </trkpt>
      <trkpt lat="45.37673" lon="6.49054">
        <ele>1467.11</ele>
        <time>2016-03-08T07:48:18Z</time>
      </trkpt>
      <trkpt lat="45.37684" lon="6.49033">
        <ele>1469.03</ele>
        <time>2016-03-08T07:48:31Z</time>
      </trkpt>
      <trkpt lat="45.37692" lon="6.4901">
        <ele>1469.99</ele>
        <time>2016-03-08T07:48:44Z</time>
      </trkpt>
      <trkpt lat="45.37693" lon="6.49006">
        <ele>1469.99</ele>
        <time>2016-03-08T07:48:58Z</time>
      </trkpt>
      <trkpt lat="45.37694" lon="6.49">
        <ele>1470.95</ele>
        <time>2016-03-08T07:49:10Z</time>
      </trkpt>
      <trkpt lat="45.37696" lon="6.4899">
        <ele>1471.44</ele>
        <time>2016-03-08T07:49:15Z</time>
      </trkpt>
      <trkpt lat="45.37697" lon="6.4898">
        <ele>1471.92</ele>
        <time>2016-03-08T07:49:21Z</time>
      </trkpt>
      <trkpt lat="45.37697" lon="6.48971">
        <ele>1473.36</ele>
        <time>2016-03-08T07:49:26Z</time>
      </trkpt>
      <trkpt lat="45.37686" lon="6.48968">
        <ele>1475.76</ele>
        <time>2016-03-08T07:49:38Z</time>
      </trkpt>
      <trkpt lat="45.37667" lon="6.4898">
        <ele>1478.65</ele>
        <time>2016-03-08T07:49:53Z</time>
      </trkpt>
      <trkpt lat="45.37644" lon="6.48993">
        <ele>1480.57</ele>
        <time>2016-03-08T07:50:09Z</time>
      </trkpt>
      <trkpt lat="45.37626" lon="6.49008">
        <ele>1482.01</ele>
        <time>2016-03-08T07:50:23Z</time>
      </trkpt>
      <trkpt lat="45.37608" lon="6.49017">
        <ele>1483.93</ele>
        <time>2016-03-08T07:50:36Z</time>
      </trkpt>
      <trkpt lat="45.3759" lon="6.49014">
        <ele>1485.85</ele>
        <time>2016-03-08T07:50:49Z</time>
      </trkpt>
      <trkpt lat="45.37593" lon="6.48995">
        <ele>1489.22</ele>
        <time>2016-03-08T07:51:01Z</time>
      </trkpt>
      <trkpt lat="45.37595" lon="6.48986">
        <ele>1490.66</ele>
        <time>2016-03-08T07:51:08Z</time>
      </trkpt>
      <trkpt lat="45.37599" lon="6.48979">
        <ele>1491.14</ele>
        <time>2016-03-08T07:51:13Z</time>
      </trkpt>
      <trkpt lat="45.37611" lon="6.48959">
        <ele>1493.06</ele>
        <time>2016-03-08T07:51:27Z</time>
      </trkpt>
      <trkpt lat="45.37614" lon="6.48953">
        <ele>1493.06</ele>
        <time>2016-03-08T07:51:31Z</time>
      </trkpt>
      <trkpt lat="45.37622" lon="6.48934">
        <ele>1494.99</ele>
        <time>2016-03-08T07:51:43Z</time>
      </trkpt>
      <trkpt lat="45.37626" lon="6.48899">
        <ele>1496.43</ele>
        <time>2016-03-08T07:51:59Z</time>
      </trkpt>
      <trkpt lat="45.37624" lon="6.48872">
        <ele>1498.35</ele>
        <time>2016-03-08T07:52:13Z</time>
      </trkpt>
      <trkpt lat="45.37623" lon="6.4887">
        <ele>1498.83</ele>
        <time>2016-03-08T07:52:15Z</time>
      </trkpt>
      <trkpt lat="45.37615" lon="6.48871">
        <ele>1500.76</ele>
        <time>2016-03-08T07:52:21Z</time>
      </trkpt>
      <trkpt lat="45.376" lon="6.48896">
        <ele>1504.12</ele>
        <time>2016-03-08T07:52:38Z</time>
      </trkpt>
      <trkpt lat="45.3758" lon="6.48915">
        <ele>1506.04</ele>
        <time>2016-03-08T07:52:54Z</time>
      </trkpt>
      <trkpt lat="45.37556" lon="6.48914">
        <ele>1507.97</ele>
        <time>2016-03-08T07:53:09Z</time>
      </trkpt>
      <trkpt lat="45.37538" lon="6.48916">
        <ele>1509.41</ele>
        <time>2016-03-08T07:53:23Z</time>
      </trkpt>
      <trkpt lat="45.37522" lon="6.48916">
        <ele>1511.81</ele>
        <time>2016-03-08T07:53:36Z</time>
      </trkpt>
      <trkpt lat="45.37517" lon="6.48914">
        <ele>1513.25</ele>
        <time>2016-03-08T07:53:40Z</time>
      </trkpt>
      <trkpt lat="45.37514" lon="6.48905">
        <ele>1515.18</ele>
        <time>2016-03-08T07:53:46Z</time>
      </trkpt>
      <trkpt lat="45.37521" lon="6.48885">
        <ele>1517.1</ele>
        <time>2016-03-08T07:53:58Z</time>
      </trkpt>
      <trkpt lat="45.37523" lon="6.48876">
        <ele>1517.1</ele>
        <time>2016-03-08T07:54:02Z</time>
      </trkpt>
      <trkpt lat="45.37523" lon="6.48853">
        <ele>1518.06</ele>
        <time>2016-03-08T07:54:12Z</time>
      </trkpt>
      <trkpt lat="45.37522" lon="6.48822">
        <ele>1519.98</ele>
        <time>2016-03-08T07:54:27Z</time>
      </trkpt>
      <trkpt lat="45.37522" lon="6.48796">
        <ele>1523.35</ele>
        <time>2016-03-08T07:54:40Z</time>
      </trkpt>
      <trkpt lat="45.37521" lon="6.4877">
        <ele>1525.75</ele>
        <time>2016-03-08T07:54:54Z</time>
      </trkpt>
      <trkpt lat="45.37506" lon="6.48761">
        <ele>1528.15</ele>
        <time>2016-03-08T07:55:08Z</time>
      </trkpt>
      <trkpt lat="45.37493" lon="6.48777">
        <ele>1531.04</ele>
        <time>2016-03-08T07:55:21Z</time>
      </trkpt>
      <trkpt lat="45.37492" lon="6.48784">
        <ele>1531.52</ele>
        <time>2016-03-08T07:55:25Z</time>
      </trkpt>
      <trkpt lat="45.37485" lon="6.48799">
        <ele>1532.48</ele>
        <time>2016-03-08T07:55:33Z</time>
      </trkpt>
      <trkpt lat="45.37468" lon="6.4882">
        <ele>1534.4</ele>
        <time>2016-03-08T07:55:47Z</time>
      </trkpt>
      <trkpt lat="45.37466" lon="6.48825">
        <ele>1534.4</ele>
        <time>2016-03-08T07:56:00Z</time>
      </trkpt>
      <trkpt lat="45.37466" lon="6.48826">
        <ele>1532.96</ele>
        <time>2016-03-08T07:56:10Z</time>
      </trkpt>
      <trkpt lat="45.37465" lon="6.48823">
        <ele>1533.92</ele>
        <time>2016-03-08T07:56:25Z</time>
      </trkpt>
      <trkpt lat="45.3746" lon="6.48826">
        <ele>1533.92</ele>
        <time>2016-03-08T07:56:55Z</time>
      </trkpt>
      <trkpt lat="45.37462" lon="6.48824">
        <ele>1534.4</ele>
        <time>2016-03-08T07:57:10Z</time>
      </trkpt>
      <trkpt lat="45.37462" lon="6.48822">
        <ele>1534.4</ele>
        <time>2016-03-08T07:57:22Z</time>
      </trkpt>
      <trkpt lat="45.37463" lon="6.48819">
        <ele>1534.4</ele>
        <time>2016-03-08T07:57:24Z</time>
      </trkpt>
      <trkpt lat="45.37465" lon="6.48813">
        <ele>1534.4</ele>
        <time>2016-03-08T07:57:27Z</time>
      </trkpt>
      <trkpt lat="45.3747" lon="6.48806">
        <ele>1532.96</ele>
        <time>2016-03-08T07:57:31Z</time>
      </trkpt>
      <trkpt lat="45.37489" lon="6.48772">
        <ele>1531.04</ele>
        <time>2016-03-08T07:57:45Z</time>
      </trkpt>
      <trkpt lat="45.37507" lon="6.48757">
        <ele>1527.67</ele>
        <time>2016-03-08T07:57:52Z</time>
      </trkpt>
      <trkpt lat="45.37525" lon="6.4878">
        <ele>1523.83</ele>
        <time>2016-03-08T07:58:03Z</time>
      </trkpt>
      <trkpt lat="45.37525" lon="6.48791">
        <ele>1522.39</ele>
        <time>2016-03-08T07:58:08Z</time>
      </trkpt>
      <trkpt lat="45.37525" lon="6.48793">
        <ele>1522.39</ele>
        <time>2016-03-08T07:58:09Z</time>
      </trkpt>
      <trkpt lat="45.37524" lon="6.48794">
        <ele>1522.39</ele>
        <time>2016-03-08T07:58:10Z</time>
      </trkpt>
      <trkpt lat="45.37523" lon="6.48795">
        <ele>1522.39</ele>
        <time>2016-03-08T07:58:11Z</time>
      </trkpt>
      <trkpt lat="45.37515" lon="6.488">
        <ele>1525.27</ele>
        <time>2016-03-08T07:58:23Z</time>
      </trkpt>
      <trkpt lat="45.3751" lon="6.48801">
        <ele>1525.75</ele>
        <time>2016-03-08T07:58:34Z</time>
      </trkpt>
      <trkpt lat="45.37509" lon="6.488">
        <ele>1526.71</ele>
        <time>2016-03-08T07:58:46Z</time>
      </trkpt>
      <trkpt lat="45.375" lon="6.48793">
        <ele>1528.15</ele>
        <time>2016-03-08T07:58:59Z</time>
      </trkpt>
      <trkpt lat="45.37493" lon="6.48793">
        <ele>1530.08</ele>
        <time>2016-03-08T07:59:11Z</time>
      </trkpt>
      <trkpt lat="45.37486" lon="6.48798">
        <ele>1532</ele>
        <time>2016-03-08T07:59:20Z</time>
      </trkpt>
      <trkpt lat="45.37485" lon="6.48799">
        <ele>1532</ele>
        <time>2016-03-08T07:59:21Z</time>
      </trkpt>
      <trkpt lat="45.37483" lon="6.488">
        <ele>1532</ele>
        <time>2016-03-08T07:59:22Z</time>
      </trkpt>
      <trkpt lat="45.37482" lon="6.488">
        <ele>1532</ele>
        <time>2016-03-08T07:59:23Z</time>
      </trkpt>
      <trkpt lat="45.37481" lon="6.48801">
        <ele>1532</ele>
        <time>2016-03-08T07:59:24Z</time>
      </trkpt>
      <trkpt lat="45.3748" lon="6.48802">
        <ele>1532</ele>
        <time>2016-03-08T07:59:25Z</time>
      </trkpt>
      <trkpt lat="45.37478" lon="6.48803">
        <ele>1532</ele>
        <time>2016-03-08T07:59:26Z</time>
      </trkpt>
      <trkpt lat="45.37473" lon="6.48806">
        <ele>1532.48</ele>
        <time>2016-03-08T07:59:29Z</time>
      </trkpt>
      <trkpt lat="45.37467" lon="6.48813">
        <ele>1532.96</ele>
        <time>2016-03-08T07:59:35Z</time>
      </trkpt>
      <trkpt lat="45.37466" lon="6.48813">
        <ele>1532.96</ele>
        <time>2016-03-08T07:59:36Z</time>
      </trkpt>
      <trkpt lat="45.37466" lon="6.48814">
        <ele>1532.96</ele>
        <time>2016-03-08T07:59:37Z</time>
      </trkpt>
      <trkpt lat="45.37464" lon="6.4882">
        <ele>1533.44</ele>
        <time>2016-03-08T07:59:42Z</time>
      </trkpt>
      <trkpt lat="45.37459" lon="6.48843">
        <ele>1535.36</ele>
        <time>2016-03-08T07:59:57Z</time>
      </trkpt>
      <trkpt lat="45.37459" lon="6.48854">
        <ele>1536.8</ele>
        <time>2016-03-08T08:00:06Z</time>
      </trkpt>
      <trkpt lat="45.3746" lon="6.48856">
        <ele>1536.8</ele>
        <time>2016-03-08T08:00:07Z</time>
      </trkpt>
      <trkpt lat="45.37458" lon="6.48867">
        <ele>1537.77</ele>
        <time>2016-03-08T08:00:15Z</time>
      </trkpt>
      <trkpt lat="45.37458" lon="6.48869">
        <ele>1537.77</ele>
        <time>2016-03-08T08:00:16Z</time>
      </trkpt>
      <trkpt lat="45.37455" lon="6.4889">
        <ele>1538.73</ele>
        <time>2016-03-08T08:00:30Z</time>
      </trkpt>
      <trkpt lat="45.37456" lon="6.48896">
        <ele>1539.21</ele>
        <time>2016-03-08T08:00:35Z</time>
      </trkpt>
      <trkpt lat="45.37454" lon="6.48908">
        <ele>1540.17</ele>
        <time>2016-03-08T08:00:48Z</time>
      </trkpt>
      <trkpt lat="45.37454" lon="6.48912">
        <ele>1540.65</ele>
        <time>2016-03-08T08:00:51Z</time>
      </trkpt>
      <trkpt lat="45.37454" lon="6.48915">
        <ele>1540.65</ele>
        <time>2016-03-08T08:00:53Z</time>
      </trkpt>
      <trkpt lat="45.37453" lon="6.48928">
        <ele>1542.57</ele>
        <time>2016-03-08T08:01:04Z</time>
      </trkpt>
      <trkpt lat="45.37453" lon="6.48948">
        <ele>1543.53</ele>
        <time>2016-03-08T08:01:19Z</time>
      </trkpt>
      <trkpt lat="45.37454" lon="6.48963">
        <ele>1545.46</ele>
        <time>2016-03-08T08:01:31Z</time>
      </trkpt>
      <trkpt lat="45.37451" lon="6.4898">
        <ele>1546.42</ele>
        <time>2016-03-08T08:01:42Z</time>
      </trkpt>
      <trkpt lat="45.3745" lon="6.48982">
        <ele>1547.38</ele>
        <time>2016-03-08T08:01:43Z</time>
      </trkpt>
      <trkpt lat="45.3745" lon="6.48984">
        <ele>1547.38</ele>
        <time>2016-03-08T08:01:44Z</time>
      </trkpt>
      <trkpt lat="45.37446" lon="6.49001">
        <ele>1548.34</ele>
        <time>2016-03-08T08:01:59Z</time>
      </trkpt>
      <trkpt lat="45.37445" lon="6.49003">
        <ele>1548.82</ele>
        <time>2016-03-08T08:02:02Z</time>
      </trkpt>
      <trkpt lat="45.37444" lon="6.49004">
        <ele>1548.82</ele>
        <time>2016-03-08T08:02:03Z</time>
      </trkpt>
      <trkpt lat="45.37443" lon="6.49006">
        <ele>1548.82</ele>
        <time>2016-03-08T08:02:04Z</time>
      </trkpt>
      <trkpt lat="45.37442" lon="6.49007">
        <ele>1548.82</ele>
        <time>2016-03-08T08:02:05Z</time>
      </trkpt>
      <trkpt lat="45.37441" lon="6.49007">
        <ele>1548.82</ele>
        <time>2016-03-08T08:02:06Z</time>
      </trkpt>
      <trkpt lat="45.37432" lon="6.49015">
        <ele>1549.3</ele>
        <time>2016-03-08T08:02:16Z</time>
      </trkpt>
      <trkpt lat="45.37431" lon="6.49016">
        <ele>1549.3</ele>
        <time>2016-03-08T08:02:17Z</time>
      </trkpt>
      <trkpt lat="45.37423" lon="6.49037">
        <ele>1551.22</ele>
        <time>2016-03-08T08:02:32Z</time>
      </trkpt>
      <trkpt lat="45.37408" lon="6.49045">
        <ele>1553.15</ele>
        <time>2016-03-08T08:02:46Z</time>
      </trkpt>
      <trkpt lat="45.37393" lon="6.49039">
        <ele>1554.59</ele>
        <time>2016-03-08T08:03:00Z</time>
      </trkpt>
      <trkpt lat="45.37383" lon="6.49026">
        <ele>1556.99</ele>
        <time>2016-03-08T08:03:14Z</time>
      </trkpt>
      <trkpt lat="45.37374" lon="6.49013">
        <ele>1558.43</ele>
        <time>2016-03-08T08:03:28Z</time>
      </trkpt>
      <trkpt lat="45.37374" lon="6.49013">
        <ele>1558.43</ele>
        <time>2016-03-08T08:03:29Z</time>
      </trkpt>
      <trkpt lat="45.37373" lon="6.49012">
        <ele>1558.92</ele>
        <time>2016-03-08T08:03:30Z</time>
      </trkpt>
      <trkpt lat="45.37363" lon="6.48996">
        <ele>1560.84</ele>
        <time>2016-03-08T08:03:45Z</time>
      </trkpt>
      <trkpt lat="45.37356" lon="6.4899">
        <ele>1562.28</ele>
        <time>2016-03-08T08:03:54Z</time>
      </trkpt>
      <trkpt lat="45.37344" lon="6.48979">
        <ele>1565.16</ele>
        <time>2016-03-08T08:04:11Z</time>
      </trkpt>
      <trkpt lat="45.37341" lon="6.48977">
        <ele>1565.64</ele>
        <time>2016-03-08T08:04:15Z</time>
      </trkpt>
      <trkpt lat="45.3734" lon="6.48977">
        <ele>1565.64</ele>
        <time>2016-03-08T08:04:16Z</time>
      </trkpt>
      <trkpt lat="45.37325" lon="6.48973">
        <ele>1567.09</ele>
        <time>2016-03-08T08:04:31Z</time>
      </trkpt>
      <trkpt lat="45.37308" lon="6.48972">
        <ele>1568.53</ele>
        <time>2016-03-08T08:04:47Z</time>
      </trkpt>
      <trkpt lat="45.37293" lon="6.48974">
        <ele>1570.45</ele>
        <time>2016-03-08T08:05:03Z</time>
      </trkpt>
      <trkpt lat="45.37284" lon="6.4898">
        <ele>1572.37</ele>
        <time>2016-03-08T08:05:15Z</time>
      </trkpt>
      <trkpt lat="45.37282" lon="6.48983">
        <ele>1572.37</ele>
        <time>2016-03-08T08:05:18Z</time>
      </trkpt>
      <trkpt lat="45.3727" lon="6.48994">
        <ele>1574.78</ele>
        <time>2016-03-08T08:05:33Z</time>
      </trkpt>
      <trkpt lat="45.37257" lon="6.49004">
        <ele>1576.7</ele>
        <time>2016-03-08T08:05:49Z</time>
      </trkpt>
      <trkpt lat="45.37237" lon="6.49012">
        <ele>1577.66</ele>
        <time>2016-03-08T08:06:07Z</time>
      </trkpt>
      <trkpt lat="45.37223" lon="6.49014">
        <ele>1579.58</ele>
        <time>2016-03-08T08:06:22Z</time>
      </trkpt>
      <trkpt lat="45.37209" lon="6.49018">
        <ele>1581.51</ele>
        <time>2016-03-08T08:06:39Z</time>
      </trkpt>
      <trkpt lat="45.37196" lon="6.4902">
        <ele>1583.43</ele>
        <time>2016-03-08T08:06:53Z</time>
      </trkpt>
      <trkpt lat="45.37195" lon="6.4902">
        <ele>1583.43</ele>
        <time>2016-03-08T08:06:54Z</time>
      </trkpt>
      <trkpt lat="45.37184" lon="6.49023">
        <ele>1585.35</ele>
        <time>2016-03-08T08:07:08Z</time>
      </trkpt>
      <trkpt lat="45.37171" lon="6.49025">
        <ele>1587.75</ele>
        <time>2016-03-08T08:07:23Z</time>
      </trkpt>
      <trkpt lat="45.37169" lon="6.49027">
        <ele>1587.75</ele>
        <time>2016-03-08T08:07:43Z</time>
      </trkpt>
      <trkpt lat="45.37167" lon="6.49024">
        <ele>1587.75</ele>
        <time>2016-03-08T08:08:14Z</time>
      </trkpt>
      <trkpt lat="45.37163" lon="6.4902">
        <ele>1588.72</ele>
        <time>2016-03-08T08:08:33Z</time>
      </trkpt>
      <trkpt lat="45.37163" lon="6.49012">
        <ele>1589.2</ele>
        <time>2016-03-08T08:08:39Z</time>
      </trkpt>
      <trkpt lat="45.37165" lon="6.49006">
        <ele>1590.16</ele>
        <time>2016-03-08T08:08:45Z</time>
      </trkpt>
      <trkpt lat="45.37181" lon="6.48999">
        <ele>1592.56</ele>
        <time>2016-03-08T08:09:01Z</time>
      </trkpt>
      <trkpt lat="45.37199" lon="6.48991">
        <ele>1593.52</ele>
        <time>2016-03-08T08:09:19Z</time>
      </trkpt>
      <trkpt lat="45.3721" lon="6.48982">
        <ele>1594.48</ele>
        <time>2016-03-08T08:09:32Z</time>
      </trkpt>
      <trkpt lat="45.3721" lon="6.48981">
        <ele>1594.96</ele>
        <time>2016-03-08T08:09:33Z</time>
      </trkpt>
      <trkpt lat="45.37211" lon="6.4898">
        <ele>1594.48</ele>
        <time>2016-03-08T08:09:34Z</time>
      </trkpt>
      <trkpt lat="45.37212" lon="6.48979">
        <ele>1594.48</ele>
        <time>2016-03-08T08:09:35Z</time>
      </trkpt>
      <trkpt lat="45.37213" lon="6.48977">
        <ele>1594.48</ele>
        <time>2016-03-08T08:09:36Z</time>
      </trkpt>
      <trkpt lat="45.37214" lon="6.4896">
        <ele>1595.45</ele>
        <time>2016-03-08T08:09:49Z</time>
      </trkpt>
      <trkpt lat="45.37214" lon="6.48959">
        <ele>1595.45</ele>
        <time>2016-03-08T08:09:50Z</time>
      </trkpt>
      <trkpt lat="45.37214" lon="6.48957">
        <ele>1595.45</ele>
        <time>2016-03-08T08:09:51Z</time>
      </trkpt>
      <trkpt lat="45.37214" lon="6.48955">
        <ele>1595.45</ele>
        <time>2016-03-08T08:09:52Z</time>
      </trkpt>
      <trkpt lat="45.37215" lon="6.48953">
        <ele>1595.45</ele>
        <time>2016-03-08T08:09:53Z</time>
      </trkpt>
      <trkpt lat="45.37223" lon="6.48932">
        <ele>1596.41</ele>
        <time>2016-03-08T08:10:09Z</time>
      </trkpt>
      <trkpt lat="45.37234" lon="6.48915">
        <ele>1599.29</ele>
        <time>2016-03-08T08:10:25Z</time>
      </trkpt>
      <trkpt lat="45.37235" lon="6.48912">
        <ele>1598.81</ele>
        <time>2016-03-08T08:10:28Z</time>
      </trkpt>
      <trkpt lat="45.37235" lon="6.4891">
        <ele>1599.29</ele>
        <time>2016-03-08T08:10:29Z</time>
      </trkpt>
      <trkpt lat="45.37238" lon="6.48896">
        <ele>1600.25</ele>
        <time>2016-03-08T08:10:39Z</time>
      </trkpt>
      <trkpt lat="45.37238" lon="6.48895">
        <ele>1601.21</ele>
        <time>2016-03-08T08:10:40Z</time>
      </trkpt>
      <trkpt lat="45.37238" lon="6.48873">
        <ele>1601.69</ele>
        <time>2016-03-08T08:10:54Z</time>
      </trkpt>
      <trkpt lat="45.37243" lon="6.48849">
        <ele>1604.1</ele>
        <time>2016-03-08T08:11:11Z</time>
      </trkpt>
      <trkpt lat="45.37256" lon="6.48832">
        <ele>1604.58</ele>
        <time>2016-03-08T08:11:27Z</time>
      </trkpt>
      <trkpt lat="45.37267" lon="6.48821">
        <ele>1606.5</ele>
        <time>2016-03-08T08:11:42Z</time>
      </trkpt>
      <trkpt lat="45.3727" lon="6.4881">
        <ele>1607.46</ele>
        <time>2016-03-08T08:11:50Z</time>
      </trkpt>
      <trkpt lat="45.3727" lon="6.48809">
        <ele>1607.46</ele>
        <time>2016-03-08T08:11:51Z</time>
      </trkpt>
      <trkpt lat="45.37268" lon="6.48804">
        <ele>1607.94</ele>
        <time>2016-03-08T08:11:56Z</time>
      </trkpt>
      <trkpt lat="45.37267" lon="6.48804">
        <ele>1607.94</ele>
        <time>2016-03-08T08:11:57Z</time>
      </trkpt>
      <trkpt lat="45.37266" lon="6.48804">
        <ele>1607.94</ele>
        <time>2016-03-08T08:11:58Z</time>
      </trkpt>
      <trkpt lat="45.37251" lon="6.48809">
        <ele>1610.35</ele>
        <time>2016-03-08T08:12:15Z</time>
      </trkpt>
      <trkpt lat="45.37235" lon="6.48821">
        <ele>1612.27</ele>
        <time>2016-03-08T08:12:33Z</time>
      </trkpt>
      <trkpt lat="45.37221" lon="6.48832">
        <ele>1614.67</ele>
        <time>2016-03-08T08:12:49Z</time>
      </trkpt>
      <trkpt lat="45.37205" lon="6.4884">
        <ele>1616.11</ele>
        <time>2016-03-08T08:13:04Z</time>
      </trkpt>
      <trkpt lat="45.37199" lon="6.48844">
        <ele>1617.07</ele>
        <time>2016-03-08T08:13:11Z</time>
      </trkpt>
      <trkpt lat="45.37198" lon="6.48844">
        <ele>1617.07</ele>
        <time>2016-03-08T08:13:12Z</time>
      </trkpt>
      <trkpt lat="45.37181" lon="6.48854">
        <ele>1618.04</ele>
        <time>2016-03-08T08:13:28Z</time>
      </trkpt>
      <trkpt lat="45.37178" lon="6.48855">
        <ele>1618.04</ele>
        <time>2016-03-08T08:13:30Z</time>
      </trkpt>
      <trkpt lat="45.37177" lon="6.48856">
        <ele>1618.04</ele>
        <time>2016-03-08T08:13:31Z</time>
      </trkpt>
      <trkpt lat="45.37162" lon="6.48869">
        <ele>1619.48</ele>
        <time>2016-03-08T08:13:47Z</time>
      </trkpt>
      <trkpt lat="45.37148" lon="6.48885">
        <ele>1621.4</ele>
        <time>2016-03-08T08:14:04Z</time>
      </trkpt>
      <trkpt lat="45.3713" lon="6.48896">
        <ele>1621.88</ele>
        <time>2016-03-08T08:14:20Z</time>
      </trkpt>
      <trkpt lat="45.37112" lon="6.48906">
        <ele>1623.32</ele>
        <time>2016-03-08T08:14:38Z</time>
      </trkpt>
      <trkpt lat="45.37096" lon="6.48912">
        <ele>1624.77</ele>
        <time>2016-03-08T08:14:53Z</time>
      </trkpt>
      <trkpt lat="45.37091" lon="6.48904">
        <ele>1626.21</ele>
        <time>2016-03-08T08:15:04Z</time>
      </trkpt>
      <trkpt lat="45.37093" lon="6.48898">
        <ele>1627.17</ele>
        <time>2016-03-08T08:15:08Z</time>
      </trkpt>
      <trkpt lat="45.37093" lon="6.48896">
        <ele>1627.17</ele>
        <time>2016-03-08T08:15:09Z</time>
      </trkpt>
      <trkpt lat="45.37095" lon="6.48894">
        <ele>1627.17</ele>
        <time>2016-03-08T08:15:12Z</time>
      </trkpt>
      <trkpt lat="45.37096" lon="6.48893">
        <ele>1627.65</ele>
        <time>2016-03-08T08:15:13Z</time>
      </trkpt>
      <trkpt lat="45.37111" lon="6.48875">
        <ele>1628.61</ele>
        <time>2016-03-08T08:15:30Z</time>
      </trkpt>
      <trkpt lat="45.37113" lon="6.48873">
        <ele>1628.13</ele>
        <time>2016-03-08T08:15:37Z</time>
      </trkpt>
      <trkpt lat="45.37124" lon="6.48853">
        <ele>1629.57</ele>
        <time>2016-03-08T08:15:53Z</time>
      </trkpt>
      <trkpt lat="45.37125" lon="6.48852">
        <ele>1629.57</ele>
        <time>2016-03-08T08:15:54Z</time>
      </trkpt>
      <trkpt lat="45.37134" lon="6.48835">
        <ele>1631.98</ele>
        <time>2016-03-08T08:16:09Z</time>
      </trkpt>
      <trkpt lat="45.37144" lon="6.48815">
        <ele>1634.38</ele>
        <time>2016-03-08T08:16:24Z</time>
      </trkpt>
      <trkpt lat="45.37149" lon="6.48784">
        <ele>1635.82</ele>
        <time>2016-03-08T08:16:40Z</time>
      </trkpt>
      <trkpt lat="45.37154" lon="6.48762">
        <ele>1637.26</ele>
        <time>2016-03-08T08:16:52Z</time>
      </trkpt>
      <trkpt lat="45.3716" lon="6.48743">
        <ele>1640.63</ele>
        <time>2016-03-08T08:17:05Z</time>
      </trkpt>
      <trkpt lat="45.37161" lon="6.48717">
        <ele>1642.55</ele>
        <time>2016-03-08T08:17:20Z</time>
      </trkpt>
      <trkpt lat="45.3716" lon="6.48688">
        <ele>1643.99</ele>
        <time>2016-03-08T08:17:34Z</time>
      </trkpt>
      <trkpt lat="45.3716" lon="6.48686">
        <ele>1643.99</ele>
        <time>2016-03-08T08:17:35Z</time>
      </trkpt>
      <trkpt lat="45.3716" lon="6.48684">
        <ele>1643.99</ele>
        <time>2016-03-08T08:17:36Z</time>
      </trkpt>
      <trkpt lat="45.37161" lon="6.48681">
        <ele>1644.47</ele>
        <time>2016-03-08T08:17:37Z</time>
      </trkpt>
      <trkpt lat="45.37161" lon="6.48679">
        <ele>1644.47</ele>
        <time>2016-03-08T08:17:38Z</time>
      </trkpt>
      <trkpt lat="45.37161" lon="6.48677">
        <ele>1644.47</ele>
        <time>2016-03-08T08:17:39Z</time>
      </trkpt>
      <trkpt lat="45.37161" lon="6.48675">
        <ele>1644.47</ele>
        <time>2016-03-08T08:17:40Z</time>
      </trkpt>
      <trkpt lat="45.37161" lon="6.48673">
        <ele>1644.47</ele>
        <time>2016-03-08T08:17:41Z</time>
      </trkpt>
      <trkpt lat="45.37161" lon="6.48671">
        <ele>1644.47</ele>
        <time>2016-03-08T08:17:42Z</time>
      </trkpt>
      <trkpt lat="45.37161" lon="6.48669">
        <ele>1644.95</ele>
        <time>2016-03-08T08:17:43Z</time>
      </trkpt>
      <trkpt lat="45.37166" lon="6.48639">
        <ele>1646.4</ele>
        <time>2016-03-08T08:17:58Z</time>
      </trkpt>
      <trkpt lat="45.37171" lon="6.48611">
        <ele>1649.28</ele>
        <time>2016-03-08T08:18:12Z</time>
      </trkpt>
      <trkpt lat="45.37172" lon="6.48603">
        <ele>1649.28</ele>
        <time>2016-03-08T08:18:16Z</time>
      </trkpt>
      <trkpt lat="45.37172" lon="6.48601">
        <ele>1649.76</ele>
        <time>2016-03-08T08:18:17Z</time>
      </trkpt>
      <trkpt lat="45.37172" lon="6.486">
        <ele>1649.76</ele>
        <time>2016-03-08T08:18:18Z</time>
      </trkpt>
      <trkpt lat="45.37172" lon="6.48598">
        <ele>1649.76</ele>
        <time>2016-03-08T08:18:19Z</time>
      </trkpt>
      <trkpt lat="45.37173" lon="6.48595">
        <ele>1650.24</ele>
        <time>2016-03-08T08:18:20Z</time>
      </trkpt>
      <trkpt lat="45.37173" lon="6.48593">
        <ele>1650.24</ele>
        <time>2016-03-08T08:18:21Z</time>
      </trkpt>
      <trkpt lat="45.37173" lon="6.48592">
        <ele>1650.24</ele>
        <time>2016-03-08T08:18:22Z</time>
      </trkpt>
      <trkpt lat="45.37174" lon="6.4859">
        <ele>1650.72</ele>
        <time>2016-03-08T08:18:23Z</time>
      </trkpt>
      <trkpt lat="45.3718" lon="6.48565">
        <ele>1652.16</ele>
        <time>2016-03-08T08:18:37Z</time>
      </trkpt>
      <trkpt lat="45.37185" lon="6.4854">
        <ele>1654.57</ele>
        <time>2016-03-08T08:18:50Z</time>
      </trkpt>
      <trkpt lat="45.37184" lon="6.48511">
        <ele>1656.49</ele>
        <time>2016-03-08T08:19:05Z</time>
      </trkpt>
      <trkpt lat="45.37176" lon="6.48483">
        <ele>1658.89</ele>
        <time>2016-03-08T08:19:22Z</time>
      </trkpt>
      <trkpt lat="45.37169" lon="6.48476">
        <ele>1661.3</ele>
        <time>2016-03-08T08:19:30Z</time>
      </trkpt>
      <trkpt lat="45.37167" lon="6.48477">
        <ele>1661.3</ele>
        <time>2016-03-08T08:19:31Z</time>
      </trkpt>
      <trkpt lat="45.37166" lon="6.48478">
        <ele>1661.3</ele>
        <time>2016-03-08T08:19:32Z</time>
      </trkpt>
      <trkpt lat="45.37166" lon="6.48479">
        <ele>1662.26</ele>
        <time>2016-03-08T08:19:33Z</time>
      </trkpt>
      <trkpt lat="45.37165" lon="6.48481">
        <ele>1662.26</ele>
        <time>2016-03-08T08:19:34Z</time>
      </trkpt>
      <trkpt lat="45.37164" lon="6.48483">
        <ele>1662.26</ele>
        <time>2016-03-08T08:19:35Z</time>
      </trkpt>
      <trkpt lat="45.37155" lon="6.4851">
        <ele>1663.7</ele>
        <time>2016-03-08T08:19:49Z</time>
      </trkpt>
      <trkpt lat="45.37141" lon="6.48532">
        <ele>1665.14</ele>
        <time>2016-03-08T08:20:04Z</time>
      </trkpt>
      <trkpt lat="45.37118" lon="6.48551">
        <ele>1668.02</ele>
        <time>2016-03-08T08:20:22Z</time>
      </trkpt>
      <trkpt lat="45.37096" lon="6.48569">
        <ele>1670.43</ele>
        <time>2016-03-08T08:20:40Z</time>
      </trkpt>
      <trkpt lat="45.37075" lon="6.48578">
        <ele>1673.79</ele>
        <time>2016-03-08T08:20:56Z</time>
      </trkpt>
      <trkpt lat="45.37063" lon="6.48591">
        <ele>1677.16</ele>
        <time>2016-03-08T08:21:09Z</time>
      </trkpt>
      <trkpt lat="45.37051" lon="6.48619">
        <ele>1678.6</ele>
        <time>2016-03-08T08:21:24Z</time>
      </trkpt>
      <trkpt lat="45.37036" lon="6.48646">
        <ele>1680.04</ele>
        <time>2016-03-08T08:21:39Z</time>
      </trkpt>
      <trkpt lat="45.3702" lon="6.48672">
        <ele>1682.44</ele>
        <time>2016-03-08T08:21:55Z</time>
      </trkpt>
      <trkpt lat="45.37019" lon="6.48674">
        <ele>1682.93</ele>
        <time>2016-03-08T08:21:56Z</time>
      </trkpt>
      <trkpt lat="45.37018" lon="6.48676">
        <ele>1682.93</ele>
        <time>2016-03-08T08:21:57Z</time>
      </trkpt>
      <trkpt lat="45.37018" lon="6.48678">
        <ele>1682.93</ele>
        <time>2016-03-08T08:21:58Z</time>
      </trkpt>
      <trkpt lat="45.37017" lon="6.48679">
        <ele>1682.93</ele>
        <time>2016-03-08T08:21:59Z</time>
      </trkpt>
      <trkpt lat="45.37016" lon="6.48681">
        <ele>1683.41</ele>
        <time>2016-03-08T08:22:00Z</time>
      </trkpt>
      <trkpt lat="45.37002" lon="6.48707">
        <ele>1685.33</ele>
        <time>2016-03-08T08:22:16Z</time>
      </trkpt>
      <trkpt lat="45.36982" lon="6.48732">
        <ele>1688.21</ele>
        <time>2016-03-08T08:22:32Z</time>
      </trkpt>
      <trkpt lat="45.3696" lon="6.4875">
        <ele>1689.65</ele>
        <time>2016-03-08T08:22:48Z</time>
      </trkpt>
      <trkpt lat="45.36947" lon="6.48751">
        <ele>1691.58</ele>
        <time>2016-03-08T08:22:57Z</time>
      </trkpt>
      <trkpt lat="45.36936" lon="6.48743">
        <ele>1692.54</ele>
        <time>2016-03-08T08:23:05Z</time>
      </trkpt>
      <trkpt lat="45.36935" lon="6.48742">
        <ele>1692.54</ele>
        <time>2016-03-08T08:23:06Z</time>
      </trkpt>
      <trkpt lat="45.36934" lon="6.4874">
        <ele>1693.02</ele>
        <time>2016-03-08T08:23:07Z</time>
      </trkpt>
      <trkpt lat="45.36933" lon="6.48739">
        <ele>1693.02</ele>
        <time>2016-03-08T08:23:08Z</time>
      </trkpt>
      <trkpt lat="45.36932" lon="6.48737">
        <ele>1693.5</ele>
        <time>2016-03-08T08:23:09Z</time>
      </trkpt>
      <trkpt lat="45.36931" lon="6.48736">
        <ele>1693.5</ele>
        <time>2016-03-08T08:23:10Z</time>
      </trkpt>
      <trkpt lat="45.3693" lon="6.48734">
        <ele>1693.5</ele>
        <time>2016-03-08T08:23:11Z</time>
      </trkpt>
      <trkpt lat="45.36929" lon="6.48732">
        <ele>1693.5</ele>
        <time>2016-03-08T08:23:12Z</time>
      </trkpt>
      <trkpt lat="45.36926" lon="6.48714">
        <ele>1696.38</ele>
        <time>2016-03-08T08:23:21Z</time>
      </trkpt>
      <trkpt lat="45.36926" lon="6.48711">
        <ele>1694.94</ele>
        <time>2016-03-08T08:23:23Z</time>
      </trkpt>
      <trkpt lat="45.36926" lon="6.48707">
        <ele>1697.34</ele>
        <time>2016-03-08T08:23:25Z</time>
      </trkpt>
      <trkpt lat="45.36939" lon="6.4868">
        <ele>1699.75</ele>
        <time>2016-03-08T08:23:42Z</time>
      </trkpt>
      <trkpt lat="45.3695" lon="6.48661">
        <ele>1702.63</ele>
        <time>2016-03-08T08:23:54Z</time>
      </trkpt>
      <trkpt lat="45.36961" lon="6.4863">
        <ele>1705.52</ele>
        <time>2016-03-08T08:24:11Z</time>
      </trkpt>
      <trkpt lat="45.36964" lon="6.48603">
        <ele>1706.96</ele>
        <time>2016-03-08T08:24:23Z</time>
      </trkpt>
      <trkpt lat="45.36965" lon="6.48579">
        <ele>1707.92</ele>
        <time>2016-03-08T08:24:34Z</time>
      </trkpt>
      <trkpt lat="45.36966" lon="6.48571">
        <ele>1709.36</ele>
        <time>2016-03-08T08:24:37Z</time>
      </trkpt>
      <trkpt lat="45.36966" lon="6.48538">
        <ele>1710.8</ele>
        <time>2016-03-08T08:24:52Z</time>
      </trkpt>
      <trkpt lat="45.36966" lon="6.48534">
        <ele>1711.76</ele>
        <time>2016-03-08T08:24:54Z</time>
      </trkpt>
      <trkpt lat="45.36965" lon="6.48533">
        <ele>1711.76</ele>
        <time>2016-03-08T08:24:55Z</time>
      </trkpt>
      <trkpt lat="45.36965" lon="6.48531">
        <ele>1711.76</ele>
        <time>2016-03-08T08:24:56Z</time>
      </trkpt>
      <trkpt lat="45.36964" lon="6.48529">
        <ele>1712.25</ele>
        <time>2016-03-08T08:24:58Z</time>
      </trkpt>
      <trkpt lat="45.36963" lon="6.48527">
        <ele>1712.73</ele>
        <time>2016-03-08T08:24:59Z</time>
      </trkpt>
      <trkpt lat="45.36962" lon="6.48527">
        <ele>1713.21</ele>
        <time>2016-03-08T08:25:00Z</time>
      </trkpt>
      <trkpt lat="45.3696" lon="6.48526">
        <ele>1712.73</ele>
        <time>2016-03-08T08:25:01Z</time>
      </trkpt>
      <trkpt lat="45.36959" lon="6.48526">
        <ele>1713.69</ele>
        <time>2016-03-08T08:25:02Z</time>
      </trkpt>
      <trkpt lat="45.36957" lon="6.48527">
        <ele>1713.69</ele>
        <time>2016-03-08T08:25:03Z</time>
      </trkpt>
      <trkpt lat="45.36956" lon="6.48528">
        <ele>1714.17</ele>
        <time>2016-03-08T08:25:04Z</time>
      </trkpt>
      <trkpt lat="45.36946" lon="6.48549">
        <ele>1717.53</ele>
        <time>2016-03-08T08:25:16Z</time>
      </trkpt>
      <trkpt lat="45.36934" lon="6.48573">
        <ele>1718.49</ele>
        <time>2016-03-08T08:25:29Z</time>
      </trkpt>
      <trkpt lat="45.3692" lon="6.48574">
        <ele>1719.46</ele>
        <time>2016-03-08T08:25:37Z</time>
      </trkpt>
      <trkpt lat="45.36919" lon="6.48573">
        <ele>1719.94</ele>
        <time>2016-03-08T08:25:38Z</time>
      </trkpt>
      <trkpt lat="45.36918" lon="6.48573">
        <ele>1719.94</ele>
        <time>2016-03-08T08:25:39Z</time>
      </trkpt>
      <trkpt lat="45.36911" lon="6.4857">
        <ele>1719.94</ele>
        <time>2016-03-08T08:25:50Z</time>
      </trkpt>
      <trkpt lat="45.36912" lon="6.48571">
        <ele>1719.94</ele>
        <time>2016-03-08T08:25:51Z</time>
      </trkpt>
      <trkpt lat="45.36914" lon="6.48571">
        <ele>1719.94</ele>
        <time>2016-03-08T08:25:52Z</time>
      </trkpt>
      <trkpt lat="45.36915" lon="6.48571">
        <ele>1719.94</ele>
        <time>2016-03-08T08:25:53Z</time>
      </trkpt>
      <trkpt lat="45.36916" lon="6.48571">
        <ele>1719.94</ele>
        <time>2016-03-08T08:25:54Z</time>
      </trkpt>
      <trkpt lat="45.36917" lon="6.48571">
        <ele>1719.94</ele>
        <time>2016-03-08T08:25:55Z</time>
      </trkpt>
      <trkpt lat="45.36919" lon="6.48572">
        <ele>1719.94</ele>
        <time>2016-03-08T08:25:56Z</time>
      </trkpt>
      <trkpt lat="45.3692" lon="6.48572">
        <ele>1719.94</ele>
        <time>2016-03-08T08:25:57Z</time>
      </trkpt>
      <trkpt lat="45.36921" lon="6.48572">
        <ele>1719.94</ele>
        <time>2016-03-08T08:25:58Z</time>
      </trkpt>
      <trkpt lat="45.36922" lon="6.48572">
        <ele>1719.94</ele>
        <time>2016-03-08T08:25:59Z</time>
      </trkpt>
      <trkpt lat="45.36923" lon="6.48572">
        <ele>1719.94</ele>
        <time>2016-03-08T08:26:00Z</time>
      </trkpt>
      <trkpt lat="45.36925" lon="6.48572">
        <ele>1719.94</ele>
        <time>2016-03-08T08:26:01Z</time>
      </trkpt>
      <trkpt lat="45.36926" lon="6.48572">
        <ele>1718.01</ele>
        <time>2016-03-08T08:26:02Z</time>
      </trkpt>
      <trkpt lat="45.36927" lon="6.48572">
        <ele>1718.01</ele>
        <time>2016-03-08T08:26:03Z</time>
      </trkpt>
      <trkpt lat="45.36929" lon="6.48572">
        <ele>1718.01</ele>
        <time>2016-03-08T08:26:04Z</time>
      </trkpt>
      <trkpt lat="45.36934" lon="6.4857">
        <ele>1718.01</ele>
        <time>2016-03-08T08:26:09Z</time>
      </trkpt>
      <trkpt lat="45.36934" lon="6.48569">
        <ele>1717.05</ele>
        <time>2016-03-08T08:26:10Z</time>
      </trkpt>
      <trkpt lat="45.36936" lon="6.48568">
        <ele>1717.53</ele>
        <time>2016-03-08T08:26:11Z</time>
      </trkpt>
      <trkpt lat="45.36937" lon="6.48567">
        <ele>1717.05</ele>
        <time>2016-03-08T08:26:12Z</time>
      </trkpt>
      <trkpt lat="45.36937" lon="6.48566">
        <ele>1717.05</ele>
        <time>2016-03-08T08:26:13Z</time>
      </trkpt>
      <trkpt lat="45.36943" lon="6.48555">
        <ele>1716.57</ele>
        <time>2016-03-08T08:26:26Z</time>
      </trkpt>
      <trkpt lat="45.36937" lon="6.48568">
        <ele>1716.57</ele>
        <time>2016-03-08T08:26:40Z</time>
      </trkpt>
      <trkpt lat="45.36936" lon="6.48569">
        <ele>1716.57</ele>
        <time>2016-03-08T08:26:41Z</time>
      </trkpt>
      <trkpt lat="45.36935" lon="6.4857">
        <ele>1716.57</ele>
        <time>2016-03-08T08:26:42Z</time>
      </trkpt>
      <trkpt lat="45.36934" lon="6.48571">
        <ele>1718.01</ele>
        <time>2016-03-08T08:26:43Z</time>
      </trkpt>
      <trkpt lat="45.36933" lon="6.48572">
        <ele>1718.01</ele>
        <time>2016-03-08T08:26:44Z</time>
      </trkpt>
      <trkpt lat="45.36924" lon="6.48574">
        <ele>1718.49</ele>
        <time>2016-03-08T08:26:53Z</time>
      </trkpt>
      <trkpt lat="45.36909" lon="6.48569">
        <ele>1719.46</ele>
        <time>2016-03-08T08:27:09Z</time>
      </trkpt>
      <trkpt lat="45.36903" lon="6.48567">
        <ele>1719.46</ele>
        <time>2016-03-08T08:27:14Z</time>
      </trkpt>
      <trkpt lat="45.36897" lon="6.48565">
        <ele>1719.94</ele>
        <time>2016-03-08T08:27:20Z</time>
      </trkpt>
      <trkpt lat="45.36896" lon="6.48564">
        <ele>1719.94</ele>
        <time>2016-03-08T08:27:21Z</time>
      </trkpt>
      <trkpt lat="45.36895" lon="6.48564">
        <ele>1720.42</ele>
        <time>2016-03-08T08:27:22Z</time>
      </trkpt>
      <trkpt lat="45.36894" lon="6.48563">
        <ele>1720.42</ele>
        <time>2016-03-08T08:27:23Z</time>
      </trkpt>
      <trkpt lat="45.36893" lon="6.48563">
        <ele>1720.42</ele>
        <time>2016-03-08T08:27:24Z</time>
      </trkpt>
      <trkpt lat="45.36877" lon="6.4856">
        <ele>1721.86</ele>
        <time>2016-03-08T08:27:41Z</time>
      </trkpt>
      <trkpt lat="45.36864" lon="6.48559">
        <ele>1723.78</ele>
        <time>2016-03-08T08:27:54Z</time>
      </trkpt>
      <trkpt lat="45.36863" lon="6.48559">
        <ele>1723.78</ele>
        <time>2016-03-08T08:27:55Z</time>
      </trkpt>
      <trkpt lat="45.36862" lon="6.48559">
        <ele>1723.78</ele>
        <time>2016-03-08T08:27:56Z</time>
      </trkpt>
      <trkpt lat="45.36861" lon="6.4856">
        <ele>1723.78</ele>
        <time>2016-03-08T08:27:57Z</time>
      </trkpt>
      <trkpt lat="45.36848" lon="6.48565">
        <ele>1725.7</ele>
        <time>2016-03-08T08:28:13Z</time>
      </trkpt>
      <trkpt lat="45.36843" lon="6.48571">
        <ele>1726.18</ele>
        <time>2016-03-08T08:28:26Z</time>
      </trkpt>
      <trkpt lat="45.36838" lon="6.4857">
        <ele>1726.18</ele>
        <time>2016-03-08T08:28:44Z</time>
      </trkpt>
      <trkpt lat="45.36833" lon="6.48572">
        <ele>1726.67</ele>
        <time>2016-03-08T08:29:01Z</time>
      </trkpt>
      <trkpt lat="45.36831" lon="6.48575">
        <ele>1726.67</ele>
        <time>2016-03-08T08:29:16Z</time>
      </trkpt>
      <trkpt lat="45.36826" lon="6.48583">
        <ele>1728.11</ele>
        <time>2016-03-08T08:29:30Z</time>
      </trkpt>
      <trkpt lat="45.36822" lon="6.4859">
        <ele>1729.55</ele>
        <time>2016-03-08T08:29:47Z</time>
      </trkpt>
      <trkpt lat="45.36814" lon="6.48608">
        <ele>1731.47</ele>
        <time>2016-03-08T08:30:07Z</time>
      </trkpt>
      <trkpt lat="45.3681" lon="6.48618">
        <ele>1731.95</ele>
        <time>2016-03-08T08:30:23Z</time>
      </trkpt>
      <trkpt lat="45.36809" lon="6.48629">
        <ele>1732.91</ele>
        <time>2016-03-08T08:30:33Z</time>
      </trkpt>
      <trkpt lat="45.36808" lon="6.48631">
        <ele>1732.91</ele>
        <time>2016-03-08T08:30:34Z</time>
      </trkpt>
      <trkpt lat="45.36805" lon="6.48647">
        <ele>1733.88</ele>
        <time>2016-03-08T08:30:47Z</time>
      </trkpt>
      <trkpt lat="45.36804" lon="6.48656">
        <ele>1734.84</ele>
        <time>2016-03-08T08:30:54Z</time>
      </trkpt>
      <trkpt lat="45.36803" lon="6.48658">
        <ele>1734.84</ele>
        <time>2016-03-08T08:30:55Z</time>
      </trkpt>
      <trkpt lat="45.36802" lon="6.48663">
        <ele>1734.84</ele>
        <time>2016-03-08T08:30:59Z</time>
      </trkpt>
      <trkpt lat="45.36802" lon="6.48669">
        <ele>1735.32</ele>
        <time>2016-03-08T08:31:03Z</time>
      </trkpt>
      <trkpt lat="45.36801" lon="6.4867">
        <ele>1735.32</ele>
        <time>2016-03-08T08:31:04Z</time>
      </trkpt>
      <trkpt lat="45.36797" lon="6.48685">
        <ele>1735.8</ele>
        <time>2016-03-08T08:31:17Z</time>
      </trkpt>
      <trkpt lat="45.3679" lon="6.48692">
        <ele>1736.76</ele>
        <time>2016-03-08T08:31:26Z</time>
      </trkpt>
      <trkpt lat="45.3678" lon="6.48697">
        <ele>1738.68</ele>
        <time>2016-03-08T08:31:38Z</time>
      </trkpt>
      <trkpt lat="45.36772" lon="6.48698">
        <ele>1739.16</ele>
        <time>2016-03-08T08:31:47Z</time>
      </trkpt>
      <trkpt lat="45.36772" lon="6.48699">
        <ele>1739.64</ele>
        <time>2016-03-08T08:31:48Z</time>
      </trkpt>
      <trkpt lat="45.36767" lon="6.48699">
        <ele>1740.12</ele>
        <time>2016-03-08T08:31:54Z</time>
      </trkpt>
      <trkpt lat="45.36766" lon="6.48699">
        <ele>1740.12</ele>
        <time>2016-03-08T08:31:55Z</time>
      </trkpt>
      <trkpt lat="45.36765" lon="6.48699">
        <ele>1740.12</ele>
        <time>2016-03-08T08:31:56Z</time>
      </trkpt>
      <trkpt lat="45.3675" lon="6.48697">
        <ele>1742.05</ele>
        <time>2016-03-08T08:32:10Z</time>
      </trkpt>
      <trkpt lat="45.36733" lon="6.48699">
        <ele>1743.01</ele>
        <time>2016-03-08T08:32:26Z</time>
      </trkpt>
      <trkpt lat="45.36717" lon="6.48706">
        <ele>1743.49</ele>
        <time>2016-03-08T08:32:42Z</time>
      </trkpt>
      <trkpt lat="45.36714" lon="6.48707">
        <ele>1743.49</ele>
        <time>2016-03-08T08:32:45Z</time>
      </trkpt>
      <trkpt lat="45.3671" lon="6.48698">
        <ele>1745.41</ele>
        <time>2016-03-08T08:32:57Z</time>
      </trkpt>
      <trkpt lat="45.36711" lon="6.48693">
        <ele>1746.37</ele>
        <time>2016-03-08T08:33:02Z</time>
      </trkpt>
      <trkpt lat="45.36722" lon="6.48683">
        <ele>1747.81</ele>
        <time>2016-03-08T08:33:16Z</time>
      </trkpt>
      <trkpt lat="45.36741" lon="6.48672">
        <ele>1748.29</ele>
        <time>2016-03-08T08:33:34Z</time>
      </trkpt>
      <trkpt lat="45.36753" lon="6.48657">
        <ele>1749.74</ele>
        <time>2016-03-08T08:33:52Z</time>
      </trkpt>
      <trkpt lat="45.36763" lon="6.48642">
        <ele>1751.66</ele>
        <time>2016-03-08T08:34:08Z</time>
      </trkpt>
      <trkpt lat="45.36773" lon="6.48621">
        <ele>1752.62</ele>
        <time>2016-03-08T08:34:24Z</time>
      </trkpt>
      <trkpt lat="45.36777" lon="6.48595">
        <ele>1753.58</ele>
        <time>2016-03-08T08:34:40Z</time>
      </trkpt>
      <trkpt lat="45.36775" lon="6.48575">
        <ele>1755.02</ele>
        <time>2016-03-08T08:34:56Z</time>
      </trkpt>
      <trkpt lat="45.3677" lon="6.48556">
        <ele>1756.47</ele>
        <time>2016-03-08T08:35:12Z</time>
      </trkpt>
      <trkpt lat="45.36765" lon="6.48536">
        <ele>1757.91</ele>
        <time>2016-03-08T08:35:28Z</time>
      </trkpt>
      <trkpt lat="45.36765" lon="6.48534">
        <ele>1757.91</ele>
        <time>2016-03-08T08:35:29Z</time>
      </trkpt>
      <trkpt lat="45.36762" lon="6.4851">
        <ele>1758.87</ele>
        <time>2016-03-08T08:35:43Z</time>
      </trkpt>
      <trkpt lat="45.36762" lon="6.48508">
        <ele>1758.87</ele>
        <time>2016-03-08T08:35:44Z</time>
      </trkpt>
      <trkpt lat="45.36762" lon="6.48506">
        <ele>1758.87</ele>
        <time>2016-03-08T08:35:45Z</time>
      </trkpt>
      <trkpt lat="45.36763" lon="6.48504">
        <ele>1758.87</ele>
        <time>2016-03-08T08:35:46Z</time>
      </trkpt>
      <trkpt lat="45.36764" lon="6.48482">
        <ele>1759.83</ele>
        <time>2016-03-08T08:36:02Z</time>
      </trkpt>
      <trkpt lat="45.36766" lon="6.48455">
        <ele>1760.79</ele>
        <time>2016-03-08T08:36:20Z</time>
      </trkpt>
      <trkpt lat="45.36765" lon="6.48445">
        <ele>1760.79</ele>
        <time>2016-03-08T08:36:26Z</time>
      </trkpt>
      <trkpt lat="45.36765" lon="6.48443">
        <ele>1760.79</ele>
        <time>2016-03-08T08:36:27Z</time>
      </trkpt>
      <trkpt lat="45.36764" lon="6.48435">
        <ele>1760.79</ele>
        <time>2016-03-08T08:36:39Z</time>
      </trkpt>
      <trkpt lat="45.36763" lon="6.48436">
        <ele>1760.79</ele>
        <time>2016-03-08T08:36:58Z</time>
      </trkpt>
      <trkpt lat="45.36763" lon="6.48437">
        <ele>1760.79</ele>
        <time>2016-03-08T08:37:20Z</time>
      </trkpt>
      <trkpt lat="45.36763" lon="6.48439">
        <ele>1760.79</ele>
        <time>2016-03-08T08:37:43Z</time>
      </trkpt>
      <trkpt lat="45.36763" lon="6.48439">
        <ele>1760.31</ele>
        <time>2016-03-08T08:38:04Z</time>
      </trkpt>
      <trkpt lat="45.36761" lon="6.48436">
        <ele>1760.31</ele>
        <time>2016-03-08T08:38:08Z</time>
      </trkpt>
      <trkpt lat="45.36757" lon="6.48429">
        <ele>1762.23</ele>
        <time>2016-03-08T08:38:20Z</time>
      </trkpt>
      <trkpt lat="45.36753" lon="6.4842">
        <ele>1764.64</ele>
        <time>2016-03-08T08:38:35Z</time>
      </trkpt>
      <trkpt lat="45.36746" lon="6.4841">
        <ele>1766.56</ele>
        <time>2016-03-08T08:38:51Z</time>
      </trkpt>
      <trkpt lat="45.3674" lon="6.48409">
        <ele>1768.48</ele>
        <time>2016-03-08T08:39:04Z</time>
      </trkpt>
      <trkpt lat="45.3674" lon="6.4841">
        <ele>1769.44</ele>
        <time>2016-03-08T08:39:21Z</time>
      </trkpt>
      <trkpt lat="45.36734" lon="6.48418">
        <ele>1769.44</ele>
        <time>2016-03-08T08:39:40Z</time>
      </trkpt>
      <trkpt lat="45.3673" lon="6.48427">
        <ele>1772.33</ele>
        <time>2016-03-08T08:39:55Z</time>
      </trkpt>
      <trkpt lat="45.36723" lon="6.48418">
        <ele>1774.25</ele>
        <time>2016-03-08T08:40:11Z</time>
      </trkpt>
      <trkpt lat="45.3672" lon="6.48418">
        <ele>1775.21</ele>
        <time>2016-03-08T08:40:23Z</time>
      </trkpt>
      <trkpt lat="45.36717" lon="6.48424">
        <ele>1777.13</ele>
        <time>2016-03-08T08:40:35Z</time>
      </trkpt>
      <trkpt lat="45.36714" lon="6.48419">
        <ele>1778.58</ele>
        <time>2016-03-08T08:40:47Z</time>
      </trkpt>
      <trkpt lat="45.3671" lon="6.4842">
        <ele>1779.54</ele>
        <time>2016-03-08T08:40:58Z</time>
      </trkpt>
      <trkpt lat="45.36705" lon="6.48424">
        <ele>1780.98</ele>
        <time>2016-03-08T08:41:11Z</time>
      </trkpt>
      <trkpt lat="45.36701" lon="6.48419">
        <ele>1783.38</ele>
        <time>2016-03-08T08:41:23Z</time>
      </trkpt>
      <trkpt lat="45.36698" lon="6.48422">
        <ele>1783.38</ele>
        <time>2016-03-08T08:41:28Z</time>
      </trkpt>
      <trkpt lat="45.36694" lon="6.4842">
        <ele>1784.82</ele>
        <time>2016-03-08T08:41:39Z</time>
      </trkpt>
      <trkpt lat="45.36692" lon="6.48421">
        <ele>1785.31</ele>
        <time>2016-03-08T08:41:49Z</time>
      </trkpt>
      <trkpt lat="45.36687" lon="6.48424">
        <ele>1787.71</ele>
        <time>2016-03-08T08:42:01Z</time>
      </trkpt>
      <trkpt lat="45.36682" lon="6.48426">
        <ele>1790.59</ele>
        <time>2016-03-08T08:42:16Z</time>
      </trkpt>
      <trkpt lat="45.36677" lon="6.48427">
        <ele>1791.55</ele>
        <time>2016-03-08T08:42:28Z</time>
      </trkpt>
      <trkpt lat="45.36676" lon="6.48434">
        <ele>1793.48</ele>
        <time>2016-03-08T08:42:41Z</time>
      </trkpt>
      <trkpt lat="45.36676" lon="6.48437">
        <ele>1795.4</ele>
        <time>2016-03-08T08:42:45Z</time>
      </trkpt>
      <trkpt lat="45.36676" lon="6.48437">
        <ele>1794.44</ele>
        <time>2016-03-08T08:43:12Z</time>
      </trkpt>
      <trkpt lat="45.36675" lon="6.4844">
        <ele>1794.44</ele>
        <time>2016-03-08T08:43:45Z</time>
      </trkpt>
      <trkpt lat="45.36677" lon="6.48446">
        <ele>1795.88</ele>
        <time>2016-03-08T08:44:03Z</time>
      </trkpt>
      <trkpt lat="45.36677" lon="6.48449">
        <ele>1796.84</ele>
        <time>2016-03-08T08:44:06Z</time>
      </trkpt>
      <trkpt lat="45.36672" lon="6.48459">
        <ele>1798.76</ele>
        <time>2016-03-08T08:44:22Z</time>
      </trkpt>
      <trkpt lat="45.36661" lon="6.48469">
        <ele>1802.13</ele>
        <time>2016-03-08T08:44:40Z</time>
      </trkpt>
      <trkpt lat="45.36651" lon="6.48471">
        <ele>1805.01</ele>
        <time>2016-03-08T08:44:57Z</time>
      </trkpt>
      <trkpt lat="45.36648" lon="6.48472">
        <ele>1805.49</ele>
        <time>2016-03-08T08:45:16Z</time>
      </trkpt>
      <trkpt lat="45.36649" lon="6.48469">
        <ele>1805.01</ele>
        <time>2016-03-08T08:45:29Z</time>
      </trkpt>
      <trkpt lat="45.36633" lon="6.48467">
        <ele>1808.38</ele>
        <time>2016-03-08T08:45:47Z</time>
      </trkpt>
      <trkpt lat="45.36621" lon="6.48456">
        <ele>1811.74</ele>
        <time>2016-03-08T08:46:02Z</time>
      </trkpt>
      <trkpt lat="45.36618" lon="6.48453">
        <ele>1812.22</ele>
        <time>2016-03-08T08:46:07Z</time>
      </trkpt>
      <trkpt lat="45.36606" lon="6.48444">
        <ele>1815.11</ele>
        <time>2016-03-08T08:46:22Z</time>
      </trkpt>
      <trkpt lat="45.36598" lon="6.48438">
        <ele>1817.99</ele>
        <time>2016-03-08T08:46:31Z</time>
      </trkpt>
      <trkpt lat="45.36583" lon="6.48423">
        <ele>1819.91</ele>
        <time>2016-03-08T08:46:48Z</time>
      </trkpt>
      <trkpt lat="45.36569" lon="6.48408">
        <ele>1822.32</ele>
        <time>2016-03-08T08:47:04Z</time>
      </trkpt>
      <trkpt lat="45.36556" lon="6.48393">
        <ele>1824.72</ele>
        <time>2016-03-08T08:47:19Z</time>
      </trkpt>
      <trkpt lat="45.36545" lon="6.48372">
        <ele>1827.12</ele>
        <time>2016-03-08T08:47:35Z</time>
      </trkpt>
      <trkpt lat="45.36537" lon="6.48356">
        <ele>1830.49</ele>
        <time>2016-03-08T08:47:50Z</time>
      </trkpt>
      <trkpt lat="45.36525" lon="6.48346">
        <ele>1832.89</ele>
        <time>2016-03-08T08:48:05Z</time>
      </trkpt>
      <trkpt lat="45.36518" lon="6.48342">
        <ele>1835.29</ele>
        <time>2016-03-08T08:48:14Z</time>
      </trkpt>
      <trkpt lat="45.36513" lon="6.48342">
        <ele>1836.26</ele>
        <time>2016-03-08T08:48:19Z</time>
      </trkpt>
      <trkpt lat="45.36506" lon="6.48331">
        <ele>1839.62</ele>
        <time>2016-03-08T08:48:31Z</time>
      </trkpt>
      <trkpt lat="45.36494" lon="6.48317">
        <ele>1842.98</ele>
        <time>2016-03-08T08:48:46Z</time>
      </trkpt>
      <trkpt lat="45.36488" lon="6.48306">
        <ele>1845.87</ele>
        <time>2016-03-08T08:48:58Z</time>
      </trkpt>
      <trkpt lat="45.36485" lon="6.48299">
        <ele>1846.83</ele>
        <time>2016-03-08T08:49:05Z</time>
      </trkpt>
      <trkpt lat="45.36484" lon="6.48287">
        <ele>1850.68</ele>
        <time>2016-03-08T08:49:17Z</time>
      </trkpt>
      <trkpt lat="45.36482" lon="6.48277">
        <ele>1853.08</ele>
        <time>2016-03-08T08:49:28Z</time>
      </trkpt>
      <trkpt lat="45.3647" lon="6.48281">
        <ele>1855.96</ele>
        <time>2016-03-08T08:49:41Z</time>
      </trkpt>
      <trkpt lat="45.36457" lon="6.48284">
        <ele>1859.33</ele>
        <time>2016-03-08T08:49:54Z</time>
      </trkpt>
      <trkpt lat="45.36445" lon="6.48286">
        <ele>1862.69</ele>
        <time>2016-03-08T08:50:07Z</time>
      </trkpt>
      <trkpt lat="45.3644" lon="6.48288">
        <ele>1864.13</ele>
        <time>2016-03-08T08:50:12Z</time>
      </trkpt>
      <trkpt lat="45.36424" lon="6.48287">
        <ele>1867.02</ele>
        <time>2016-03-08T08:50:27Z</time>
      </trkpt>
      <trkpt lat="45.36422" lon="6.48287">
        <ele>1867.98</ele>
        <time>2016-03-08T08:50:29Z</time>
      </trkpt>
      <trkpt lat="45.36408" lon="6.48291">
        <ele>1871.34</ele>
        <time>2016-03-08T08:50:42Z</time>
      </trkpt>
      <trkpt lat="45.36404" lon="6.48292">
        <ele>1871.34</ele>
        <time>2016-03-08T08:50:45Z</time>
      </trkpt>
      <trkpt lat="45.364" lon="6.48288">
        <ele>1871.82</ele>
        <time>2016-03-08T08:50:49Z</time>
      </trkpt>
      <trkpt lat="45.36396" lon="6.48279">
        <ele>1874.23</ele>
        <time>2016-03-08T08:50:56Z</time>
      </trkpt>
      <trkpt lat="45.36393" lon="6.4827">
        <ele>1875.67</ele>
        <time>2016-03-08T08:51:03Z</time>
      </trkpt>
      <trkpt lat="45.36382" lon="6.48252">
        <ele>1880</ele>
        <time>2016-03-08T08:51:18Z</time>
      </trkpt>
      <trkpt lat="45.3637" lon="6.4823">
        <ele>1882.4</ele>
        <time>2016-03-08T08:51:35Z</time>
      </trkpt>
      <trkpt lat="45.36365" lon="6.48218">
        <ele>1885.76</ele>
        <time>2016-03-08T08:51:45Z</time>
      </trkpt>
      <trkpt lat="45.36362" lon="6.48213">
        <ele>1886.72</ele>
        <time>2016-03-08T08:51:49Z</time>
      </trkpt>
      <trkpt lat="45.36347" lon="6.48211">
        <ele>1890.09</ele>
        <time>2016-03-08T08:52:04Z</time>
      </trkpt>
      <trkpt lat="45.36339" lon="6.48208">
        <ele>1893.45</ele>
        <time>2016-03-08T08:52:15Z</time>
      </trkpt>
      <trkpt lat="45.36331" lon="6.48209">
        <ele>1897.3</ele>
        <time>2016-03-08T08:52:25Z</time>
      </trkpt>
      <trkpt lat="45.3633" lon="6.48209">
        <ele>1897.3</ele>
        <time>2016-03-08T08:52:26Z</time>
      </trkpt>
      <trkpt lat="45.36327" lon="6.48207">
        <ele>1897.78</ele>
        <time>2016-03-08T08:52:30Z</time>
      </trkpt>
      <trkpt lat="45.36319" lon="6.48196">
        <ele>1901.14</ele>
        <time>2016-03-08T08:52:41Z</time>
      </trkpt>
      <trkpt lat="45.36313" lon="6.48188">
        <ele>1903.07</ele>
        <time>2016-03-08T08:52:50Z</time>
      </trkpt>
      <trkpt lat="45.36311" lon="6.48173">
        <ele>1906.43</ele>
        <time>2016-03-08T08:53:02Z</time>
      </trkpt>
      <trkpt lat="45.3631" lon="6.4816">
        <ele>1909.8</ele>
        <time>2016-03-08T08:53:12Z</time>
      </trkpt>
      <trkpt lat="45.36309" lon="6.48145">
        <ele>1913.16</ele>
        <time>2016-03-08T08:53:24Z</time>
      </trkpt>
      <trkpt lat="45.36308" lon="6.48144">
        <ele>1913.16</ele>
        <time>2016-03-08T08:53:25Z</time>
      </trkpt>
      <trkpt lat="45.36306" lon="6.4813">
        <ele>1916.53</ele>
        <time>2016-03-08T08:53:37Z</time>
      </trkpt>
      <trkpt lat="45.36306" lon="6.48123">
        <ele>1917.97</ele>
        <time>2016-03-08T08:53:43Z</time>
      </trkpt>
      <trkpt lat="45.36304" lon="6.48114">
        <ele>1920.85</ele>
        <time>2016-03-08T08:53:50Z</time>
      </trkpt>
      <trkpt lat="45.36303" lon="6.48097">
        <ele>1924.7</ele>
        <time>2016-03-08T08:54:03Z</time>
      </trkpt>
      <trkpt lat="45.36303" lon="6.48092">
        <ele>1925.66</ele>
        <time>2016-03-08T08:54:07Z</time>
      </trkpt>
      <trkpt lat="45.36297" lon="6.48082">
        <ele>1928.54</ele>
        <time>2016-03-08T08:54:19Z</time>
      </trkpt>
      <trkpt lat="45.36287" lon="6.4808">
        <ele>1932.39</ele>
        <time>2016-03-08T08:54:30Z</time>
      </trkpt>
      <trkpt lat="45.36278" lon="6.48077">
        <ele>1935.27</ele>
        <time>2016-03-08T08:54:40Z</time>
      </trkpt>
      <trkpt lat="45.36273" lon="6.48074">
        <ele>1936.71</ele>
        <time>2016-03-08T08:54:46Z</time>
      </trkpt>
      <trkpt lat="45.36268" lon="6.48064">
        <ele>1940.08</ele>
        <time>2016-03-08T08:54:58Z</time>
      </trkpt>
      <trkpt lat="45.36267" lon="6.48052">
        <ele>1944.4</ele>
        <time>2016-03-08T08:55:11Z</time>
      </trkpt>
      <trkpt lat="45.36263" lon="6.48043">
        <ele>1947.29</ele>
        <time>2016-03-08T08:55:22Z</time>
      </trkpt>
      <trkpt lat="45.36264" lon="6.48034">
        <ele>1950.65</ele>
        <time>2016-03-08T08:55:33Z</time>
      </trkpt>
      <trkpt lat="45.36262" lon="6.48025">
        <ele>1952.57</ele>
        <time>2016-03-08T08:55:43Z</time>
      </trkpt>
      <trkpt lat="45.36264" lon="6.48021">
        <ele>1954.02</ele>
        <time>2016-03-08T08:55:46Z</time>
      </trkpt>
      <trkpt lat="45.36269" lon="6.48016">
        <ele>1956.42</ele>
        <time>2016-03-08T08:55:55Z</time>
      </trkpt>
      <trkpt lat="45.36271" lon="6.48011">
        <ele>1957.86</ele>
        <time>2016-03-08T08:56:10Z</time>
      </trkpt>
      <trkpt lat="45.36275" lon="6.48001">
        <ele>1960.27</ele>
        <time>2016-03-08T08:56:24Z</time>
      </trkpt>
      <trkpt lat="45.36279" lon="6.47996">
        <ele>1962.67</ele>
        <time>2016-03-08T08:56:43Z</time>
      </trkpt>
      <trkpt lat="45.36279" lon="6.47996">
        <ele>1962.67</ele>
        <time>2016-03-08T08:57:09Z</time>
      </trkpt>
      <trkpt lat="45.36282" lon="6.4799">
        <ele>1964.59</ele>
        <time>2016-03-08T08:57:29Z</time>
      </trkpt>
      <trkpt lat="45.36287" lon="6.47979">
        <ele>1967.96</ele>
        <time>2016-03-08T08:57:42Z</time>
      </trkpt>
      <trkpt lat="45.36289" lon="6.47981">
        <ele>1968.44</ele>
        <time>2016-03-08T08:57:59Z</time>
      </trkpt>
      <trkpt lat="45.36287" lon="6.47981">
        <ele>1967.96</ele>
        <time>2016-03-08T08:58:22Z</time>
      </trkpt>
      <trkpt lat="45.36289" lon="6.47976">
        <ele>1968.44</ele>
        <time>2016-03-08T08:58:37Z</time>
      </trkpt>
      <trkpt lat="45.36294" lon="6.47957">
        <ele>1971.32</ele>
        <time>2016-03-08T08:58:58Z</time>
      </trkpt>
      <trkpt lat="45.36296" lon="6.47943">
        <ele>1973.72</ele>
        <time>2016-03-08T08:59:13Z</time>
      </trkpt>
      <trkpt lat="45.3629" lon="6.47939">
        <ele>1976.61</ele>
        <time>2016-03-08T08:59:28Z</time>
      </trkpt>
      <trkpt lat="45.36289" lon="6.47938">
        <ele>1977.57</ele>
        <time>2016-03-08T08:59:32Z</time>
      </trkpt>
      <trkpt lat="45.36281" lon="6.47936">
        <ele>1980.93</ele>
        <time>2016-03-08T08:59:48Z</time>
      </trkpt>
      <trkpt lat="45.36275" lon="6.47933">
        <ele>1983.34</ele>
        <time>2016-03-08T09:00:03Z</time>
      </trkpt>
      <trkpt lat="45.3627" lon="6.47931">
        <ele>1986.22</ele>
        <time>2016-03-08T09:00:14Z</time>
      </trkpt>
      <trkpt lat="45.36263" lon="6.47928">
        <ele>1988.62</ele>
        <time>2016-03-08T09:00:29Z</time>
      </trkpt>
      <trkpt lat="45.36258" lon="6.47923">
        <ele>1991.03</ele>
        <time>2016-03-08T09:00:42Z</time>
      </trkpt>
      <trkpt lat="45.36253" lon="6.47919">
        <ele>1993.43</ele>
        <time>2016-03-08T09:00:56Z</time>
      </trkpt>
      <trkpt lat="45.36249" lon="6.47915">
        <ele>1995.35</ele>
        <time>2016-03-08T09:01:08Z</time>
      </trkpt>
      <trkpt lat="45.36244" lon="6.47908">
        <ele>1998.72</ele>
        <time>2016-03-08T09:01:22Z</time>
      </trkpt>
      <trkpt lat="45.36239" lon="6.47902">
        <ele>2001.12</ele>
        <time>2016-03-08T09:01:36Z</time>
      </trkpt>
      <trkpt lat="45.36234" lon="6.47893">
        <ele>2004.01</ele>
        <time>2016-03-08T09:01:50Z</time>
      </trkpt>
      <trkpt lat="45.36232" lon="6.47883">
        <ele>2006.41</ele>
        <time>2016-03-08T09:02:04Z</time>
      </trkpt>
      <trkpt lat="45.36228" lon="6.47873">
        <ele>2008.33</ele>
        <time>2016-03-08T09:02:15Z</time>
      </trkpt>
      <trkpt lat="45.36225" lon="6.47862">
        <ele>2009.77</ele>
        <time>2016-03-08T09:02:33Z</time>
      </trkpt>
      <trkpt lat="45.36224" lon="6.47862">
        <ele>2010.25</ele>
        <time>2016-03-08T09:02:41Z</time>
      </trkpt>
      <trkpt lat="45.36222" lon="6.47861">
        <ele>2009.77</ele>
        <time>2016-03-08T09:02:53Z</time>
      </trkpt>
      <trkpt lat="45.36222" lon="6.4786">
        <ele>2009.77</ele>
        <time>2016-03-08T09:03:15Z</time>
      </trkpt>
      <trkpt lat="45.36222" lon="6.4786">
        <ele>2009.77</ele>
        <time>2016-03-08T09:03:36Z</time>
      </trkpt>
      <trkpt lat="45.36221" lon="6.47861">
        <ele>2009.77</ele>
        <time>2016-03-08T09:04:03Z</time>
      </trkpt>
      <trkpt lat="45.36221" lon="6.47859">
        <ele>2009.29</ele>
        <time>2016-03-08T09:04:27Z</time>
      </trkpt>
      <trkpt lat="45.3621" lon="6.4786">
        <ele>2010.25</ele>
        <time>2016-03-08T09:04:44Z</time>
      </trkpt>
      <trkpt lat="45.36196" lon="6.47861">
        <ele>2012.66</ele>
        <time>2016-03-08T09:05:02Z</time>
      </trkpt>
      <trkpt lat="45.3618" lon="6.47854">
        <ele>2015.54</ele>
        <time>2016-03-08T09:05:20Z</time>
      </trkpt>
      <trkpt lat="45.36165" lon="6.47847">
        <ele>2016.02</ele>
        <time>2016-03-08T09:05:37Z</time>
      </trkpt>
      <trkpt lat="45.36148" lon="6.47842">
        <ele>2017.94</ele>
        <time>2016-03-08T09:05:56Z</time>
      </trkpt>
      <trkpt lat="45.36136" lon="6.47835">
        <ele>2019.39</ele>
        <time>2016-03-08T09:06:13Z</time>
      </trkpt>
      <trkpt lat="45.36135" lon="6.47833">
        <ele>2019.87</ele>
        <time>2016-03-08T09:06:28Z</time>
      </trkpt>
      <trkpt lat="45.36135" lon="6.47832">
        <ele>2019.87</ele>
        <time>2016-03-08T09:06:48Z</time>
      </trkpt>
      <trkpt lat="45.36123" lon="6.47823">
        <ele>2021.31</ele>
        <time>2016-03-08T09:07:02Z</time>
      </trkpt>
      <trkpt lat="45.36109" lon="6.47817">
        <ele>2024.19</ele>
        <time>2016-03-08T09:07:20Z</time>
      </trkpt>
      <trkpt lat="45.36097" lon="6.47821">
        <ele>2027.56</ele>
        <time>2016-03-08T09:07:38Z</time>
      </trkpt>
      <trkpt lat="45.36088" lon="6.47826">
        <ele>2029.48</ele>
        <time>2016-03-08T09:07:53Z</time>
      </trkpt>
      <trkpt lat="45.3608" lon="6.4783">
        <ele>2031.4</ele>
        <time>2016-03-08T09:08:06Z</time>
      </trkpt>
      <trkpt lat="45.3607" lon="6.47831">
        <ele>2033.81</ele>
        <time>2016-03-08T09:08:23Z</time>
      </trkpt>
      <trkpt lat="45.36059" lon="6.47831">
        <ele>2036.21</ele>
        <time>2016-03-08T09:08:39Z</time>
      </trkpt>
      <trkpt lat="45.36049" lon="6.47829">
        <ele>2039.57</ele>
        <time>2016-03-08T09:08:55Z</time>
      </trkpt>
      <trkpt lat="45.36038" lon="6.47827">
        <ele>2041.98</ele>
        <time>2016-03-08T09:09:13Z</time>
      </trkpt>
      <trkpt lat="45.36026" lon="6.47825">
        <ele>2044.38</ele>
        <time>2016-03-08T09:09:29Z</time>
      </trkpt>
      <trkpt lat="45.36017" lon="6.47824">
        <ele>2047.26</ele>
        <time>2016-03-08T09:09:45Z</time>
      </trkpt>
      <trkpt lat="45.36006" lon="6.47826">
        <ele>2049.67</ele>
        <time>2016-03-08T09:10:03Z</time>
      </trkpt>
      <trkpt lat="45.35995" lon="6.47827">
        <ele>2053.03</ele>
        <time>2016-03-08T09:10:21Z</time>
      </trkpt>
      <trkpt lat="45.35993" lon="6.47829">
        <ele>2055.44</ele>
        <time>2016-03-08T09:10:34Z</time>
      </trkpt>
      <trkpt lat="45.35999" lon="6.47846">
        <ele>2058.32</ele>
        <time>2016-03-08T09:10:54Z</time>
      </trkpt>
      <trkpt lat="45.36" lon="6.47861">
        <ele>2060.72</ele>
        <time>2016-03-08T09:11:08Z</time>
      </trkpt>
      <trkpt lat="45.35999" lon="6.47878">
        <ele>2063.61</ele>
        <time>2016-03-08T09:11:29Z</time>
      </trkpt>
      <trkpt lat="45.35994" lon="6.47878">
        <ele>2065.05</ele>
        <time>2016-03-08T09:11:40Z</time>
      </trkpt>
      <trkpt lat="45.35984" lon="6.47879">
        <ele>2067.93</ele>
        <time>2016-03-08T09:11:57Z</time>
      </trkpt>
      <trkpt lat="45.35976" lon="6.47883">
        <ele>2070.82</ele>
        <time>2016-03-08T09:12:12Z</time>
      </trkpt>
      <trkpt lat="45.35962" lon="6.47891">
        <ele>2074.18</ele>
        <time>2016-03-08T09:12:32Z</time>
      </trkpt>
      <trkpt lat="45.35948" lon="6.47899">
        <ele>2075.14</ele>
        <time>2016-03-08T09:12:50Z</time>
      </trkpt>
      <trkpt lat="45.35937" lon="6.47903">
        <ele>2078.03</ele>
        <time>2016-03-08T09:13:07Z</time>
      </trkpt>
      <trkpt lat="45.35928" lon="6.47904">
        <ele>2080.43</ele>
        <time>2016-03-08T09:13:20Z</time>
      </trkpt>
      <trkpt lat="45.35918" lon="6.47904">
        <ele>2083.79</ele>
        <time>2016-03-08T09:13:37Z</time>
      </trkpt>
      <trkpt lat="45.35904" lon="6.47908">
        <ele>2087.16</ele>
        <time>2016-03-08T09:13:57Z</time>
      </trkpt>
      <trkpt lat="45.359" lon="6.47908">
        <ele>2087.16</ele>
        <time>2016-03-08T09:14:02Z</time>
      </trkpt>
      <trkpt lat="45.35887" lon="6.47912">
        <ele>2090.52</ele>
        <time>2016-03-08T09:14:18Z</time>
      </trkpt>
      <trkpt lat="45.35872" lon="6.47914">
        <ele>2093.41</ele>
        <time>2016-03-08T09:14:36Z</time>
      </trkpt>
      <trkpt lat="45.35861" lon="6.47916">
        <ele>2095.81</ele>
        <time>2016-03-08T09:14:50Z</time>
      </trkpt>
      <trkpt lat="45.35852" lon="6.4792">
        <ele>2098.7</ele>
        <time>2016-03-08T09:15:04Z</time>
      </trkpt>
      <trkpt lat="45.35843" lon="6.47924">
        <ele>2100.62</ele>
        <time>2016-03-08T09:15:17Z</time>
      </trkpt>
      <trkpt lat="45.35836" lon="6.47928">
        <ele>2103.5</ele>
        <time>2016-03-08T09:15:30Z</time>
      </trkpt>
      <trkpt lat="45.35826" lon="6.47932">
        <ele>2105.91</ele>
        <time>2016-03-08T09:15:44Z</time>
      </trkpt>
      <trkpt lat="45.35816" lon="6.47938">
        <ele>2107.83</ele>
        <time>2016-03-08T09:16:00Z</time>
      </trkpt>
      <trkpt lat="45.35802" lon="6.47945">
        <ele>2109.75</ele>
        <time>2016-03-08T09:16:16Z</time>
      </trkpt>
      <trkpt lat="45.35789" lon="6.47953">
        <ele>2111.67</ele>
        <time>2016-03-08T09:16:31Z</time>
      </trkpt>
      <trkpt lat="45.35771" lon="6.47969">
        <ele>2113.12</ele>
        <time>2016-03-08T09:16:49Z</time>
      </trkpt>
      <trkpt lat="45.35756" lon="6.47986">
        <ele>2114.08</ele>
        <time>2016-03-08T09:17:05Z</time>
      </trkpt>
      <trkpt lat="45.35743" lon="6.48004">
        <ele>2116.48</ele>
        <time>2016-03-08T09:17:21Z</time>
      </trkpt>
      <trkpt lat="45.35732" lon="6.48022">
        <ele>2118.88</ele>
        <time>2016-03-08T09:17:36Z</time>
      </trkpt>
      <trkpt lat="45.35716" lon="6.48038">
        <ele>2120.32</ele>
        <time>2016-03-08T09:17:52Z</time>
      </trkpt>
      <trkpt lat="45.35697" lon="6.48038">
        <ele>2121.29</ele>
        <time>2016-03-08T09:18:07Z</time>
      </trkpt>
      <trkpt lat="45.3568" lon="6.48035">
        <ele>2122.73</ele>
        <time>2016-03-08T09:18:21Z</time>
      </trkpt>
      <trkpt lat="45.35663" lon="6.48038">
        <ele>2125.13</ele>
        <time>2016-03-08T09:18:36Z</time>
      </trkpt>
      <trkpt lat="45.35646" lon="6.48038">
        <ele>2127.53</ele>
        <time>2016-03-08T09:18:50Z</time>
      </trkpt>
      <trkpt lat="45.3563" lon="6.48038">
        <ele>2128.98</ele>
        <time>2016-03-08T09:19:04Z</time>
      </trkpt>
      <trkpt lat="45.35617" lon="6.48039">
        <ele>2132.34</ele>
        <time>2016-03-08T09:19:16Z</time>
      </trkpt>
      <trkpt lat="45.35602" lon="6.48038">
        <ele>2134.26</ele>
        <time>2016-03-08T09:19:29Z</time>
      </trkpt>
      <trkpt lat="45.35588" lon="6.48035">
        <ele>2136.67</ele>
        <time>2016-03-08T09:19:42Z</time>
      </trkpt>
      <trkpt lat="45.35571" lon="6.48034">
        <ele>2138.11</ele>
        <time>2016-03-08T09:19:56Z</time>
      </trkpt>
      <trkpt lat="45.35555" lon="6.48036">
        <ele>2140.99</ele>
        <time>2016-03-08T09:20:11Z</time>
      </trkpt>
      <trkpt lat="45.35541" lon="6.48038">
        <ele>2142.92</ele>
        <time>2016-03-08T09:20:24Z</time>
      </trkpt>
      <trkpt lat="45.35532" lon="6.48043">
        <ele>2145.8</ele>
        <time>2016-03-08T09:20:36Z</time>
      </trkpt>
      <trkpt lat="45.35536" lon="6.48048">
        <ele>2147.24</ele>
        <time>2016-03-08T09:20:43Z</time>
      </trkpt>
      <trkpt lat="45.35545" lon="6.48058">
        <ele>2150.61</ele>
        <time>2016-03-08T09:20:56Z</time>
      </trkpt>
      <trkpt lat="45.35554" lon="6.48069">
        <ele>2153.49</ele>
        <time>2016-03-08T09:21:10Z</time>
      </trkpt>
      <trkpt lat="45.3556" lon="6.48079">
        <ele>2156.86</ele>
        <time>2016-03-08T09:21:22Z</time>
      </trkpt>
      <trkpt lat="45.3556" lon="6.48085">
        <ele>2158.78</ele>
        <time>2016-03-08T09:21:34Z</time>
      </trkpt>
      <trkpt lat="45.3556" lon="6.48086">
        <ele>2158.78</ele>
        <time>2016-03-08T09:21:35Z</time>
      </trkpt>
      <trkpt lat="45.35554" lon="6.48088">
        <ele>2159.74</ele>
        <time>2016-03-08T09:21:42Z</time>
      </trkpt>
      <trkpt lat="45.35544" lon="6.48092">
        <ele>2162.62</ele>
        <time>2016-03-08T09:21:56Z</time>
      </trkpt>
      <trkpt lat="45.35533" lon="6.48098">
        <ele>2165.99</ele>
        <time>2016-03-08T09:22:09Z</time>
      </trkpt>
      <trkpt lat="45.35527" lon="6.48101">
        <ele>2167.43</ele>
        <time>2016-03-08T09:22:16Z</time>
      </trkpt>
      <trkpt lat="45.35525" lon="6.48102">
        <ele>2168.39</ele>
        <time>2016-03-08T09:22:18Z</time>
      </trkpt>
      <trkpt lat="45.35514" lon="6.48109">
        <ele>2171.27</ele>
        <time>2016-03-08T09:22:31Z</time>
      </trkpt>
      <trkpt lat="45.35501" lon="6.48119">
        <ele>2175.12</ele>
        <time>2016-03-08T09:22:46Z</time>
      </trkpt>
      <trkpt lat="45.35495" lon="6.48125">
        <ele>2177.52</ele>
        <time>2016-03-08T09:22:54Z</time>
      </trkpt>
      <trkpt lat="45.35492" lon="6.48129">
        <ele>2179.93</ele>
        <time>2016-03-08T09:23:06Z</time>
      </trkpt>
      <trkpt lat="45.35494" lon="6.4813">
        <ele>2180.41</ele>
        <time>2016-03-08T09:23:10Z</time>
      </trkpt>
      <trkpt lat="45.35498" lon="6.48131">
        <ele>2180.89</ele>
        <time>2016-03-08T09:23:14Z</time>
      </trkpt>
      <trkpt lat="45.35512" lon="6.48136">
        <ele>2184.73</ele>
        <time>2016-03-08T09:23:28Z</time>
      </trkpt>
      <trkpt lat="45.35519" lon="6.48138">
        <ele>2185.69</ele>
        <time>2016-03-08T09:23:35Z</time>
      </trkpt>
      <trkpt lat="45.35531" lon="6.48139">
        <ele>2189.06</ele>
        <time>2016-03-08T09:23:47Z</time>
      </trkpt>
      <trkpt lat="45.3554" lon="6.48141">
        <ele>2192.42</ele>
        <time>2016-03-08T09:24:00Z</time>
      </trkpt>
      <trkpt lat="45.3554" lon="6.48144">
        <ele>2193.39</ele>
        <time>2016-03-08T09:24:12Z</time>
      </trkpt>
      <trkpt lat="45.3554" lon="6.48144">
        <ele>2193.87</ele>
        <time>2016-03-08T09:24:14Z</time>
      </trkpt>
      <trkpt lat="45.35534" lon="6.48149">
        <ele>2195.31</ele>
        <time>2016-03-08T09:24:27Z</time>
      </trkpt>
      <trkpt lat="45.35532" lon="6.4815">
        <ele>2195.31</ele>
        <time>2016-03-08T09:24:55Z</time>
      </trkpt>
      <trkpt lat="45.35531" lon="6.48151">
        <ele>2195.31</ele>
        <time>2016-03-08T09:25:16Z</time>
      </trkpt>
      <trkpt lat="45.35528" lon="6.48151">
        <ele>2196.27</ele>
        <time>2016-03-08T09:25:34Z</time>
      </trkpt>
      <trkpt lat="45.3552" lon="6.48156">
        <ele>2197.23</ele>
        <time>2016-03-08T09:25:50Z</time>
      </trkpt>
      <trkpt lat="45.35512" lon="6.48162">
        <ele>2199.63</ele>
        <time>2016-03-08T09:26:06Z</time>
      </trkpt>
      <trkpt lat="45.35502" lon="6.48172">
        <ele>2203</ele>
        <time>2016-03-08T09:26:23Z</time>
      </trkpt>
      <trkpt lat="45.35492" lon="6.48184">
        <ele>2206.36</ele>
        <time>2016-03-08T09:26:42Z</time>
      </trkpt>
      <trkpt lat="45.35486" lon="6.48194">
        <ele>2208.77</ele>
        <time>2016-03-08T09:26:58Z</time>
      </trkpt>
      <trkpt lat="45.35477" lon="6.48203">
        <ele>2211.65</ele>
        <time>2016-03-08T09:27:16Z</time>
      </trkpt>
      <trkpt lat="45.35474" lon="6.48207">
        <ele>2214.05</ele>
        <time>2016-03-08T09:27:28Z</time>
      </trkpt>
      <trkpt lat="45.35477" lon="6.4821">
        <ele>2214.53</ele>
        <time>2016-03-08T09:27:42Z</time>
      </trkpt>
      <trkpt lat="45.35477" lon="6.4821">
        <ele>2214.53</ele>
        <time>2016-03-08T09:28:12Z</time>
      </trkpt>
      <trkpt lat="45.35487" lon="6.48213">
        <ele>2216.94</ele>
        <time>2016-03-08T09:28:27Z</time>
      </trkpt>
      <trkpt lat="45.35496" lon="6.48216">
        <ele>2220.3</ele>
        <time>2016-03-08T09:28:41Z</time>
      </trkpt>
      <trkpt lat="45.35505" lon="6.48221">
        <ele>2223.67</ele>
        <time>2016-03-08T09:28:56Z</time>
      </trkpt>
      <trkpt lat="45.35511" lon="6.48226">
        <ele>2225.59</ele>
        <time>2016-03-08T09:29:08Z</time>
      </trkpt>
      <trkpt lat="45.3551" lon="6.48236">
        <ele>2227.99</ele>
        <time>2016-03-08T09:29:21Z</time>
      </trkpt>
      <trkpt lat="45.35507" lon="6.48242">
        <ele>2229.43</ele>
        <time>2016-03-08T09:29:30Z</time>
      </trkpt>
      <trkpt lat="45.35499" lon="6.48257">
        <ele>2229.92</ele>
        <time>2016-03-08T09:29:46Z</time>
      </trkpt>
      <trkpt lat="45.35492" lon="6.4827">
        <ele>2232.32</ele>
        <time>2016-03-08T09:30:04Z</time>
      </trkpt>
      <trkpt lat="45.35484" lon="6.48279">
        <ele>2236.16</ele>
        <time>2016-03-08T09:30:21Z</time>
      </trkpt>
      <trkpt lat="45.35472" lon="6.48291">
        <ele>2238.09</ele>
        <time>2016-03-08T09:30:39Z</time>
      </trkpt>
      <trkpt lat="45.35459" lon="6.48297">
        <ele>2239.05</ele>
        <time>2016-03-08T09:30:55Z</time>
      </trkpt>
      <trkpt lat="45.35447" lon="6.48301">
        <ele>2239.53</ele>
        <time>2016-03-08T09:31:10Z</time>
      </trkpt>
      <trkpt lat="45.35437" lon="6.48306">
        <ele>2238.09</ele>
        <time>2016-03-08T09:31:21Z</time>
      </trkpt>
      <trkpt lat="45.35428" lon="6.48309">
        <ele>2237.61</ele>
        <time>2016-03-08T09:31:34Z</time>
      </trkpt>
      <trkpt lat="45.35418" lon="6.4831">
        <ele>2238.57</ele>
        <time>2016-03-08T09:31:48Z</time>
      </trkpt>
      <trkpt lat="45.35406" lon="6.48318">
        <ele>2241.45</ele>
        <time>2016-03-08T09:32:07Z</time>
      </trkpt>
      <trkpt lat="45.35398" lon="6.48322">
        <ele>2243.37</ele>
        <time>2016-03-08T09:32:21Z</time>
      </trkpt>
      <trkpt lat="45.35395" lon="6.48324">
        <ele>2244.33</ele>
        <time>2016-03-08T09:32:34Z</time>
      </trkpt>
      <trkpt lat="45.35387" lon="6.48326">
        <ele>2246.26</ele>
        <time>2016-03-08T09:32:51Z</time>
      </trkpt>
      <trkpt lat="45.35383" lon="6.48327">
        <ele>2246.74</ele>
        <time>2016-03-08T09:32:58Z</time>
      </trkpt>
      <trkpt lat="45.35375" lon="6.48329">
        <ele>2246.74</ele>
        <time>2016-03-08T09:33:12Z</time>
      </trkpt>
      <trkpt lat="45.35367" lon="6.4833">
        <ele>2248.18</ele>
        <time>2016-03-08T09:33:26Z</time>
      </trkpt>
      <trkpt lat="45.35361" lon="6.4833">
        <ele>2248.18</ele>
        <time>2016-03-08T09:33:39Z</time>
      </trkpt>
      <trkpt lat="45.35354" lon="6.48331">
        <ele>2248.66</ele>
        <time>2016-03-08T09:33:55Z</time>
      </trkpt>
      <trkpt lat="45.35353" lon="6.48329">
        <ele>2249.62</ele>
        <time>2016-03-08T09:34:16Z</time>
      </trkpt>
      <trkpt lat="45.35343" lon="6.48329">
        <ele>2249.62</ele>
        <time>2016-03-08T09:34:32Z</time>
      </trkpt>
      <trkpt lat="45.35334" lon="6.48332">
        <ele>2250.58</ele>
        <time>2016-03-08T09:34:47Z</time>
      </trkpt>
      <trkpt lat="45.35329" lon="6.48334">
        <ele>2252.03</ele>
        <time>2016-03-08T09:35:03Z</time>
      </trkpt>
      <trkpt lat="45.35319" lon="6.48344">
        <ele>2253.47</ele>
        <time>2016-03-08T09:35:19Z</time>
      </trkpt>
      <trkpt lat="45.35318" lon="6.48349">
        <ele>2254.43</ele>
        <time>2016-03-08T09:35:23Z</time>
      </trkpt>
      <trkpt lat="45.3532" lon="6.48366">
        <ele>2257.79</ele>
        <time>2016-03-08T09:35:38Z</time>
      </trkpt>
      <trkpt lat="45.35322" lon="6.48379">
        <ele>2260.2</ele>
        <time>2016-03-08T09:35:50Z</time>
      </trkpt>
      <trkpt lat="45.35326" lon="6.48392">
        <ele>2261.64</ele>
        <time>2016-03-08T09:36:02Z</time>
      </trkpt>
      <trkpt lat="45.35337" lon="6.48405">
        <ele>2264.04</ele>
        <time>2016-03-08T09:36:18Z</time>
      </trkpt>
      <trkpt lat="45.35349" lon="6.48414">
        <ele>2266.93</ele>
        <time>2016-03-08T09:36:37Z</time>
      </trkpt>
      <trkpt lat="45.35361" lon="6.48421">
        <ele>2270.77</ele>
        <time>2016-03-08T09:36:55Z</time>
      </trkpt>
      <trkpt lat="45.3537" lon="6.48423">
        <ele>2271.25</ele>
        <time>2016-03-08T09:37:05Z</time>
      </trkpt>
      <trkpt lat="45.3538" lon="6.48427">
        <ele>2273.66</ele>
        <time>2016-03-08T09:37:20Z</time>
      </trkpt>
      <trkpt lat="45.35389" lon="6.48432">
        <ele>2277.02</ele>
        <time>2016-03-08T09:37:36Z</time>
      </trkpt>
      <trkpt lat="45.35398" lon="6.48438">
        <ele>2278.46</ele>
        <time>2016-03-08T09:37:47Z</time>
      </trkpt>
      <trkpt lat="45.354" lon="6.48441">
        <ele>2278.94</ele>
        <time>2016-03-08T09:37:50Z</time>
      </trkpt>
      <trkpt lat="45.35408" lon="6.48454">
        <ele>2279.9</ele>
        <time>2016-03-08T09:38:05Z</time>
      </trkpt>
      <trkpt lat="45.35411" lon="6.48458">
        <ele>2280.38</ele>
        <time>2016-03-08T09:38:24Z</time>
      </trkpt>
      <trkpt lat="45.35411" lon="6.48457">
        <ele>2280.38</ele>
        <time>2016-03-08T09:38:43Z</time>
      </trkpt>
      <trkpt lat="45.35408" lon="6.48456">
        <ele>2278.94</ele>
        <time>2016-03-08T09:38:51Z</time>
      </trkpt>
      <trkpt lat="45.35405" lon="6.48451">
        <ele>2278.46</ele>
        <time>2016-03-08T09:39:11Z</time>
      </trkpt>
      <trkpt lat="45.35403" lon="6.48448">
        <ele>2277.98</ele>
        <time>2016-03-08T09:39:15Z</time>
      </trkpt>
      <trkpt lat="45.35395" lon="6.48436">
        <ele>2277.02</ele>
        <time>2016-03-08T09:39:27Z</time>
      </trkpt>
      <trkpt lat="45.35395" lon="6.48436">
        <ele>2276.54</ele>
        <time>2016-03-08T09:39:43Z</time>
      </trkpt>
      <trkpt lat="45.35394" lon="6.48435">
        <ele>2276.06</ele>
        <time>2016-03-08T09:39:57Z</time>
      </trkpt>
      <trkpt lat="45.35394" lon="6.48436">
        <ele>2275.1</ele>
        <time>2016-03-08T09:40:16Z</time>
      </trkpt>
      <trkpt lat="45.35394" lon="6.48436">
        <ele>2275.1</ele>
        <time>2016-03-08T09:40:41Z</time>
      </trkpt>
      <trkpt lat="45.35394" lon="6.48437">
        <ele>2275.1</ele>
        <time>2016-03-08T09:41:20Z</time>
      </trkpt>
      <trkpt lat="45.35394" lon="6.48436">
        <ele>2274.62</ele>
        <time>2016-03-08T09:41:54Z</time>
      </trkpt>
      <trkpt lat="45.35394" lon="6.48437">
        <ele>2274.14</ele>
        <time>2016-03-08T09:42:29Z</time>
      </trkpt>
      <trkpt lat="45.35394" lon="6.48436">
        <ele>2274.14</ele>
        <time>2016-03-08T09:42:57Z</time>
      </trkpt>
      <trkpt lat="45.35394" lon="6.48435">
        <ele>2273.66</ele>
        <time>2016-03-08T09:43:22Z</time>
      </trkpt>
      <trkpt lat="45.35394" lon="6.48436">
        <ele>2273.66</ele>
        <time>2016-03-08T09:43:47Z</time>
      </trkpt>
      <trkpt lat="45.35394" lon="6.48437">
        <ele>2273.66</ele>
        <time>2016-03-08T09:44:32Z</time>
      </trkpt>
      <trkpt lat="45.35394" lon="6.48437">
        <ele>2273.17</ele>
        <time>2016-03-08T09:45:14Z</time>
      </trkpt>
      <trkpt lat="45.35394" lon="6.48435">
        <ele>2273.17</ele>
        <time>2016-03-08T09:45:59Z</time>
      </trkpt>
      <trkpt lat="45.35395" lon="6.48438">
        <ele>2272.69</ele>
        <time>2016-03-08T09:46:42Z</time>
      </trkpt>
      <trkpt lat="45.35395" lon="6.48436">
        <ele>2272.69</ele>
        <time>2016-03-08T09:46:55Z</time>
      </trkpt>
      <trkpt lat="45.35395" lon="6.48435">
        <ele>2272.69</ele>
        <time>2016-03-08T09:47:38Z</time>
      </trkpt>
      <trkpt lat="45.35395" lon="6.48434">
        <ele>2272.21</ele>
        <time>2016-03-08T09:48:19Z</time>
      </trkpt>
      <trkpt lat="45.35395" lon="6.48434">
        <ele>2272.21</ele>
        <time>2016-03-08T09:49:01Z</time>
      </trkpt>
      <trkpt lat="45.35395" lon="6.48435">
        <ele>2272.21</ele>
        <time>2016-03-08T09:49:43Z</time>
      </trkpt>
      <trkpt lat="45.35395" lon="6.48435">
        <ele>2272.21</ele>
        <time>2016-03-08T09:50:22Z</time>
      </trkpt>
      <trkpt lat="45.35397" lon="6.48437">
        <ele>2271.73</ele>
        <time>2016-03-08T09:50:59Z</time>
      </trkpt>
      <trkpt lat="45.35396" lon="6.48435">
        <ele>2271.73</ele>
        <time>2016-03-08T09:51:37Z</time>
      </trkpt>
      <trkpt lat="45.35396" lon="6.48435">
        <ele>2271.73</ele>
        <time>2016-03-08T09:52:16Z</time>
      </trkpt>
      <trkpt lat="45.35394" lon="6.48436">
        <ele>2273.17</ele>
        <time>2016-03-08T09:52:25Z</time>
      </trkpt>
      <trkpt lat="45.35392" lon="6.48438">
        <ele>2272.69</ele>
        <time>2016-03-08T09:52:43Z</time>
      </trkpt>
      <trkpt lat="45.35391" lon="6.4844">
        <ele>2272.69</ele>
        <time>2016-03-08T09:53:14Z</time>
      </trkpt>
      <trkpt lat="45.35398" lon="6.48439">
        <ele>2273.17</ele>
        <time>2016-03-08T09:53:42Z</time>
      </trkpt>
      <trkpt lat="45.35397" lon="6.48439">
        <ele>2273.66</ele>
        <time>2016-03-08T09:54:03Z</time>
      </trkpt>
      <trkpt lat="45.35394" lon="6.48438">
        <ele>2273.17</ele>
        <time>2016-03-08T09:54:16Z</time>
      </trkpt>
      <trkpt lat="45.35393" lon="6.48438">
        <ele>2274.14</ele>
        <time>2016-03-08T09:54:36Z</time>
      </trkpt>
      <trkpt lat="45.35397" lon="6.48437">
        <ele>2272.69</ele>
        <time>2016-03-08T09:54:52Z</time>
      </trkpt>
      <trkpt lat="45.35395" lon="6.48438">
        <ele>2272.69</ele>
        <time>2016-03-08T09:55:07Z</time>
      </trkpt>
      <trkpt lat="45.35396" lon="6.48436">
        <ele>2273.66</ele>
        <time>2016-03-08T09:55:16Z</time>
      </trkpt>
      <trkpt lat="45.35401" lon="6.4844">
        <ele>2275.1</ele>
        <time>2016-03-08T09:55:27Z</time>
      </trkpt>
      <trkpt lat="45.35408" lon="6.48444">
        <ele>2276.06</ele>
        <time>2016-03-08T09:55:37Z</time>
      </trkpt>
      <trkpt lat="45.35414" lon="6.48448">
        <ele>2276.06</ele>
        <time>2016-03-08T09:55:44Z</time>
      </trkpt>
      <trkpt lat="45.35422" lon="6.48457">
        <ele>2274.14</ele>
        <time>2016-03-08T09:55:52Z</time>
      </trkpt>
      <trkpt lat="45.35428" lon="6.48472">
        <ele>2271.73</ele>
        <time>2016-03-08T09:56:04Z</time>
      </trkpt>
      <trkpt lat="45.35427" lon="6.48471">
        <ele>2271.73</ele>
        <time>2016-03-08T09:56:10Z</time>
      </trkpt>
      <trkpt lat="45.35433" lon="6.48462">
        <ele>2270.29</ele>
        <time>2016-03-08T09:56:19Z</time>
      </trkpt>
      <trkpt lat="45.35435" lon="6.4846">
        <ele>2269.81</ele>
        <time>2016-03-08T09:56:39Z</time>
      </trkpt>
      <trkpt lat="45.35435" lon="6.4846">
        <ele>2269.81</ele>
        <time>2016-03-08T09:56:58Z</time>
      </trkpt>
      <trkpt lat="45.35435" lon="6.48462">
        <ele>2269.33</ele>
        <time>2016-03-08T09:57:21Z</time>
      </trkpt>
      <trkpt lat="45.35434" lon="6.48461">
        <ele>2269.33</ele>
        <time>2016-03-08T09:57:31Z</time>
      </trkpt>
      <trkpt lat="45.35432" lon="6.48461">
        <ele>2269.33</ele>
        <time>2016-03-08T09:57:56Z</time>
      </trkpt>
      <trkpt lat="45.35431" lon="6.48461">
        <ele>2269.33</ele>
        <time>2016-03-08T09:58:27Z</time>
      </trkpt>
      <trkpt lat="45.3543" lon="6.48461">
        <ele>2270.29</ele>
        <time>2016-03-08T09:58:55Z</time>
      </trkpt>
      <trkpt lat="45.35431" lon="6.48462">
        <ele>2270.77</ele>
        <time>2016-03-08T09:59:17Z</time>
      </trkpt>
      <trkpt lat="45.35431" lon="6.48463">
        <ele>2270.77</ele>
        <time>2016-03-08T09:59:43Z</time>
      </trkpt>
      <trkpt lat="45.35431" lon="6.48462">
        <ele>2272.21</ele>
        <time>2016-03-08T09:59:56Z</time>
      </trkpt>
      <trkpt lat="45.35428" lon="6.48462">
        <ele>2272.21</ele>
        <time>2016-03-08T10:00:07Z</time>
      </trkpt>
      <trkpt lat="45.35429" lon="6.4846">
        <ele>2272.21</ele>
        <time>2016-03-08T10:00:24Z</time>
      </trkpt>
      <trkpt lat="45.3543" lon="6.48457">
        <ele>2273.17</ele>
        <time>2016-03-08T10:00:48Z</time>
      </trkpt>
      <trkpt lat="45.35429" lon="6.48459">
        <ele>2273.17</ele>
        <time>2016-03-08T10:01:10Z</time>
      </trkpt>
      <trkpt lat="45.35429" lon="6.48461">
        <ele>2274.14</ele>
        <time>2016-03-08T10:01:30Z</time>
      </trkpt>
      <trkpt lat="45.35428" lon="6.48462">
        <ele>2274.14</ele>
        <time>2016-03-08T10:01:54Z</time>
      </trkpt>
      <trkpt lat="45.35428" lon="6.48461">
        <ele>2272.69</ele>
        <time>2016-03-08T10:02:19Z</time>
      </trkpt>
      <trkpt lat="45.35429" lon="6.48461">
        <ele>2272.69</ele>
        <time>2016-03-08T10:02:40Z</time>
      </trkpt>
      <trkpt lat="45.35427" lon="6.48459">
        <ele>2273.66</ele>
        <time>2016-03-08T10:03:04Z</time>
      </trkpt>
      <trkpt lat="45.35427" lon="6.4846">
        <ele>2273.66</ele>
        <time>2016-03-08T10:03:22Z</time>
      </trkpt>
      <trkpt lat="45.35426" lon="6.48459">
        <ele>2273.66</ele>
        <time>2016-03-08T10:03:53Z</time>
      </trkpt>
      <trkpt lat="45.35426" lon="6.48459">
        <ele>2273.66</ele>
        <time>2016-03-08T10:04:14Z</time>
      </trkpt>
      <trkpt lat="45.35428" lon="6.4846">
        <ele>2273.66</ele>
        <time>2016-03-08T10:04:33Z</time>
      </trkpt>
      <trkpt lat="45.35427" lon="6.48459">
        <ele>2273.17</ele>
        <time>2016-03-08T10:05:01Z</time>
      </trkpt>
      <trkpt lat="45.35426" lon="6.48461">
        <ele>2274.14</ele>
        <time>2016-03-08T10:05:19Z</time>
      </trkpt>
      <trkpt lat="45.35424" lon="6.48459">
        <ele>2275.1</ele>
        <time>2016-03-08T10:05:29Z</time>
      </trkpt>
      <trkpt lat="45.35425" lon="6.48457">
        <ele>2275.1</ele>
        <time>2016-03-08T10:05:47Z</time>
      </trkpt>
      <trkpt lat="45.35425" lon="6.4846">
        <ele>2275.58</ele>
        <time>2016-03-08T10:06:01Z</time>
      </trkpt>
      <trkpt lat="45.35427" lon="6.48458">
        <ele>2275.1</ele>
        <time>2016-03-08T10:06:32Z</time>
      </trkpt>
      <trkpt lat="45.35426" lon="6.48459">
        <ele>2275.1</ele>
        <time>2016-03-08T10:06:49Z</time>
      </trkpt>
      <trkpt lat="45.35425" lon="6.48458">
        <ele>2275.58</ele>
        <time>2016-03-08T10:07:11Z</time>
      </trkpt>
      <trkpt lat="45.35424" lon="6.48459">
        <ele>2274.14</ele>
        <time>2016-03-08T10:07:24Z</time>
      </trkpt>
      <trkpt lat="45.35423" lon="6.48456">
        <ele>2274.14</ele>
        <time>2016-03-08T10:07:37Z</time>
      </trkpt>
      <trkpt lat="45.35421" lon="6.48454">
        <ele>2275.58</ele>
        <time>2016-03-08T10:07:44Z</time>
      </trkpt>
      <trkpt lat="45.35418" lon="6.48446">
        <ele>2275.58</ele>
        <time>2016-03-08T10:07:57Z</time>
      </trkpt>
      <trkpt lat="45.35417" lon="6.48442">
        <ele>2275.58</ele>
        <time>2016-03-08T10:08:11Z</time>
      </trkpt>
      <trkpt lat="45.35417" lon="6.48441">
        <ele>2274.14</ele>
        <time>2016-03-08T10:08:23Z</time>
      </trkpt>
      <trkpt lat="45.35416" lon="6.48442">
        <ele>2275.58</ele>
        <time>2016-03-08T10:08:28Z</time>
      </trkpt>
      <trkpt lat="45.35416" lon="6.4844">
        <ele>2275.58</ele>
        <time>2016-03-08T10:08:40Z</time>
      </trkpt>
      <trkpt lat="45.35416" lon="6.48439">
        <ele>2275.1</ele>
        <time>2016-03-08T10:09:02Z</time>
      </trkpt>
      <trkpt lat="45.35415" lon="6.48439">
        <ele>2275.1</ele>
        <time>2016-03-08T10:09:17Z</time>
      </trkpt>
      <trkpt lat="45.35415" lon="6.48439">
        <ele>2275.58</ele>
        <time>2016-03-08T10:09:39Z</time>
      </trkpt>
      <trkpt lat="45.35415" lon="6.4844">
        <ele>2275.1</ele>
        <time>2016-03-08T10:09:59Z</time>
      </trkpt>
      <trkpt lat="45.35415" lon="6.4844">
        <ele>2275.1</ele>
        <time>2016-03-08T10:10:14Z</time>
      </trkpt>
      <trkpt lat="45.35415" lon="6.48441">
        <ele>2275.1</ele>
        <time>2016-03-08T10:10:32Z</time>
      </trkpt>
      <trkpt lat="45.35414" lon="6.48439">
        <ele>2275.1</ele>
        <time>2016-03-08T10:10:51Z</time>
      </trkpt>
      <trkpt lat="45.35414" lon="6.48441">
        <ele>2275.58</ele>
        <time>2016-03-08T10:11:05Z</time>
      </trkpt>
      <trkpt lat="45.35414" lon="6.4844">
        <ele>2275.58</ele>
        <time>2016-03-08T10:11:21Z</time>
      </trkpt>
      <trkpt lat="45.35418" lon="6.48432">
        <ele>2273.66</ele>
        <time>2016-03-08T10:11:28Z</time>
      </trkpt>
      <trkpt lat="45.35422" lon="6.48422">
        <ele>2271.73</ele>
        <time>2016-03-08T10:11:37Z</time>
      </trkpt>
      <trkpt lat="45.35428" lon="6.48409">
        <ele>2268.85</ele>
        <time>2016-03-08T10:11:42Z</time>
      </trkpt>
      <trkpt lat="45.35427" lon="6.48404">
        <ele>2268.37</ele>
        <time>2016-03-08T10:11:56Z</time>
      </trkpt>
      <trkpt lat="45.35428" lon="6.48403">
        <ele>2268.37</ele>
        <time>2016-03-08T10:11:59Z</time>
      </trkpt>
      <trkpt lat="45.35432" lon="6.48411">
        <ele>2266.93</ele>
        <time>2016-03-08T10:12:04Z</time>
      </trkpt>
      <trkpt lat="45.35433" lon="6.48419">
        <ele>2265.96</ele>
        <time>2016-03-08T10:12:25Z</time>
      </trkpt>
      <trkpt lat="45.35433" lon="6.48419">
        <ele>2265.96</ele>
        <time>2016-03-08T10:12:36Z</time>
      </trkpt>
      <trkpt lat="45.3544" lon="6.48433">
        <ele>2262.6</ele>
        <time>2016-03-08T10:12:42Z</time>
      </trkpt>
      <trkpt lat="45.35439" lon="6.48438">
        <ele>2260.68</ele>
        <time>2016-03-08T10:12:55Z</time>
      </trkpt>
      <trkpt lat="45.35437" lon="6.4844">
        <ele>2261.64</ele>
        <time>2016-03-08T10:13:14Z</time>
      </trkpt>
      <trkpt lat="45.35436" lon="6.48443">
        <ele>2262.12</ele>
        <time>2016-03-08T10:13:23Z</time>
      </trkpt>
      <trkpt lat="45.35438" lon="6.48443">
        <ele>2263.08</ele>
        <time>2016-03-08T10:13:35Z</time>
      </trkpt>
      <trkpt lat="45.35438" lon="6.48444">
        <ele>2264.04</ele>
        <time>2016-03-08T10:13:43Z</time>
      </trkpt>
      <trkpt lat="45.35437" lon="6.48443">
        <ele>2264.52</ele>
        <time>2016-03-08T10:14:03Z</time>
      </trkpt>
      <trkpt lat="45.35437" lon="6.48443">
        <ele>2265</ele>
        <time>2016-03-08T10:14:16Z</time>
      </trkpt>
      <trkpt lat="45.35436" lon="6.48442">
        <ele>2265</ele>
        <time>2016-03-08T10:14:37Z</time>
      </trkpt>
      <trkpt lat="45.35433" lon="6.48444">
        <ele>2265.48</ele>
        <time>2016-03-08T10:14:54Z</time>
      </trkpt>
      <trkpt lat="45.35435" lon="6.48443">
        <ele>2265.48</ele>
        <time>2016-03-08T10:15:25Z</time>
      </trkpt>
      <trkpt lat="45.35434" lon="6.48445">
        <ele>2265</ele>
        <time>2016-03-08T10:15:53Z</time>
      </trkpt>
      <trkpt lat="45.35433" lon="6.48443">
        <ele>2265.96</ele>
        <time>2016-03-08T10:16:10Z</time>
      </trkpt>
      <trkpt lat="45.35433" lon="6.48441">
        <ele>2266.93</ele>
        <time>2016-03-08T10:16:22Z</time>
      </trkpt>
      <trkpt lat="45.35435" lon="6.4844">
        <ele>2267.41</ele>
        <time>2016-03-08T10:16:44Z</time>
      </trkpt>
      <trkpt lat="45.35434" lon="6.48441">
        <ele>2267.41</ele>
        <time>2016-03-08T10:17:06Z</time>
      </trkpt>
      <trkpt lat="45.35433" lon="6.48441">
        <ele>2267.41</ele>
        <time>2016-03-08T10:17:25Z</time>
      </trkpt>
      <trkpt lat="45.35433" lon="6.48443">
        <ele>2267.41</ele>
        <time>2016-03-08T10:17:45Z</time>
      </trkpt>
      <trkpt lat="45.35433" lon="6.48444">
        <ele>2267.41</ele>
        <time>2016-03-08T10:18:10Z</time>
      </trkpt>
      <trkpt lat="45.35437" lon="6.48447">
        <ele>2265</ele>
        <time>2016-03-08T10:18:16Z</time>
      </trkpt>
      <trkpt lat="45.35436" lon="6.48445">
        <ele>2265</ele>
        <time>2016-03-08T10:18:40Z</time>
      </trkpt>
      <trkpt lat="45.35434" lon="6.48447">
        <ele>2264.52</ele>
        <time>2016-03-08T10:19:03Z</time>
      </trkpt>
      <trkpt lat="45.35435" lon="6.48446">
        <ele>2264.52</ele>
        <time>2016-03-08T10:19:25Z</time>
      </trkpt>
      <trkpt lat="45.35436" lon="6.48444">
        <ele>2264.52</ele>
        <time>2016-03-08T10:19:59Z</time>
      </trkpt>
      <trkpt lat="45.35437" lon="6.48443">
        <ele>2264.52</ele>
        <time>2016-03-08T10:20:22Z</time>
      </trkpt>
      <trkpt lat="45.35438" lon="6.48444">
        <ele>2264.52</ele>
        <time>2016-03-08T10:20:43Z</time>
      </trkpt>
      <trkpt lat="45.35437" lon="6.48445">
        <ele>2264.04</ele>
        <time>2016-03-08T10:21:01Z</time>
      </trkpt>
      <trkpt lat="45.35438" lon="6.48445">
        <ele>2264.04</ele>
        <time>2016-03-08T10:21:08Z</time>
      </trkpt>
      <trkpt lat="45.35442" lon="6.48439">
        <ele>2260.2</ele>
        <time>2016-03-08T10:21:11Z</time>
      </trkpt>
      <trkpt lat="45.35443" lon="6.48434">
        <ele>2258.27</ele>
        <time>2016-03-08T10:21:15Z</time>
      </trkpt>
      <trkpt lat="45.35444" lon="6.4843">
        <ele>2256.35</ele>
        <time>2016-03-08T10:21:28Z</time>
      </trkpt>
      <trkpt lat="45.35448" lon="6.48426">
        <ele>2253.47</ele>
        <time>2016-03-08T10:21:41Z</time>
      </trkpt>
      <trkpt lat="45.35454" lon="6.48427">
        <ele>2248.66</ele>
        <time>2016-03-08T10:21:44Z</time>
      </trkpt>
      <trkpt lat="45.35455" lon="6.4843">
        <ele>2247.22</ele>
        <time>2016-03-08T10:21:46Z</time>
      </trkpt>
      <trkpt lat="45.35458" lon="6.48437">
        <ele>2245.3</ele>
        <time>2016-03-08T10:21:53Z</time>
      </trkpt>
      <trkpt lat="45.35462" lon="6.48431">
        <ele>2239.05</ele>
        <time>2016-03-08T10:21:56Z</time>
      </trkpt>
      <trkpt lat="45.35462" lon="6.48423">
        <ele>2236.16</ele>
        <time>2016-03-08T10:22:00Z</time>
      </trkpt>
      <trkpt lat="45.3546" lon="6.48418">
        <ele>2235.2</ele>
        <time>2016-03-08T10:22:09Z</time>
      </trkpt>
      <trkpt lat="45.35464" lon="6.48419">
        <ele>2231.36</ele>
        <time>2016-03-08T10:22:12Z</time>
      </trkpt>
      <trkpt lat="45.35465" lon="6.48418">
        <ele>2231.36</ele>
        <time>2016-03-08T10:22:13Z</time>
      </trkpt>
      <trkpt lat="45.35465" lon="6.48418">
        <ele>2231.36</ele>
        <time>2016-03-08T10:22:14Z</time>
      </trkpt>
      <trkpt lat="45.35472" lon="6.48416">
        <ele>2224.63</ele>
        <time>2016-03-08T10:22:17Z</time>
      </trkpt>
      <trkpt lat="45.35474" lon="6.48409">
        <ele>2223.19</ele>
        <time>2016-03-08T10:22:20Z</time>
      </trkpt>
      <trkpt lat="45.3547" lon="6.48403">
        <ele>2222.22</ele>
        <time>2016-03-08T10:22:30Z</time>
      </trkpt>
      <trkpt lat="45.35478" lon="6.48409">
        <ele>2218.38</ele>
        <time>2016-03-08T10:22:34Z</time>
      </trkpt>
      <trkpt lat="45.35485" lon="6.48412">
        <ele>2214.53</ele>
        <time>2016-03-08T10:22:36Z</time>
      </trkpt>
      <trkpt lat="45.35496" lon="6.48408">
        <ele>2210.21</ele>
        <time>2016-03-08T10:22:38Z</time>
      </trkpt>
      <trkpt lat="45.35502" lon="6.48407">
        <ele>2208.29</ele>
        <time>2016-03-08T10:22:39Z</time>
      </trkpt>
      <trkpt lat="45.35516" lon="6.48405">
        <ele>2202.52</ele>
        <time>2016-03-08T10:22:41Z</time>
      </trkpt>
      <trkpt lat="45.35529" lon="6.48395">
        <ele>2196.27</ele>
        <time>2016-03-08T10:22:44Z</time>
      </trkpt>
      <trkpt lat="45.35533" lon="6.48392">
        <ele>2196.75</ele>
        <time>2016-03-08T10:22:45Z</time>
      </trkpt>
      <trkpt lat="45.35541" lon="6.48393">
        <ele>2192.9</ele>
        <time>2016-03-08T10:22:47Z</time>
      </trkpt>
      <trkpt lat="45.35544" lon="6.48395">
        <ele>2188.58</ele>
        <time>2016-03-08T10:22:48Z</time>
      </trkpt>
      <trkpt lat="45.35545" lon="6.48397">
        <ele>2187.14</ele>
        <time>2016-03-08T10:22:50Z</time>
      </trkpt>
      <trkpt lat="45.35544" lon="6.48398">
        <ele>2187.14</ele>
        <time>2016-03-08T10:23:01Z</time>
      </trkpt>
      <trkpt lat="45.35544" lon="6.48398">
        <ele>2187.14</ele>
        <time>2016-03-08T10:23:20Z</time>
      </trkpt>
      <trkpt lat="45.35543" lon="6.48395">
        <ele>2187.14</ele>
        <time>2016-03-08T10:23:35Z</time>
      </trkpt>
      <trkpt lat="45.35553" lon="6.48415">
        <ele>2182.81</ele>
        <time>2016-03-08T10:23:40Z</time>
      </trkpt>
      <trkpt lat="45.35557" lon="6.48431">
        <ele>2178.48</ele>
        <time>2016-03-08T10:23:42Z</time>
      </trkpt>
      <trkpt lat="45.35558" lon="6.48439">
        <ele>2176.56</ele>
        <time>2016-03-08T10:23:43Z</time>
      </trkpt>
      <trkpt lat="45.35559" lon="6.48458">
        <ele>2172.72</ele>
        <time>2016-03-08T10:23:46Z</time>
      </trkpt>
      <trkpt lat="45.35566" lon="6.48465">
        <ele>2166.47</ele>
        <time>2016-03-08T10:23:49Z</time>
      </trkpt>
      <trkpt lat="45.35569" lon="6.48469">
        <ele>2164.55</ele>
        <time>2016-03-08T10:23:50Z</time>
      </trkpt>
      <trkpt lat="45.3558" lon="6.48487">
        <ele>2158.3</ele>
        <time>2016-03-08T10:23:53Z</time>
      </trkpt>
      <trkpt lat="45.35584" lon="6.48494">
        <ele>2154.93</ele>
        <time>2016-03-08T10:23:54Z</time>
      </trkpt>
      <trkpt lat="45.35593" lon="6.48517">
        <ele>2147.72</ele>
        <time>2016-03-08T10:23:57Z</time>
      </trkpt>
      <trkpt lat="45.35598" lon="6.48534">
        <ele>2142.44</ele>
        <time>2016-03-08T10:23:59Z</time>
      </trkpt>
      <trkpt lat="45.356" lon="6.48542">
        <ele>2138.11</ele>
        <time>2016-03-08T10:24:01Z</time>
      </trkpt>
      <trkpt lat="45.356" lon="6.48539">
        <ele>2139.07</ele>
        <time>2016-03-08T10:24:02Z</time>
      </trkpt>
      <trkpt lat="45.35599" lon="6.48538">
        <ele>2139.07</ele>
        <time>2016-03-08T10:24:03Z</time>
      </trkpt>
      <trkpt lat="45.35594" lon="6.48536">
        <ele>2138.59</ele>
        <time>2016-03-08T10:24:12Z</time>
      </trkpt>
      <trkpt lat="45.35599" lon="6.48543">
        <ele>2137.15</ele>
        <time>2016-03-08T10:24:16Z</time>
      </trkpt>
      <trkpt lat="45.35605" lon="6.48563">
        <ele>2132.82</ele>
        <time>2016-03-08T10:24:20Z</time>
      </trkpt>
      <trkpt lat="45.35605" lon="6.48566">
        <ele>2132.82</ele>
        <time>2016-03-08T10:24:21Z</time>
      </trkpt>
      <trkpt lat="45.35608" lon="6.4857">
        <ele>2132.82</ele>
        <time>2016-03-08T10:24:35Z</time>
      </trkpt>
      <trkpt lat="45.35609" lon="6.4857">
        <ele>2132.34</ele>
        <time>2016-03-08T10:24:39Z</time>
      </trkpt>
      <trkpt lat="45.35615" lon="6.48577">
        <ele>2128.98</ele>
        <time>2016-03-08T10:24:43Z</time>
      </trkpt>
      <trkpt lat="45.35623" lon="6.48584">
        <ele>2123.69</ele>
        <time>2016-03-08T10:24:46Z</time>
      </trkpt>
      <trkpt lat="45.35628" lon="6.48587">
        <ele>2119.84</ele>
        <time>2016-03-08T10:24:48Z</time>
      </trkpt>
      <trkpt lat="45.35635" lon="6.4859">
        <ele>2116</ele>
        <time>2016-03-08T10:24:50Z</time>
      </trkpt>
      <trkpt lat="45.35648" lon="6.48585">
        <ele>2113.6</ele>
        <time>2016-03-08T10:24:58Z</time>
      </trkpt>
      <trkpt lat="45.35664" lon="6.48585">
        <ele>2110.71</ele>
        <time>2016-03-08T10:25:06Z</time>
      </trkpt>
      <trkpt lat="45.35672" lon="6.48583">
        <ele>2106.39</ele>
        <time>2016-03-08T10:25:09Z</time>
      </trkpt>
      <trkpt lat="45.35672" lon="6.48583">
        <ele>2106.87</ele>
        <time>2016-03-08T10:25:10Z</time>
      </trkpt>
      <trkpt lat="45.35668" lon="6.48583">
        <ele>2106.39</ele>
        <time>2016-03-08T10:25:34Z</time>
      </trkpt>
      <trkpt lat="45.35668" lon="6.48584">
        <ele>2106.39</ele>
        <time>2016-03-08T10:25:52Z</time>
      </trkpt>
      <trkpt lat="45.35669" lon="6.48583">
        <ele>2106.39</ele>
        <time>2016-03-08T10:26:05Z</time>
      </trkpt>
      <trkpt lat="45.35669" lon="6.48584">
        <ele>2106.39</ele>
        <time>2016-03-08T10:26:24Z</time>
      </trkpt>
      <trkpt lat="45.35668" lon="6.48587">
        <ele>2106.39</ele>
        <time>2016-03-08T10:26:41Z</time>
      </trkpt>
      <trkpt lat="45.3567" lon="6.48583">
        <ele>2106.39</ele>
        <time>2016-03-08T10:27:06Z</time>
      </trkpt>
      <trkpt lat="45.3567" lon="6.48585">
        <ele>2106.39</ele>
        <time>2016-03-08T10:27:27Z</time>
      </trkpt>
      <trkpt lat="45.35672" lon="6.48586">
        <ele>2105.91</ele>
        <time>2016-03-08T10:27:52Z</time>
      </trkpt>
      <trkpt lat="45.35671" lon="6.48584">
        <ele>2105.91</ele>
        <time>2016-03-08T10:28:16Z</time>
      </trkpt>
      <trkpt lat="45.35672" lon="6.48585">
        <ele>2105.91</ele>
        <time>2016-03-08T10:28:32Z</time>
      </trkpt>
      <trkpt lat="45.35671" lon="6.48583">
        <ele>2105.91</ele>
        <time>2016-03-08T10:28:53Z</time>
      </trkpt>
      <trkpt lat="45.35672" lon="6.48597">
        <ele>2102.06</ele>
        <time>2016-03-08T10:28:59Z</time>
      </trkpt>
      <trkpt lat="45.35672" lon="6.48599">
        <ele>2102.06</ele>
        <time>2016-03-08T10:29:00Z</time>
      </trkpt>
      <trkpt lat="45.35666" lon="6.48608">
        <ele>2098.7</ele>
        <time>2016-03-08T10:29:05Z</time>
      </trkpt>
      <trkpt lat="45.35665" lon="6.48611">
        <ele>2098.21</ele>
        <time>2016-03-08T10:29:06Z</time>
      </trkpt>
      <trkpt lat="45.35667" lon="6.48624">
        <ele>2094.37</ele>
        <time>2016-03-08T10:29:09Z</time>
      </trkpt>
      <trkpt lat="45.35676" lon="6.48631">
        <ele>2091</ele>
        <time>2016-03-08T10:29:11Z</time>
      </trkpt>
      <trkpt lat="45.35691" lon="6.4864">
        <ele>2087.16</ele>
        <time>2016-03-08T10:29:14Z</time>
      </trkpt>
      <trkpt lat="45.35702" lon="6.48648">
        <ele>2080.91</ele>
        <time>2016-03-08T10:29:16Z</time>
      </trkpt>
      <trkpt lat="45.35706" lon="6.48649">
        <ele>2079.95</ele>
        <time>2016-03-08T10:29:17Z</time>
      </trkpt>
      <trkpt lat="45.35711" lon="6.48651">
        <ele>2078.99</ele>
        <time>2016-03-08T10:29:18Z</time>
      </trkpt>
      <trkpt lat="45.35715" lon="6.48654">
        <ele>2077.07</ele>
        <time>2016-03-08T10:29:19Z</time>
      </trkpt>
      <trkpt lat="45.35721" lon="6.48657">
        <ele>2074.66</ele>
        <time>2016-03-08T10:29:20Z</time>
      </trkpt>
      <trkpt lat="45.35728" lon="6.48669">
        <ele>2071.3</ele>
        <time>2016-03-08T10:29:27Z</time>
      </trkpt>
      <trkpt lat="45.35722" lon="6.48671">
        <ele>2071.3</ele>
        <time>2016-03-08T10:29:45Z</time>
      </trkpt>
      <trkpt lat="45.35723" lon="6.48671">
        <ele>2071.3</ele>
        <time>2016-03-08T10:30:02Z</time>
      </trkpt>
      <trkpt lat="45.35729" lon="6.4867">
        <ele>2067.93</ele>
        <time>2016-03-08T10:30:05Z</time>
      </trkpt>
      <trkpt lat="45.3573" lon="6.48666">
        <ele>2066.01</ele>
        <time>2016-03-08T10:30:06Z</time>
      </trkpt>
      <trkpt lat="45.35739" lon="6.48663">
        <ele>2060.24</ele>
        <time>2016-03-08T10:30:09Z</time>
      </trkpt>
      <trkpt lat="45.35744" lon="6.48666">
        <ele>2055.92</ele>
        <time>2016-03-08T10:30:10Z</time>
      </trkpt>
      <trkpt lat="45.35746" lon="6.48665">
        <ele>2055.92</ele>
        <time>2016-03-08T10:30:11Z</time>
      </trkpt>
      <trkpt lat="45.3575" lon="6.48666">
        <ele>2052.07</ele>
        <time>2016-03-08T10:30:12Z</time>
      </trkpt>
      <trkpt lat="45.35757" lon="6.4867">
        <ele>2047.26</ele>
        <time>2016-03-08T10:30:14Z</time>
      </trkpt>
      <trkpt lat="45.35761" lon="6.48671">
        <ele>2043.9</ele>
        <time>2016-03-08T10:30:15Z</time>
      </trkpt>
      <trkpt lat="45.35777" lon="6.48672">
        <ele>2034.29</ele>
        <time>2016-03-08T10:30:19Z</time>
      </trkpt>
      <trkpt lat="45.35786" lon="6.48677">
        <ele>2030.44</ele>
        <time>2016-03-08T10:30:21Z</time>
      </trkpt>
      <trkpt lat="45.35804" lon="6.48691">
        <ele>2023.71</ele>
        <time>2016-03-08T10:30:25Z</time>
      </trkpt>
      <trkpt lat="45.35809" lon="6.48692">
        <ele>2023.23</ele>
        <time>2016-03-08T10:30:36Z</time>
      </trkpt>
      <trkpt lat="45.35808" lon="6.48691">
        <ele>2023.23</ele>
        <time>2016-03-08T10:31:04Z</time>
      </trkpt>
      <trkpt lat="45.35808" lon="6.48691">
        <ele>2023.23</ele>
        <time>2016-03-08T10:31:26Z</time>
      </trkpt>
      <trkpt lat="45.3581" lon="6.48693">
        <ele>2023.23</ele>
        <time>2016-03-08T10:31:39Z</time>
      </trkpt>
      <trkpt lat="45.35822" lon="6.48706">
        <ele>2018.91</ele>
        <time>2016-03-08T10:31:43Z</time>
      </trkpt>
      <trkpt lat="45.35827" lon="6.48712">
        <ele>2016.02</ele>
        <time>2016-03-08T10:31:44Z</time>
      </trkpt>
      <trkpt lat="45.35837" lon="6.48722">
        <ele>2011.22</ele>
        <time>2016-03-08T10:31:46Z</time>
      </trkpt>
      <trkpt lat="45.35854" lon="6.48736">
        <ele>2004.97</ele>
        <time>2016-03-08T10:31:49Z</time>
      </trkpt>
      <trkpt lat="45.35859" lon="6.48745">
        <ele>2000.64</ele>
        <time>2016-03-08T10:31:50Z</time>
      </trkpt>
      <trkpt lat="45.35868" lon="6.48761">
        <ele>1997.28</ele>
        <time>2016-03-08T10:31:52Z</time>
      </trkpt>
      <trkpt lat="45.35878" lon="6.48784">
        <ele>1990.55</ele>
        <time>2016-03-08T10:31:55Z</time>
      </trkpt>
      <trkpt lat="45.35888" lon="6.48788">
        <ele>1986.22</ele>
        <time>2016-03-08T10:31:57Z</time>
      </trkpt>
      <trkpt lat="45.35911" lon="6.48799">
        <ele>1979.49</ele>
        <time>2016-03-08T10:32:01Z</time>
      </trkpt>
      <trkpt lat="45.3593" lon="6.48825">
        <ele>1973.72</ele>
        <time>2016-03-08T10:32:05Z</time>
      </trkpt>
      <trkpt lat="45.35937" lon="6.48837">
        <ele>1969.4</ele>
        <time>2016-03-08T10:32:07Z</time>
      </trkpt>
      <trkpt lat="45.35939" lon="6.48844">
        <ele>1967.96</ele>
        <time>2016-03-08T10:32:08Z</time>
      </trkpt>
      <trkpt lat="45.35942" lon="6.48848">
        <ele>1966.51</ele>
        <time>2016-03-08T10:32:09Z</time>
      </trkpt>
      <trkpt lat="45.35946" lon="6.48852">
        <ele>1965.55</ele>
        <time>2016-03-08T10:32:10Z</time>
      </trkpt>
      <trkpt lat="45.35948" lon="6.48858">
        <ele>1963.15</ele>
        <time>2016-03-08T10:32:11Z</time>
      </trkpt>
      <trkpt lat="45.3595" lon="6.48864">
        <ele>1961.71</ele>
        <time>2016-03-08T10:32:12Z</time>
      </trkpt>
      <trkpt lat="45.35952" lon="6.4887">
        <ele>1960.27</ele>
        <time>2016-03-08T10:32:13Z</time>
      </trkpt>
      <trkpt lat="45.35954" lon="6.48874">
        <ele>1958.82</ele>
        <time>2016-03-08T10:32:14Z</time>
      </trkpt>
      <trkpt lat="45.35957" lon="6.48875">
        <ele>1955.46</ele>
        <time>2016-03-08T10:32:15Z</time>
      </trkpt>
      <trkpt lat="45.35963" lon="6.48876">
        <ele>1953.06</ele>
        <time>2016-03-08T10:32:16Z</time>
      </trkpt>
      <trkpt lat="45.35971" lon="6.48877">
        <ele>1951.13</ele>
        <time>2016-03-08T10:32:17Z</time>
      </trkpt>
      <trkpt lat="45.35979" lon="6.4888">
        <ele>1949.69</ele>
        <time>2016-03-08T10:32:18Z</time>
      </trkpt>
      <trkpt lat="45.36008" lon="6.48895">
        <ele>1942.96</ele>
        <time>2016-03-08T10:32:22Z</time>
      </trkpt>
      <trkpt lat="45.36025" lon="6.48909">
        <ele>1936.71</ele>
        <time>2016-03-08T10:32:26Z</time>
      </trkpt>
      <trkpt lat="45.3604" lon="6.48918">
        <ele>1933.83</ele>
        <time>2016-03-08T10:32:29Z</time>
      </trkpt>
      <trkpt lat="45.36051" lon="6.48933">
        <ele>1929.5</ele>
        <time>2016-03-08T10:32:32Z</time>
      </trkpt>
      <trkpt lat="45.3606" lon="6.48935">
        <ele>1925.66</ele>
        <time>2016-03-08T10:32:35Z</time>
      </trkpt>
      <trkpt lat="45.3606" lon="6.48935">
        <ele>1925.18</ele>
        <time>2016-03-08T10:32:37Z</time>
      </trkpt>
      <trkpt lat="45.3606" lon="6.4894">
        <ele>1926.14</ele>
        <time>2016-03-08T10:32:53Z</time>
      </trkpt>
      <trkpt lat="45.36075" lon="6.48932">
        <ele>1922.29</ele>
        <time>2016-03-08T10:32:57Z</time>
      </trkpt>
      <trkpt lat="45.3608" lon="6.48929">
        <ele>1921.33</ele>
        <time>2016-03-08T10:32:58Z</time>
      </trkpt>
      <trkpt lat="45.36104" lon="6.48935">
        <ele>1916.04</ele>
        <time>2016-03-08T10:33:03Z</time>
      </trkpt>
      <trkpt lat="45.3612" lon="6.48941">
        <ele>1911.24</ele>
        <time>2016-03-08T10:33:06Z</time>
      </trkpt>
      <trkpt lat="45.36131" lon="6.48947">
        <ele>1908.35</ele>
        <time>2016-03-08T10:33:08Z</time>
      </trkpt>
      <trkpt lat="45.36135" lon="6.48951">
        <ele>1907.39</ele>
        <time>2016-03-08T10:33:09Z</time>
      </trkpt>
      <trkpt lat="45.3614" lon="6.48956">
        <ele>1905.47</ele>
        <time>2016-03-08T10:33:10Z</time>
      </trkpt>
      <trkpt lat="45.36145" lon="6.48961">
        <ele>1904.03</ele>
        <time>2016-03-08T10:33:11Z</time>
      </trkpt>
      <trkpt lat="45.36149" lon="6.48965">
        <ele>1902.59</ele>
        <time>2016-03-08T10:33:12Z</time>
      </trkpt>
      <trkpt lat="45.36152" lon="6.48971">
        <ele>1899.7</ele>
        <time>2016-03-08T10:33:13Z</time>
      </trkpt>
      <trkpt lat="45.36155" lon="6.48979">
        <ele>1898.26</ele>
        <time>2016-03-08T10:33:14Z</time>
      </trkpt>
      <trkpt lat="45.36159" lon="6.48986">
        <ele>1897.78</ele>
        <time>2016-03-08T10:33:15Z</time>
      </trkpt>
      <trkpt lat="45.36162" lon="6.48992">
        <ele>1896.82</ele>
        <time>2016-03-08T10:33:16Z</time>
      </trkpt>
      <trkpt lat="45.36168" lon="6.49001">
        <ele>1895.38</ele>
        <time>2016-03-08T10:33:18Z</time>
      </trkpt>
      <trkpt lat="45.36171" lon="6.49004">
        <ele>1895.38</ele>
        <time>2016-03-08T10:33:19Z</time>
      </trkpt>
      <trkpt lat="45.36181" lon="6.49018">
        <ele>1892.49</ele>
        <time>2016-03-08T10:33:23Z</time>
      </trkpt>
      <trkpt lat="45.36183" lon="6.49024">
        <ele>1891.53</ele>
        <time>2016-03-08T10:33:24Z</time>
      </trkpt>
      <trkpt lat="45.36185" lon="6.49032">
        <ele>1889.13</ele>
        <time>2016-03-08T10:33:25Z</time>
      </trkpt>
      <trkpt lat="45.36187" lon="6.49051">
        <ele>1885.76</ele>
        <time>2016-03-08T10:33:27Z</time>
      </trkpt>
      <trkpt lat="45.36191" lon="6.4906">
        <ele>1882.88</ele>
        <time>2016-03-08T10:33:28Z</time>
      </trkpt>
      <trkpt lat="45.36199" lon="6.49075">
        <ele>1880</ele>
        <time>2016-03-08T10:33:30Z</time>
      </trkpt>
      <trkpt lat="45.36205" lon="6.49081">
        <ele>1879.03</ele>
        <time>2016-03-08T10:33:31Z</time>
      </trkpt>
      <trkpt lat="45.3621" lon="6.49085">
        <ele>1877.59</ele>
        <time>2016-03-08T10:33:32Z</time>
      </trkpt>
      <trkpt lat="45.36227" lon="6.49097">
        <ele>1873.75</ele>
        <time>2016-03-08T10:33:35Z</time>
      </trkpt>
      <trkpt lat="45.36243" lon="6.49109">
        <ele>1870.86</ele>
        <time>2016-03-08T10:33:39Z</time>
      </trkpt>
      <trkpt lat="45.36246" lon="6.49113">
        <ele>1869.9</ele>
        <time>2016-03-08T10:33:41Z</time>
      </trkpt>
      <trkpt lat="45.36249" lon="6.49112">
        <ele>1869.9</ele>
        <time>2016-03-08T10:33:56Z</time>
      </trkpt>
      <trkpt lat="45.36254" lon="6.49119">
        <ele>1869.42</ele>
        <time>2016-03-08T10:34:05Z</time>
      </trkpt>
      <trkpt lat="45.36258" lon="6.49137">
        <ele>1865.09</ele>
        <time>2016-03-08T10:34:08Z</time>
      </trkpt>
      <trkpt lat="45.36263" lon="6.49154">
        <ele>1861.73</ele>
        <time>2016-03-08T10:34:11Z</time>
      </trkpt>
      <trkpt lat="45.36274" lon="6.49153">
        <ele>1857.89</ele>
        <time>2016-03-08T10:34:14Z</time>
      </trkpt>
      <trkpt lat="45.36277" lon="6.49154">
        <ele>1855</ele>
        <time>2016-03-08T10:34:15Z</time>
      </trkpt>
      <trkpt lat="45.36294" lon="6.49148">
        <ele>1845.39</ele>
        <time>2016-03-08T10:34:19Z</time>
      </trkpt>
      <trkpt lat="45.36312" lon="6.4914">
        <ele>1840.1</ele>
        <time>2016-03-08T10:34:22Z</time>
      </trkpt>
      <trkpt lat="45.36323" lon="6.49138">
        <ele>1834.81</ele>
        <time>2016-03-08T10:34:24Z</time>
      </trkpt>
      <trkpt lat="45.36329" lon="6.49139">
        <ele>1832.89</ele>
        <time>2016-03-08T10:34:25Z</time>
      </trkpt>
      <trkpt lat="45.36357" lon="6.49134">
        <ele>1821.35</ele>
        <time>2016-03-08T10:34:29Z</time>
      </trkpt>
      <trkpt lat="45.36369" lon="6.49141">
        <ele>1817.99</ele>
        <time>2016-03-08T10:34:32Z</time>
      </trkpt>
      <trkpt lat="45.36372" lon="6.4914">
        <ele>1817.03</ele>
        <time>2016-03-08T10:34:34Z</time>
      </trkpt>
      <trkpt lat="45.36381" lon="6.49152">
        <ele>1812.7</ele>
        <time>2016-03-08T10:34:38Z</time>
      </trkpt>
      <trkpt lat="45.3639" lon="6.49151">
        <ele>1807.9</ele>
        <time>2016-03-08T10:34:40Z</time>
      </trkpt>
      <trkpt lat="45.36401" lon="6.49151">
        <ele>1803.57</ele>
        <time>2016-03-08T10:34:42Z</time>
      </trkpt>
      <trkpt lat="45.36412" lon="6.49153">
        <ele>1800.21</ele>
        <time>2016-03-08T10:34:44Z</time>
      </trkpt>
      <trkpt lat="45.36423" lon="6.49156">
        <ele>1795.88</ele>
        <time>2016-03-08T10:34:46Z</time>
      </trkpt>
      <trkpt lat="45.36432" lon="6.49157">
        <ele>1791.07</ele>
        <time>2016-03-08T10:34:48Z</time>
      </trkpt>
      <trkpt lat="45.36442" lon="6.49147">
        <ele>1788.67</ele>
        <time>2016-03-08T10:34:51Z</time>
      </trkpt>
      <trkpt lat="45.36451" lon="6.49138">
        <ele>1786.27</ele>
        <time>2016-03-08T10:34:53Z</time>
      </trkpt>
      <trkpt lat="45.36468" lon="6.49133">
        <ele>1780.02</ele>
        <time>2016-03-08T10:34:56Z</time>
      </trkpt>
      <trkpt lat="45.36475" lon="6.49135">
        <ele>1775.69</ele>
        <time>2016-03-08T10:34:57Z</time>
      </trkpt>
      <trkpt lat="45.36494" lon="6.49137">
        <ele>1769.44</ele>
        <time>2016-03-08T10:35:00Z</time>
      </trkpt>
      <trkpt lat="45.36501" lon="6.49137">
        <ele>1766.08</ele>
        <time>2016-03-08T10:35:01Z</time>
      </trkpt>
      <trkpt lat="45.36515" lon="6.49142">
        <ele>1761.27</ele>
        <time>2016-03-08T10:35:03Z</time>
      </trkpt>
      <trkpt lat="45.36522" lon="6.49141">
        <ele>1757.91</ele>
        <time>2016-03-08T10:35:04Z</time>
      </trkpt>
      <trkpt lat="45.36533" lon="6.49143">
        <ele>1754.54</ele>
        <time>2016-03-08T10:35:06Z</time>
      </trkpt>
      <trkpt lat="45.36543" lon="6.49145">
        <ele>1749.26</ele>
        <time>2016-03-08T10:35:08Z</time>
      </trkpt>
      <trkpt lat="45.36547" lon="6.49143">
        <ele>1747.81</ele>
        <time>2016-03-08T10:35:09Z</time>
      </trkpt>
      <trkpt lat="45.36555" lon="6.49134">
        <ele>1745.41</ele>
        <time>2016-03-08T10:35:16Z</time>
      </trkpt>
      <trkpt lat="45.36557" lon="6.49135">
        <ele>1745.89</ele>
        <time>2016-03-08T10:35:34Z</time>
      </trkpt>
      <trkpt lat="45.36555" lon="6.49139">
        <ele>1746.37</ele>
        <time>2016-03-08T10:35:49Z</time>
      </trkpt>
      <trkpt lat="45.36559" lon="6.49137">
        <ele>1745.89</ele>
        <time>2016-03-08T10:35:52Z</time>
      </trkpt>
      <trkpt lat="45.3656" lon="6.49135">
        <ele>1744.45</ele>
        <time>2016-03-08T10:35:53Z</time>
      </trkpt>
      <trkpt lat="45.36561" lon="6.49132">
        <ele>1743.49</ele>
        <time>2016-03-08T10:35:54Z</time>
      </trkpt>
      <trkpt lat="45.36563" lon="6.49129">
        <ele>1743.01</ele>
        <time>2016-03-08T10:35:55Z</time>
      </trkpt>
      <trkpt lat="45.36571" lon="6.49126">
        <ele>1736.76</ele>
        <time>2016-03-08T10:35:57Z</time>
      </trkpt>
      <trkpt lat="45.36573" lon="6.49129">
        <ele>1736.76</ele>
        <time>2016-03-08T10:35:58Z</time>
      </trkpt>
      <trkpt lat="45.36577" lon="6.4913">
        <ele>1735.32</ele>
        <time>2016-03-08T10:35:59Z</time>
      </trkpt>
      <trkpt lat="45.36581" lon="6.49132">
        <ele>1733.39</ele>
        <time>2016-03-08T10:36:00Z</time>
      </trkpt>
      <trkpt lat="45.36585" lon="6.49135">
        <ele>1730.99</ele>
        <time>2016-03-08T10:36:01Z</time>
      </trkpt>
      <trkpt lat="45.36589" lon="6.49137">
        <ele>1730.51</ele>
        <time>2016-03-08T10:36:02Z</time>
      </trkpt>
      <trkpt lat="45.36589" lon="6.49139">
        <ele>1730.51</ele>
        <time>2016-03-08T10:36:04Z</time>
      </trkpt>
      <trkpt lat="45.36587" lon="6.49146">
        <ele>1730.51</ele>
        <time>2016-03-08T10:36:11Z</time>
      </trkpt>
      <trkpt lat="45.36589" lon="6.49148">
        <ele>1730.03</ele>
        <time>2016-03-08T10:36:12Z</time>
      </trkpt>
      <trkpt lat="45.36592" lon="6.49148">
        <ele>1729.07</ele>
        <time>2016-03-08T10:36:13Z</time>
      </trkpt>
      <trkpt lat="45.36594" lon="6.49149">
        <ele>1728.11</ele>
        <time>2016-03-08T10:36:14Z</time>
      </trkpt>
      <trkpt lat="45.36596" lon="6.49152">
        <ele>1726.18</ele>
        <time>2016-03-08T10:36:15Z</time>
      </trkpt>
      <trkpt lat="45.36597" lon="6.49156">
        <ele>1725.22</ele>
        <time>2016-03-08T10:36:17Z</time>
      </trkpt>
      <trkpt lat="45.36595" lon="6.49157">
        <ele>1725.7</ele>
        <time>2016-03-08T10:36:24Z</time>
      </trkpt>
      <trkpt lat="45.36598" lon="6.49157">
        <ele>1725.22</ele>
        <time>2016-03-08T10:36:26Z</time>
      </trkpt>
      <trkpt lat="45.36601" lon="6.49157">
        <ele>1723.78</ele>
        <time>2016-03-08T10:36:27Z</time>
      </trkpt>
      <trkpt lat="45.36604" lon="6.4916">
        <ele>1722.82</ele>
        <time>2016-03-08T10:36:28Z</time>
      </trkpt>
      <trkpt lat="45.36608" lon="6.49164">
        <ele>1720.9</ele>
        <time>2016-03-08T10:36:29Z</time>
      </trkpt>
      <trkpt lat="45.36612" lon="6.49185">
        <ele>1715.13</ele>
        <time>2016-03-08T10:36:34Z</time>
      </trkpt>
      <trkpt lat="45.3662" lon="6.49196">
        <ele>1711.76</ele>
        <time>2016-03-08T10:36:39Z</time>
      </trkpt>
      <trkpt lat="45.36625" lon="6.49196">
        <ele>1710.32</ele>
        <time>2016-03-08T10:36:40Z</time>
      </trkpt>
      <trkpt lat="45.3665" lon="6.49205">
        <ele>1703.59</ele>
        <time>2016-03-08T10:36:44Z</time>
      </trkpt>
      <trkpt lat="45.36673" lon="6.49213">
        <ele>1699.75</ele>
        <time>2016-03-08T10:36:47Z</time>
      </trkpt>
      <trkpt lat="45.3668" lon="6.49215">
        <ele>1698.31</ele>
        <time>2016-03-08T10:36:48Z</time>
      </trkpt>
      <trkpt lat="45.36692" lon="6.49224">
        <ele>1695.42</ele>
        <time>2016-03-08T10:36:50Z</time>
      </trkpt>
      <trkpt lat="45.3671" lon="6.49244">
        <ele>1690.62</ele>
        <time>2016-03-08T10:36:54Z</time>
      </trkpt>
      <trkpt lat="45.36723" lon="6.49259">
        <ele>1685.81</ele>
        <time>2016-03-08T10:36:57Z</time>
      </trkpt>
      <trkpt lat="45.36734" lon="6.49265">
        <ele>1681</ele>
        <time>2016-03-08T10:36:59Z</time>
      </trkpt>
      <trkpt lat="45.36738" lon="6.49266">
        <ele>1679.56</ele>
        <time>2016-03-08T10:37:00Z</time>
      </trkpt>
      <trkpt lat="45.36735" lon="6.49273">
        <ele>1680.04</ele>
        <time>2016-03-08T10:37:14Z</time>
      </trkpt>
      <trkpt lat="45.36735" lon="6.49272">
        <ele>1680.52</ele>
        <time>2016-03-08T10:37:19Z</time>
      </trkpt>
      <trkpt lat="45.36736" lon="6.49283">
        <ele>1678.12</ele>
        <time>2016-03-08T10:37:23Z</time>
      </trkpt>
      <trkpt lat="45.36744" lon="6.49288">
        <ele>1672.83</ele>
        <time>2016-03-08T10:37:26Z</time>
      </trkpt>
      <trkpt lat="45.36752" lon="6.49295">
        <ele>1669.47</ele>
        <time>2016-03-08T10:37:28Z</time>
      </trkpt>
      <trkpt lat="45.36759" lon="6.49303">
        <ele>1665.14</ele>
        <time>2016-03-08T10:37:30Z</time>
      </trkpt>
      <trkpt lat="45.36769" lon="6.49317">
        <ele>1661.78</ele>
        <time>2016-03-08T10:37:33Z</time>
      </trkpt>
      <trkpt lat="45.36784" lon="6.49331">
        <ele>1657.93</ele>
        <time>2016-03-08T10:37:40Z</time>
      </trkpt>
      <trkpt lat="45.36786" lon="6.49332">
        <ele>1657.93</ele>
        <time>2016-03-08T10:37:42Z</time>
      </trkpt>
      <trkpt lat="45.36798" lon="6.49335">
        <ele>1654.57</ele>
        <time>2016-03-08T10:37:47Z</time>
      </trkpt>
      <trkpt lat="45.36805" lon="6.49342">
        <ele>1652.64</ele>
        <time>2016-03-08T10:37:56Z</time>
      </trkpt>
      <trkpt lat="45.36806" lon="6.49343">
        <ele>1652.64</ele>
        <time>2016-03-08T10:38:06Z</time>
      </trkpt>
      <trkpt lat="45.36812" lon="6.49334">
        <ele>1648.32</ele>
        <time>2016-03-08T10:38:09Z</time>
      </trkpt>
      <trkpt lat="45.36818" lon="6.49327">
        <ele>1644.47</ele>
        <time>2016-03-08T10:38:11Z</time>
      </trkpt>
      <trkpt lat="45.36828" lon="6.49331">
        <ele>1641.59</ele>
        <time>2016-03-08T10:38:13Z</time>
      </trkpt>
      <trkpt lat="45.36845" lon="6.49341">
        <ele>1637.26</ele>
        <time>2016-03-08T10:38:18Z</time>
      </trkpt>
      <trkpt lat="45.36849" lon="6.49343">
        <ele>1636.3</ele>
        <time>2016-03-08T10:38:19Z</time>
      </trkpt>
      <trkpt lat="45.36869" lon="6.49353">
        <ele>1631.49</ele>
        <time>2016-03-08T10:38:24Z</time>
      </trkpt>
      <trkpt lat="45.36882" lon="6.49359">
        <ele>1629.09</ele>
        <time>2016-03-08T10:38:27Z</time>
      </trkpt>
      <trkpt lat="45.36896" lon="6.49352">
        <ele>1623.8</ele>
        <time>2016-03-08T10:38:30Z</time>
      </trkpt>
      <trkpt lat="45.36905" lon="6.49345">
        <ele>1620.92</ele>
        <time>2016-03-08T10:38:32Z</time>
      </trkpt>
      <trkpt lat="45.36916" lon="6.49338">
        <ele>1617.56</ele>
        <time>2016-03-08T10:38:34Z</time>
      </trkpt>
      <trkpt lat="45.36937" lon="6.49326">
        <ele>1611.31</ele>
        <time>2016-03-08T10:38:38Z</time>
      </trkpt>
      <trkpt lat="45.36941" lon="6.4931">
        <ele>1607.94</ele>
        <time>2016-03-08T10:38:41Z</time>
      </trkpt>
      <trkpt lat="45.36946" lon="6.49293">
        <ele>1604.1</ele>
        <time>2016-03-08T10:38:44Z</time>
      </trkpt>
      <trkpt lat="45.36949" lon="6.49264">
        <ele>1598.33</ele>
        <time>2016-03-08T10:38:47Z</time>
      </trkpt>
      <trkpt lat="45.3695" lon="6.49258">
        <ele>1597.85</ele>
        <time>2016-03-08T10:38:48Z</time>
      </trkpt>
      <trkpt lat="45.36951" lon="6.49252">
        <ele>1596.89</ele>
        <time>2016-03-08T10:38:49Z</time>
      </trkpt>
      <trkpt lat="45.36955" lon="6.49248">
        <ele>1595.93</ele>
        <time>2016-03-08T10:38:50Z</time>
      </trkpt>
      <trkpt lat="45.36959" lon="6.49244">
        <ele>1594.48</ele>
        <time>2016-03-08T10:38:51Z</time>
      </trkpt>
      <trkpt lat="45.36964" lon="6.4924">
        <ele>1594.48</ele>
        <time>2016-03-08T10:38:52Z</time>
      </trkpt>
      <trkpt lat="45.36968" lon="6.49238">
        <ele>1594.48</ele>
        <time>2016-03-08T10:38:53Z</time>
      </trkpt>
      <trkpt lat="45.36971" lon="6.49237">
        <ele>1594</ele>
        <time>2016-03-08T10:38:54Z</time>
      </trkpt>
      <trkpt lat="45.36974" lon="6.49236">
        <ele>1594</ele>
        <time>2016-03-08T10:38:57Z</time>
      </trkpt>
      <trkpt lat="45.36975" lon="6.49232">
        <ele>1594.48</ele>
        <time>2016-03-08T10:39:07Z</time>
      </trkpt>
      <trkpt lat="45.36976" lon="6.4923">
        <ele>1594</ele>
        <time>2016-03-08T10:39:09Z</time>
      </trkpt>
      <trkpt lat="45.36976" lon="6.49228">
        <ele>1594</ele>
        <time>2016-03-08T10:39:10Z</time>
      </trkpt>
      <trkpt lat="45.36977" lon="6.49226">
        <ele>1594</ele>
        <time>2016-03-08T10:39:11Z</time>
      </trkpt>
      <trkpt lat="45.36977" lon="6.49223">
        <ele>1593.52</ele>
        <time>2016-03-08T10:39:12Z</time>
      </trkpt>
      <trkpt lat="45.36977" lon="6.49221">
        <ele>1593.04</ele>
        <time>2016-03-08T10:39:13Z</time>
      </trkpt>
      <trkpt lat="45.36978" lon="6.49218">
        <ele>1593.04</ele>
        <time>2016-03-08T10:39:14Z</time>
      </trkpt>
      <trkpt lat="45.36979" lon="6.49216">
        <ele>1593.04</ele>
        <time>2016-03-08T10:39:15Z</time>
      </trkpt>
      <trkpt lat="45.36981" lon="6.49213">
        <ele>1592.56</ele>
        <time>2016-03-08T10:39:16Z</time>
      </trkpt>
      <trkpt lat="45.36982" lon="6.4921">
        <ele>1592.56</ele>
        <time>2016-03-08T10:39:17Z</time>
      </trkpt>
      <trkpt lat="45.36989" lon="6.49192">
        <ele>1590.64</ele>
        <time>2016-03-08T10:39:21Z</time>
      </trkpt>
      <trkpt lat="45.36993" lon="6.49188">
        <ele>1589.68</ele>
        <time>2016-03-08T10:39:22Z</time>
      </trkpt>
      <trkpt lat="45.36997" lon="6.49184">
        <ele>1588.72</ele>
        <time>2016-03-08T10:39:23Z</time>
      </trkpt>
      <trkpt lat="45.37002" lon="6.49179">
        <ele>1587.75</ele>
        <time>2016-03-08T10:39:24Z</time>
      </trkpt>
      <trkpt lat="45.37006" lon="6.49174">
        <ele>1586.79</ele>
        <time>2016-03-08T10:39:25Z</time>
      </trkpt>
      <trkpt lat="45.37011" lon="6.49168">
        <ele>1585.83</ele>
        <time>2016-03-08T10:39:26Z</time>
      </trkpt>
      <trkpt lat="45.37016" lon="6.49162">
        <ele>1583.91</ele>
        <time>2016-03-08T10:39:27Z</time>
      </trkpt>
      <trkpt lat="45.37021" lon="6.49154">
        <ele>1582.47</ele>
        <time>2016-03-08T10:39:28Z</time>
      </trkpt>
      <trkpt lat="45.37024" lon="6.49144">
        <ele>1581.03</ele>
        <time>2016-03-08T10:39:29Z</time>
      </trkpt>
      <trkpt lat="45.37028" lon="6.49134">
        <ele>1579.58</ele>
        <time>2016-03-08T10:39:30Z</time>
      </trkpt>
      <trkpt lat="45.37031" lon="6.49125">
        <ele>1578.14</ele>
        <time>2016-03-08T10:39:31Z</time>
      </trkpt>
      <trkpt lat="45.37034" lon="6.49115">
        <ele>1577.18</ele>
        <time>2016-03-08T10:39:32Z</time>
      </trkpt>
      <trkpt lat="45.37038" lon="6.49104">
        <ele>1575.74</ele>
        <time>2016-03-08T10:39:33Z</time>
      </trkpt>
      <trkpt lat="45.37043" lon="6.49094">
        <ele>1574.3</ele>
        <time>2016-03-08T10:39:34Z</time>
      </trkpt>
      <trkpt lat="45.37048" lon="6.49086">
        <ele>1572.37</ele>
        <time>2016-03-08T10:39:35Z</time>
      </trkpt>
      <trkpt lat="45.37065" lon="6.49063">
        <ele>1569.97</ele>
        <time>2016-03-08T10:39:38Z</time>
      </trkpt>
      <trkpt lat="45.3707" lon="6.49058">
        <ele>1569.01</ele>
        <time>2016-03-08T10:39:39Z</time>
      </trkpt>
      <trkpt lat="45.37076" lon="6.49055">
        <ele>1568.53</ele>
        <time>2016-03-08T10:39:40Z</time>
      </trkpt>
      <trkpt lat="45.37104" lon="6.49039">
        <ele>1565.16</ele>
        <time>2016-03-08T10:39:45Z</time>
      </trkpt>
      <trkpt lat="45.37116" lon="6.49033">
        <ele>1564.2</ele>
        <time>2016-03-08T10:39:47Z</time>
      </trkpt>
      <trkpt lat="45.37122" lon="6.49032">
        <ele>1564.2</ele>
        <time>2016-03-08T10:39:48Z</time>
      </trkpt>
      <trkpt lat="45.37134" lon="6.49029">
        <ele>1562.76</ele>
        <time>2016-03-08T10:39:50Z</time>
      </trkpt>
      <trkpt lat="45.37139" lon="6.49028">
        <ele>1562.28</ele>
        <time>2016-03-08T10:39:51Z</time>
      </trkpt>
      <trkpt lat="45.37168" lon="6.4902">
        <ele>1558.92</ele>
        <time>2016-03-08T10:39:59Z</time>
      </trkpt>
      <trkpt lat="45.37181" lon="6.49019">
        <ele>1557.47</ele>
        <time>2016-03-08T10:40:03Z</time>
      </trkpt>
      <trkpt lat="45.37198" lon="6.49019">
        <ele>1553.63</ele>
        <time>2016-03-08T10:40:08Z</time>
      </trkpt>
      <trkpt lat="45.37203" lon="6.49019">
        <ele>1553.15</ele>
        <time>2016-03-08T10:40:09Z</time>
      </trkpt>
      <trkpt lat="45.37209" lon="6.4902">
        <ele>1553.15</ele>
        <time>2016-03-08T10:40:10Z</time>
      </trkpt>
      <trkpt lat="45.37233" lon="6.49018">
        <ele>1549.78</ele>
        <time>2016-03-08T10:40:14Z</time>
      </trkpt>
      <trkpt lat="45.37238" lon="6.49016">
        <ele>1549.3</ele>
        <time>2016-03-08T10:40:15Z</time>
      </trkpt>
      <trkpt lat="45.37246" lon="6.49013">
        <ele>1547.86</ele>
        <time>2016-03-08T10:40:16Z</time>
      </trkpt>
      <trkpt lat="45.37277" lon="6.4899">
        <ele>1544.5</ele>
        <time>2016-03-08T10:40:23Z</time>
      </trkpt>
      <trkpt lat="45.37283" lon="6.48986">
        <ele>1544.01</ele>
        <time>2016-03-08T10:40:24Z</time>
      </trkpt>
      <trkpt lat="45.3729" lon="6.48983">
        <ele>1542.57</ele>
        <time>2016-03-08T10:40:25Z</time>
      </trkpt>
      <trkpt lat="45.37297" lon="6.4898">
        <ele>1541.61</ele>
        <time>2016-03-08T10:40:26Z</time>
      </trkpt>
      <trkpt lat="45.37304" lon="6.48978">
        <ele>1540.65</ele>
        <time>2016-03-08T10:40:27Z</time>
      </trkpt>
      <trkpt lat="45.37336" lon="6.48975">
        <ele>1538.25</ele>
        <time>2016-03-08T10:40:32Z</time>
      </trkpt>
      <trkpt lat="45.37342" lon="6.48977">
        <ele>1537.77</ele>
        <time>2016-03-08T10:40:33Z</time>
      </trkpt>
      <trkpt lat="45.37347" lon="6.48981">
        <ele>1536.8</ele>
        <time>2016-03-08T10:40:34Z</time>
      </trkpt>
      <trkpt lat="45.37362" lon="6.48997">
        <ele>1533.44</ele>
        <time>2016-03-08T10:40:37Z</time>
      </trkpt>
      <trkpt lat="45.37377" lon="6.49015">
        <ele>1529.11</ele>
        <time>2016-03-08T10:40:39Z</time>
      </trkpt>
      <trkpt lat="45.3738" lon="6.49018">
        <ele>1528.63</ele>
        <time>2016-03-08T10:40:40Z</time>
      </trkpt>
      <trkpt lat="45.37398" lon="6.49035">
        <ele>1526.71</ele>
        <time>2016-03-08T10:40:44Z</time>
      </trkpt>
      <trkpt lat="45.37402" lon="6.49037">
        <ele>1525.75</ele>
        <time>2016-03-08T10:40:45Z</time>
      </trkpt>
      <trkpt lat="45.37406" lon="6.49038">
        <ele>1524.79</ele>
        <time>2016-03-08T10:40:46Z</time>
      </trkpt>
      <trkpt lat="45.37408" lon="6.4904">
        <ele>1522.87</ele>
        <time>2016-03-08T10:40:47Z</time>
      </trkpt>
      <trkpt lat="45.37411" lon="6.49043">
        <ele>1522.39</ele>
        <time>2016-03-08T10:40:48Z</time>
      </trkpt>
      <trkpt lat="45.37413" lon="6.49047">
        <ele>1521.42</ele>
        <time>2016-03-08T10:40:49Z</time>
      </trkpt>
      <trkpt lat="45.37418" lon="6.49055">
        <ele>1519.02</ele>
        <time>2016-03-08T10:40:51Z</time>
      </trkpt>
      <trkpt lat="45.37422" lon="6.49057">
        <ele>1517.58</ele>
        <time>2016-03-08T10:40:52Z</time>
      </trkpt>
      <trkpt lat="45.37435" lon="6.49066">
        <ele>1513.25</ele>
        <time>2016-03-08T10:40:55Z</time>
      </trkpt>
      <trkpt lat="45.37447" lon="6.49063">
        <ele>1508.45</ele>
        <time>2016-03-08T10:40:58Z</time>
      </trkpt>
      <trkpt lat="45.3745" lon="6.49063">
        <ele>1508.45</ele>
        <time>2016-03-08T10:40:59Z</time>
      </trkpt>
      <trkpt lat="45.37451" lon="6.49063">
        <ele>1509.41</ele>
        <time>2016-03-08T10:41:10Z</time>
      </trkpt>
      <trkpt lat="45.37459" lon="6.49079">
        <ele>1506.04</ele>
        <time>2016-03-08T10:41:14Z</time>
      </trkpt>
      <trkpt lat="45.37467" lon="6.49091">
        <ele>1502.68</ele>
        <time>2016-03-08T10:41:16Z</time>
      </trkpt>
      <trkpt lat="45.37483" lon="6.49101">
        <ele>1497.87</ele>
        <time>2016-03-08T10:41:23Z</time>
      </trkpt>
      <trkpt lat="45.37488" lon="6.49099">
        <ele>1495.47</ele>
        <time>2016-03-08T10:41:27Z</time>
      </trkpt>
      <trkpt lat="45.37491" lon="6.49095">
        <ele>1494.99</ele>
        <time>2016-03-08T10:41:33Z</time>
      </trkpt>
      <trkpt lat="45.37506" lon="6.491">
        <ele>1493.55</ele>
        <time>2016-03-08T10:41:44Z</time>
      </trkpt>
      <trkpt lat="45.37503" lon="6.491">
        <ele>1492.1</ele>
        <time>2016-03-08T10:41:56Z</time>
      </trkpt>
      <trkpt lat="45.37497" lon="6.49103">
        <ele>1490.66</ele>
        <time>2016-03-08T10:42:16Z</time>
      </trkpt>
      <trkpt lat="45.37502" lon="6.49107">
        <ele>1489.22</ele>
        <time>2016-03-08T10:42:34Z</time>
      </trkpt>
      <trkpt lat="45.37502" lon="6.49105">
        <ele>1486.82</ele>
        <time>2016-03-08T10:42:52Z</time>
      </trkpt>
      <trkpt lat="45.37503" lon="6.49103">
        <ele>1485.85</ele>
        <time>2016-03-08T10:43:10Z</time>
      </trkpt>
      <trkpt lat="45.37505" lon="6.49099">
        <ele>1486.34</ele>
        <time>2016-03-08T10:43:25Z</time>
      </trkpt>
      <trkpt lat="45.37504" lon="6.49096">
        <ele>1484.89</ele>
        <time>2016-03-08T10:43:33Z</time>
      </trkpt>
      <trkpt lat="45.37503" lon="6.49102">
        <ele>1481.53</ele>
        <time>2016-03-08T10:43:42Z</time>
      </trkpt>
      <trkpt lat="45.37504" lon="6.49103">
        <ele>1482.01</ele>
        <time>2016-03-08T10:43:43Z</time>
      </trkpt>
      <trkpt lat="45.37505" lon="6.49106">
        <ele>1480.57</ele>
        <time>2016-03-08T10:43:45Z</time>
      </trkpt>
      <trkpt lat="45.37509" lon="6.49107">
        <ele>1478.65</ele>
        <time>2016-03-08T10:43:56Z</time>
      </trkpt>
      <trkpt lat="45.37513" lon="6.49107">
        <ele>1476.72</ele>
        <time>2016-03-08T10:44:13Z</time>
      </trkpt>
      <trkpt lat="45.37516" lon="6.49114">
        <ele>1475.28</ele>
        <time>2016-03-08T10:44:23Z</time>
      </trkpt>
      <trkpt lat="45.37521" lon="6.49114">
        <ele>1473.36</ele>
        <time>2016-03-08T10:44:28Z</time>
      </trkpt>
      <trkpt lat="45.37522" lon="6.49114">
        <ele>1472.88</ele>
        <time>2016-03-08T10:44:30Z</time>
      </trkpt>
      <trkpt lat="45.37528" lon="6.4911">
        <ele>1469.99</ele>
        <time>2016-03-08T10:44:37Z</time>
      </trkpt>
      <trkpt lat="45.37533" lon="6.49107">
        <ele>1466.63</ele>
        <time>2016-03-08T10:44:41Z</time>
      </trkpt>
      <trkpt lat="45.37537" lon="6.491">
        <ele>1465.19</ele>
        <time>2016-03-08T10:44:43Z</time>
      </trkpt>
      <trkpt lat="45.3754" lon="6.4909">
        <ele>1462.78</ele>
        <time>2016-03-08T10:44:51Z</time>
      </trkpt>
      <trkpt lat="45.37541" lon="6.49088">
        <ele>1462.3</ele>
        <time>2016-03-08T10:44:55Z</time>
      </trkpt>
      <trkpt lat="45.37545" lon="6.49083">
        <ele>1459.42</ele>
        <time>2016-03-08T10:44:59Z</time>
      </trkpt>
      <trkpt lat="45.37552" lon="6.49078">
        <ele>1457.5</ele>
        <time>2016-03-08T10:45:03Z</time>
      </trkpt>
      <trkpt lat="45.37553" lon="6.49078">
        <ele>1456.53</ele>
        <time>2016-03-08T10:45:10Z</time>
      </trkpt>
      <trkpt lat="45.37562" lon="6.49084">
        <ele>1455.09</ele>
        <time>2016-03-08T10:45:14Z</time>
      </trkpt>
      <trkpt lat="45.37573" lon="6.49096">
        <ele>1452.21</ele>
        <time>2016-03-08T10:45:17Z</time>
      </trkpt>
      <trkpt lat="45.37576" lon="6.49104">
        <ele>1450.29</ele>
        <time>2016-03-08T10:45:18Z</time>
      </trkpt>
      <trkpt lat="45.37578" lon="6.4911">
        <ele>1449.81</ele>
        <time>2016-03-08T10:45:19Z</time>
      </trkpt>
      <trkpt lat="45.37581" lon="6.49115">
        <ele>1448.84</ele>
        <time>2016-03-08T10:45:20Z</time>
      </trkpt>
      <trkpt lat="45.37583" lon="6.49119">
        <ele>1448.36</ele>
        <time>2016-03-08T10:45:21Z</time>
      </trkpt>
      <trkpt lat="45.37587" lon="6.49123">
        <ele>1447.88</ele>
        <time>2016-03-08T10:45:22Z</time>
      </trkpt>
      <trkpt lat="45.37593" lon="6.49132">
        <ele>1445.48</ele>
        <time>2016-03-08T10:45:24Z</time>
      </trkpt>
      <trkpt lat="45.37596" lon="6.49138">
        <ele>1444.04</ele>
        <time>2016-03-08T10:45:25Z</time>
      </trkpt>
      <trkpt lat="45.376" lon="6.49146">
        <ele>1442.11</ele>
        <time>2016-03-08T10:45:26Z</time>
      </trkpt>
      <trkpt lat="45.37604" lon="6.49153">
        <ele>1441.15</ele>
        <time>2016-03-08T10:45:27Z</time>
      </trkpt>
      <trkpt lat="45.37608" lon="6.4916">
        <ele>1439.23</ele>
        <time>2016-03-08T10:45:28Z</time>
      </trkpt>
      <trkpt lat="45.37612" lon="6.49166">
        <ele>1438.27</ele>
        <time>2016-03-08T10:45:29Z</time>
      </trkpt>
      <trkpt lat="45.37616" lon="6.4917">
        <ele>1437.31</ele>
        <time>2016-03-08T10:45:30Z</time>
      </trkpt>
      <trkpt lat="45.3762" lon="6.49171">
        <ele>1437.31</ele>
        <time>2016-03-08T10:45:31Z</time>
      </trkpt>
      <trkpt lat="45.37622" lon="6.49171">
        <ele>1437.31</ele>
        <time>2016-03-08T10:45:32Z</time>
      </trkpt>
      <trkpt lat="45.37634" lon="6.49161">
        <ele>1435.87</ele>
        <time>2016-03-08T10:45:40Z</time>
      </trkpt>
      <trkpt lat="45.37654" lon="6.49165">
        <ele>1432.5</ele>
        <time>2016-03-08T10:45:44Z</time>
      </trkpt>
      <trkpt lat="45.37663" lon="6.49171">
        <ele>1427.7</ele>
        <time>2016-03-08T10:45:46Z</time>
      </trkpt>
      <trkpt lat="45.37667" lon="6.49176">
        <ele>1426.73</ele>
        <time>2016-03-08T10:45:47Z</time>
      </trkpt>
      <trkpt lat="45.37679" lon="6.49194">
        <ele>1422.41</ele>
        <time>2016-03-08T10:45:51Z</time>
      </trkpt>
      <trkpt lat="45.3769" lon="6.49195">
        <ele>1417.6</ele>
        <time>2016-03-08T10:45:53Z</time>
      </trkpt>
      <trkpt lat="45.37704" lon="6.49197">
        <ele>1415.68</ele>
        <time>2016-03-08T10:45:55Z</time>
      </trkpt>
      <trkpt lat="45.37722" lon="6.49206">
        <ele>1411.35</ele>
        <time>2016-03-08T10:45:58Z</time>
      </trkpt>
      <trkpt lat="45.37739" lon="6.49219">
        <ele>1406.07</ele>
        <time>2016-03-08T10:46:01Z</time>
      </trkpt>
      <trkpt lat="45.37753" lon="6.49218">
        <ele>1402.22</ele>
        <time>2016-03-08T10:46:03Z</time>
      </trkpt>
      <trkpt lat="45.37765" lon="6.49224">
        <ele>1399.34</ele>
        <time>2016-03-08T10:46:05Z</time>
      </trkpt>
      <trkpt lat="45.37777" lon="6.49244">
        <ele>1393.57</ele>
        <time>2016-03-08T10:46:07Z</time>
      </trkpt>
      <trkpt lat="45.37794" lon="6.49265">
        <ele>1389.72</ele>
        <time>2016-03-08T10:46:09Z</time>
      </trkpt>
      <trkpt lat="45.37803" lon="6.49278">
        <ele>1386.84</ele>
        <time>2016-03-08T10:46:10Z</time>
      </trkpt>
      <trkpt lat="45.37807" lon="6.49285">
        <ele>1385.4</ele>
        <time>2016-03-08T10:46:11Z</time>
      </trkpt>
      <trkpt lat="45.37811" lon="6.49293">
        <ele>1384.92</ele>
        <time>2016-03-08T10:46:12Z</time>
      </trkpt>
      <trkpt lat="45.37813" lon="6.493">
        <ele>1383.96</ele>
        <time>2016-03-08T10:46:13Z</time>
      </trkpt>
      <trkpt lat="45.37815" lon="6.49302">
        <ele>1383.96</ele>
        <time>2016-03-08T10:46:14Z</time>
      </trkpt>
      <trkpt lat="45.37816" lon="6.49303">
        <ele>1383.96</ele>
        <time>2016-03-08T10:46:15Z</time>
      </trkpt>
      <trkpt lat="45.37817" lon="6.49301">
        <ele>1383.47</ele>
        <time>2016-03-08T10:46:16Z</time>
      </trkpt>
      <trkpt lat="45.3782" lon="6.49299">
        <ele>1382.99</ele>
        <time>2016-03-08T10:46:17Z</time>
      </trkpt>
      <trkpt lat="45.37821" lon="6.49297">
        <ele>1382.51</ele>
        <time>2016-03-08T10:46:18Z</time>
      </trkpt>
      <trkpt lat="45.3784" lon="6.49277">
        <ele>1379.15</ele>
        <time>2016-03-08T10:46:25Z</time>
      </trkpt>
      <trkpt lat="45.37854" lon="6.49266">
        <ele>1376.75</ele>
        <time>2016-03-08T10:46:28Z</time>
      </trkpt>
      <trkpt lat="45.37868" lon="6.49266">
        <ele>1372.9</ele>
        <time>2016-03-08T10:46:31Z</time>
      </trkpt>
      <trkpt lat="45.37873" lon="6.49269">
        <ele>1370.98</ele>
        <time>2016-03-08T10:46:32Z</time>
      </trkpt>
      <trkpt lat="45.37878" lon="6.49286">
        <ele>1365.69</ele>
        <time>2016-03-08T10:46:35Z</time>
      </trkpt>
      <trkpt lat="45.37872" lon="6.49308">
        <ele>1361.84</ele>
        <time>2016-03-08T10:46:38Z</time>
      </trkpt>
      <trkpt lat="45.3787" lon="6.49313">
        <ele>1361.84</ele>
        <time>2016-03-08T10:46:39Z</time>
      </trkpt>
      <trkpt lat="45.37875" lon="6.49341">
        <ele>1358.96</ele>
        <time>2016-03-08T10:46:46Z</time>
      </trkpt>
      <trkpt lat="45.37876" lon="6.49343">
        <ele>1358.96</ele>
        <time>2016-03-08T10:46:52Z</time>
      </trkpt>
      <trkpt lat="45.37876" lon="6.49345">
        <ele>1358.48</ele>
        <time>2016-03-08T10:46:53Z</time>
      </trkpt>
      <trkpt lat="45.37876" lon="6.49347">
        <ele>1358.48</ele>
        <time>2016-03-08T10:46:54Z</time>
      </trkpt>
      <trkpt lat="45.37875" lon="6.49349">
        <ele>1358</ele>
        <time>2016-03-08T10:46:55Z</time>
      </trkpt>
      <trkpt lat="45.37875" lon="6.49352">
        <ele>1358</ele>
        <time>2016-03-08T10:46:56Z</time>
      </trkpt>
      <trkpt lat="45.37875" lon="6.49356">
        <ele>1357.04</ele>
        <time>2016-03-08T10:47:08Z</time>
      </trkpt>
      <trkpt lat="45.37877" lon="6.49361">
        <ele>1357.04</ele>
        <time>2016-03-08T10:47:22Z</time>
      </trkpt>
      <trkpt lat="45.37881" lon="6.49364">
        <ele>1357.04</ele>
        <time>2016-03-08T10:47:27Z</time>
      </trkpt>
      <trkpt lat="45.37886" lon="6.49366">
        <ele>1357.04</ele>
        <time>2016-03-08T10:47:37Z</time>
      </trkpt>
      <trkpt lat="45.37889" lon="6.49371">
        <ele>1356.08</ele>
        <time>2016-03-08T10:47:38Z</time>
      </trkpt>
      <trkpt lat="45.37891" lon="6.49375">
        <ele>1355.12</ele>
        <time>2016-03-08T10:47:39Z</time>
      </trkpt>
      <trkpt lat="45.37891" lon="6.49381">
        <ele>1354.15</ele>
        <time>2016-03-08T10:47:40Z</time>
      </trkpt>
      <trkpt lat="45.3789" lon="6.494">
        <ele>1350.79</ele>
        <time>2016-03-08T10:47:43Z</time>
      </trkpt>
      <trkpt lat="45.37892" lon="6.49403">
        <ele>1348.87</ele>
        <time>2016-03-08T10:47:44Z</time>
      </trkpt>
      <trkpt lat="45.37893" lon="6.49407">
        <ele>1346.94</ele>
        <time>2016-03-08T10:47:45Z</time>
      </trkpt>
      <trkpt lat="45.37895" lon="6.49412">
        <ele>1345.02</ele>
        <time>2016-03-08T10:47:46Z</time>
      </trkpt>
      <trkpt lat="45.37895" lon="6.4942">
        <ele>1343.1</ele>
        <time>2016-03-08T10:47:47Z</time>
      </trkpt>
      <trkpt lat="45.37895" lon="6.49428">
        <ele>1340.22</ele>
        <time>2016-03-08T10:47:48Z</time>
      </trkpt>
      <trkpt lat="45.37896" lon="6.49432">
        <ele>1339.73</ele>
        <time>2016-03-08T10:47:49Z</time>
      </trkpt>
      <trkpt lat="45.37897" lon="6.49435">
        <ele>1338.77</ele>
        <time>2016-03-08T10:47:50Z</time>
      </trkpt>
      <trkpt lat="45.379" lon="6.49435">
        <ele>1337.81</ele>
        <time>2016-03-08T10:47:51Z</time>
      </trkpt>
      <trkpt lat="45.37906" lon="6.49434">
        <ele>1337.33</ele>
        <time>2016-03-08T10:47:52Z</time>
      </trkpt>
      <trkpt lat="45.37909" lon="6.49435">
        <ele>1335.41</ele>
        <time>2016-03-08T10:47:53Z</time>
      </trkpt>
      <trkpt lat="45.37916" lon="6.49437">
        <ele>1334.45</ele>
        <time>2016-03-08T10:47:55Z</time>
      </trkpt>
      <trkpt lat="45.37923" lon="6.49449">
        <ele>1330.12</ele>
        <time>2016-03-08T10:47:58Z</time>
      </trkpt>
      <trkpt lat="45.37924" lon="6.49449">
        <ele>1328.68</ele>
        <time>2016-03-08T10:47:59Z</time>
      </trkpt>
      <trkpt lat="45.37925" lon="6.49448">
        <ele>1328.68</ele>
        <time>2016-03-08T10:48:00Z</time>
      </trkpt>
      <trkpt lat="45.37928" lon="6.49446">
        <ele>1328.68</ele>
        <time>2016-03-08T10:48:12Z</time>
      </trkpt>
      <trkpt lat="45.37928" lon="6.49446">
        <ele>1328.68</ele>
        <time>2016-03-08T10:48:28Z</time>
      </trkpt>
      <trkpt lat="45.3793" lon="6.4944">
        <ele>1328.68</ele>
        <time>2016-03-08T10:48:42Z</time>
      </trkpt>
      <trkpt lat="45.37932" lon="6.49435">
        <ele>1328.68</ele>
        <time>2016-03-08T10:48:52Z</time>
      </trkpt>
      <trkpt lat="45.37935" lon="6.49437">
        <ele>1329.16</ele>
        <time>2016-03-08T10:49:11Z</time>
      </trkpt>
      <trkpt lat="45.37933" lon="6.4944">
        <ele>1328.68</ele>
        <time>2016-03-08T10:49:29Z</time>
      </trkpt>
      <trkpt lat="45.3793" lon="6.4944">
        <ele>1329.16</ele>
        <time>2016-03-08T10:49:44Z</time>
      </trkpt>
      <trkpt lat="45.37931" lon="6.49437">
        <ele>1329.16</ele>
        <time>2016-03-08T10:49:55Z</time>
      </trkpt>
      <trkpt lat="45.37931" lon="6.49438">
        <ele>1330.6</ele>
        <time>2016-03-08T10:50:02Z</time>
      </trkpt>
      <trkpt lat="45.3793" lon="6.49437">
        <ele>1329.64</ele>
        <time>2016-03-08T10:50:09Z</time>
      </trkpt>
    </trkseg>
  </trk>
</gpx>